Darstellungsparameter: Aktuell verwendete Einstellungen:
Skalierung der Graphiken ... ?
xyx+y,   Skalierungsfaktor:      Skalierung: Modus: x, Faktor: 1
Darstellungszeitraum ... ?
Vom - - bis: - -   Zeitraum: 07.06.2011 - 06.12.2011
Min/Max/Avg-Anzeige ... ?
Zeige MMA aktuell
Zeige MMA Monat
Zeige MMA alles
Zeige --A aktuell
Zeige --A Monat
Zeige --A alles
Keine MMA-Anzeige
MMA:
Keine MMA-Graphiken
MMA-Basis: 07.06.2011 - 06.12.2011
Quicknavigation für Darstellung... ?
Tage:      1T, 2T, 3T, 5T -1T -2T -3T -5T +1T +2T +3T +5T
Wochen: 1W, 2W, 3W -1W -2W -3W +1W +2W +3W
Monate: 1M, 3M, 6M -1M -3M -6M +1M +3M +6M
Jahre:    1J, 3J, 5J, 10J -1J -3J -5J -10J +1J +3J +5J +10J
Nutze für die Darstellung ... ?
Originaldaten oder Mittelwerte auf ...
Stundenbasis Tagesbasis Wochenbasis
Monatsbasis Jahresbasis      Datenbasis: Original-Daten
Darstellen als:
Statistik (Auto) Statistik J:M      Darstellung:
Zur Graphik,    zurück zur Übersicht aller Sensoren.
 
Tabellarische Datenbersicht: ?
 
Sensor: Nr:Datum:Temp:Abs-Feuchte:Windchill:Wind:
Aussen-T/F 1 07-06-2011 00:07:03 15 C 11.41 g/m*3 15 C 0 km/h
2 07-06-2011 00:19:03 15.2 C 11.55 g/m*3 15.2 C 0 km/h
3 07-06-2011 00:31:03 15.2 C 11.55 g/m*3 15.2 C 0 km/h
4 07-06-2011 00:43:03 15.1 C 11.48 g/m*3 15.1 C 0 km/h
5 07-06-2011 00:55:03 15.2 C 11.55 g/m*3 15.2 C 0 km/h
6 07-06-2011 01:07:03 15.3 C 11.75 g/m*3 15.3 C 0 km/h
7 07-06-2011 01:19:03 15.3 C 11.75 g/m*3 15.3 C 0 km/h
8 07-06-2011 01:31:03 15.3 C 11.75 g/m*3 15.3 C 0 km/h
9 07-06-2011 01:43:03 15.5 C 11.9 g/m*3 15.5 C 0 km/h
10 07-06-2011 01:55:03 15.5 C 11.9 g/m*3 15.5 C 0 km/h
11 07-06-2011 02:07:03 15.6 C 11.97 g/m*3 15.6 C 0 km/h
12 07-06-2011 02:19:03 15.7 C 12.04 g/m*3 15.7 C 0 km/h
13 07-06-2011 02:31:03 15.7 C 12.04 g/m*3 15.7 C 0 km/h
14 07-06-2011 02:43:03 15.7 C 12.04 g/m*3 15.7 C 0 km/h
15 07-06-2011 02:55:03 15.5 C 11.9 g/m*3 15.5 C 0 km/h
16 07-06-2011 03:07:04 15.5 C 11.9 g/m*3 15.5 C 0 km/h
17 07-06-2011 03:19:04 15.4 C 11.82 g/m*3 15.4 C 0 km/h
18 07-06-2011 03:31:04 15 C 11.54 g/m*3 15 C 0 km/h
19 07-06-2011 03:43:04 14.9 C 11.6 g/m*3 14.9 C 0 km/h
20 07-06-2011 03:55:04 14.8 C 11.53 g/m*3 14.8 C 0 km/h
21 07-06-2011 04:07:04 15 C 11.54 g/m*3 15 C 0 km/h
22 07-06-2011 04:19:04 15.1 C 11.61 g/m*3 15.1 C 0 km/h
23 07-06-2011 04:31:04 15.2 C 11.68 g/m*3 15.2 C 0 km/h
24 07-06-2011 04:43:04 15.2 C 11.68 g/m*3 15.2 C 0 km/h
25 07-06-2011 04:55:04 15.1 C 11.61 g/m*3 15.1 C 0 km/h
Sensor: Nr:Datum:Temp:Abs-Feuchte:Windchill:Wind:
Aussen-T/F 26 07-06-2011 05:07:04 15 C 11.54 g/m*3 15 C 0 km/h
27 07-06-2011 05:19:04 15 C 11.54 g/m*3 15 C 0 km/h
28 07-06-2011 05:31:04 15 C 11.54 g/m*3 15 C 0 km/h
29 07-06-2011 05:43:04 15 C 11.54 g/m*3 15 C 0 km/h
30 07-06-2011 05:55:04 15 C 11.54 g/m*3 15 C 0 km/h
31 07-06-2011 06:07:04 14.7 C 11.33 g/m*3 14.7 C 0 km/h
32 07-06-2011 06:19:04 14.8 C 11.4 g/m*3 14.8 C 0 km/h
33 07-06-2011 06:31:04 14.8 C 11.4 g/m*3 14.8 C 0 km/h
34 07-06-2011 06:43:04 14.9 C 11.47 g/m*3 14.9 C 0 km/h
35 07-06-2011 06:55:04 15.2 C 11.42 g/m*3 15.2 C 0 km/h
36 07-06-2011 07:07:02 15.4 C 11.04 g/m*3 15.4 C 0 km/h
37 07-06-2011 07:19:02 15.7 C 10.84 g/m*3 15.7 C 0 km/h
38 07-06-2011 07:31:02 16 C 10.9 g/m*3 16 C 0 km/h
39 07-06-2011 07:43:02 16.2 C 10.76 g/m*3 16.2 C 0 km/h
40 07-06-2011 07:55:02 16.6 C 10.03 g/m*3 16.6 C 0 km/h
41 07-06-2011 08:07:02 16.9 C 9.92 g/m*3 16.9 C 0 km/h
42 07-06-2011 08:19:01 17.2 C 9.67 g/m*3 17.2 C 0 km/h
43 07-06-2011 08:31:02 17.8 C 9.87 g/m*3 17.8 C 0 km/h
44 07-06-2011 08:43:02 17.9 C 9.47 g/m*3 17.9 C 0 km/h
45 07-06-2011 08:55:02 18.2 C 8.86 g/m*3 18.2 C 0 km/h
46 07-06-2011 09:07:02 18.4 C 8.81 g/m*3 18.4 C 0 km/h
47 07-06-2011 09:19:01 18.5 C 8.54 g/m*3 18.5 C 0 km/h
48 07-06-2011 09:31:02 18.1 C 8.5 g/m*3 18.1 C 0 km/h
49 07-06-2011 09:43:02 18.4 C 8.81 g/m*3 18.4 C 0 km/h
50 07-06-2011 09:55:02 18.9 C 8.59 g/m*3 18.9 C 0 km/h
Sensor: Nr:Datum:Temp:Abs-Feuchte:Windchill:Wind:
Aussen-T/F 51 07-06-2011 10:07:02 18.8 C 8.21 g/m*3 18.8 C 0 km/h
52 07-06-2011 10:19:02 19.2 C 8.24 g/m*3 19.2 C 0 km/h
53 07-06-2011 10:31:02 19.1 C 8.03 g/m*3 19.1 C 0 km/h
54 07-06-2011 10:43:02 19.5 C 9.06 g/m*3 19.5 C 0 km/h
55 07-06-2011 10:55:02 19.1 C 8.85 g/m*3 19.1 C 0 km/h
56 07-06-2011 11:07:02 19.1 C 8.2 g/m*3 19.1 C 0 km/h
57 07-06-2011 11:19:02 19.2 C 8.41 g/m*3 19.2 C 0 km/h
58 07-06-2011 11:31:02 19.3 C 8.46 g/m*3 19.3 C 0 km/h
59 07-06-2011 11:43:02 19.5 C 8.39 g/m*3 19.5 C 0 km/h
60 07-06-2011 11:55:02 19.7 C 8.66 g/m*3 19.7 C 0 km/h
61 07-06-2011 12:07:02 20.8 C 8.69 g/m*3 20.8 C 0 km/h
62 07-06-2011 12:19:02 21.1 C 8.66 g/m*3 21.1 C 0 km/h
63 07-06-2011 12:31:02 21.1 C 8.48 g/m*3 21.1 C 0 km/h
64 07-06-2011 12:43:02 20.9 C 8.74 g/m*3 20.9 C 0 km/h
65 07-06-2011 12:55:02 21.2 C 8.52 g/m*3 21.2 C 0 km/h
66 07-06-2011 13:07:01 21.9 C 8.68 g/m*3 21.9 C 0 km/h
67 07-06-2011 13:19:02 22.3 C 8.89 g/m*3 22.3 C 0 km/h
68 07-06-2011 13:31:01 25.7 C 8.38 g/m*3 25.7 C 0 km/h
69 07-06-2011 13:43:01 29.1 C 8.66 g/m*3 29.1 C 0 km/h
70 07-06-2011 13:55:02 30.5 C 8.1 g/m*3 30.5 C 0 km/h
71 07-06-2011 14:07:01 30.3 C 8.32 g/m*3 30.3 C 0 km/h
72 07-06-2011 14:19:01 30.3 C 8.01 g/m*3 30.3 C 0 km/h
73 07-06-2011 14:31:02 28.9 C 7.71 g/m*3 28.9 C 0 km/h
74 07-06-2011 14:43:02 29 C 8.04 g/m*3 29 C 0 km/h
75 07-06-2011 14:55:02 27.1 C 8.02 g/m*3 27.1 C 0 km/h
Sensor: Nr:Datum:Temp:Abs-Feuchte:Windchill:Wind:
Aussen-T/F 76 07-06-2011 15:07:02 30.3 C 8.32 g/m*3 30.3 C 0 km/h
77 07-06-2011 15:19:02 29.5 C 8.26 g/m*3 29.5 C 0 km/h
78 07-06-2011 15:31:02 30 C 8.49 g/m*3 30 C 0 km/h
79 07-06-2011 15:43:02 30.5 C 8.1 g/m*3 30.5 C 0 km/h
80 07-06-2011 15:55:02 28.6 C 7.59 g/m*3 28.6 C 0 km/h
81 07-06-2011 16:07:02 30 C 7.88 g/m*3 30 C 0 km/h
82 07-06-2011 16:19:02 31.8 C 7.01 g/m*3 31.8 C 0 km/h
83 07-06-2011 16:31:02 30.1 C 7.62 g/m*3 30.1 C 0 km/h
84 07-06-2011 16:43:02 31.7 C 6.98 g/m*3 31.7 C 0 km/h
85 07-06-2011 16:55:02 32.1 C 6.79 g/m*3 32.1 C 0 km/h
86 07-06-2011 17:07:02 31.5 C 7.23 g/m*3 31.5 C 0 km/h
87 07-06-2011 17:19:03 29.9 C 8.14 g/m*3 29.9 C 0 km/h
88 07-06-2011 17:31:02 30.6 C 7.83 g/m*3 30.6 C 0 km/h
89 07-06-2011 17:43:02 29.3 C 8.17 g/m*3 29.3 C 0 km/h
90 07-06-2011 17:55:02 27.1 C 11.13 g/m*3 27.1 C 0 km/h
91 07-06-2011 18:07:01 24.3 C 11.29 g/m*3 24.3 C 0 km/h
92 07-06-2011 18:19:02 25.2 C 11.64 g/m*3 25.2 C 0 km/h
93 07-06-2011 18:31:01 29.7 C 8.95 g/m*3 29.7 C 0 km/h
94 07-06-2011 18:43:01 29.5 C 8.85 g/m*3 29.5 C 0 km/h
95 07-06-2011 18:55:02 28.3 C 9.4 g/m*3 28.3 C 0 km/h
96 07-06-2011 19:07:01 27.3 C 11.25 g/m*3 27.3 C 0 km/h
97 07-06-2011 19:19:01 27.7 C 11.77 g/m*3 27.7 C 0 km/h
98 07-06-2011 19:31:02 26.5 C 11.77 g/m*3 26.5 C 0 km/h
99 07-06-2011 19:43:02 24.5 C 11.41 g/m*3 24.5 C 0 km/h
100 07-06-2011 19:55:02 23.1 C 11.58 g/m*3 23.1 C 0 km/h
Sensor: Nr:Datum:Temp:Abs-Feuchte:Windchill:Wind:
Aussen-T/F 101 07-06-2011 20:07:02 22.1 C 11.71 g/m*3 22.1 C 0 km/h
102 07-06-2011 20:19:02 21.9 C 11.96 g/m*3 21.9 C 0 km/h
103 07-06-2011 20:31:02 21.2 C 11.49 g/m*3 21.2 C 0 km/h
104 07-06-2011 20:43:02 20.5 C 11.39 g/m*3 20.5 C 0 km/h
105 07-06-2011 20:55:02 20 C 11.06 g/m*3 20 C 0 km/h
106 07-06-2011 21:07:03 19.7 C 11.21 g/m*3 19.7 C 0 km/h
107 07-06-2011 21:19:02 19.6 C 10.97 g/m*3 19.6 C 0 km/h
108 07-06-2011 21:31:04 19.4 C 11.35 g/m*3 19.4 C 0 km/h
109 07-06-2011 21:43:04 19.1 C 11.15 g/m*3 19.1 C 0 km/h
110 07-06-2011 21:55:02 19 C 11.41 g/m*3 19 C 0 km/h
111 07-06-2011 22:07:02 18.5 C 11.39 g/m*3 18.5 C 0 km/h
112 07-06-2011 22:19:02 18.9 C 11.5 g/m*3 18.9 C 0 km/h
113 07-06-2011 22:32:01 19.7 C 11.21 g/m*3 19.7 C 0 km/h
114 07-06-2011 22:44:01 19.5 C 10.91 g/m*3 19.5 C 0 km/h
115 07-06-2011 22:56:01 19 C 11.41 g/m*3 19 C 0 km/h
116 07-06-2011 23:08:01 18.6 C 11.78 g/m*3 18.6 C 0 km/h
117 07-06-2011 23:20:01 18.5 C 11.87 g/m*3 18.5 C 0 km/h
118 07-06-2011 23:32:01 19.5 C 10.07 g/m*3 19.5 C 0 km/h
119 07-06-2011 23:44:01 19.1 C 9.51 g/m*3 19.1 C 0 km/h
120 07-06-2011 23:56:02 17.7 C 10.11 g/m*3 17.7 C 0 km/h
121 08-06-2011 00:08:02 16.8 C 11.29 g/m*3 16.8 C 0 km/h
122 08-06-2011 00:20:02 16.4 C 11.31 g/m*3 16.4 C 0 km/h
123 08-06-2011 00:32:02 16.4 C 11.45 g/m*3 16.4 C 0 km/h
124 08-06-2011 00:44:02 16.3 C 11.52 g/m*3 16.3 C 0 km/h
125 08-06-2011 00:56:02 16.2 C 11.58 g/m*3 16.2 C 0 km/h
Sensor: Nr:Datum:Temp:Abs-Feuchte:Windchill:Wind:
Aussen-T/F 126 08-06-2011 01:08:02 16.1 C 11.65 g/m*3 16.1 C 0 km/h
127 08-06-2011 01:20:02 16 C 11.72 g/m*3 16 C 0 km/h
128 08-06-2011 01:32:02 16 C 11.72 g/m*3 16 C 0 km/h
129 08-06-2011 01:44:02 16 C 11.85 g/m*3 16 C 0 km/h
130 08-06-2011 01:56:02 15.9 C 11.92 g/m*3 15.9 C 0 km/h
131 08-06-2011 02:08:02 15.7 C 11.77 g/m*3 15.7 C 0 km/h
132 08-06-2011 02:20:02 15.6 C 11.7 g/m*3 15.6 C 0 km/h
133 08-06-2011 02:32:02 15.5 C 11.63 g/m*3 15.5 C 0 km/h
134 08-06-2011 02:44:02 15.4 C 11.56 g/m*3 15.4 C 0 km/h
135 08-06-2011 02:56:02 15.4 C 11.56 g/m*3 15.4 C 0 km/h
136 08-06-2011 03:08:02 15.3 C 11.49 g/m*3 15.3 C 0 km/h
137 08-06-2011 03:20:02 15.2 C 11.55 g/m*3 15.2 C 0 km/h
138 08-06-2011 03:32:02 15.2 C 11.55 g/m*3 15.2 C 0 km/h
139 08-06-2011 03:44:02 15.2 C 11.55 g/m*3 15.2 C 0 km/h
140 08-06-2011 03:56:03 15.1 C 11.48 g/m*3 15.1 C 0 km/h
141 08-06-2011 04:08:03 15.1 C 11.48 g/m*3 15.1 C 0 km/h
142 08-06-2011 04:20:03 15.2 C 11.55 g/m*3 15.2 C 0 km/h
143 08-06-2011 04:32:03 15.1 C 11.48 g/m*3 15.1 C 0 km/h
144 08-06-2011 04:44:03 15.1 C 11.48 g/m*3 15.1 C 0 km/h
145 08-06-2011 04:56:03 15.1 C 11.48 g/m*3 15.1 C 0 km/h
146 08-06-2011 05:08:03 15 C 11.41 g/m*3 15 C 0 km/h
147 08-06-2011 05:20:03 14.9 C 11.47 g/m*3 14.9 C 0 km/h
148 08-06-2011 05:32:03 15 C 11.41 g/m*3 15 C 0 km/h
149 08-06-2011 05:44:03 15 C 11.41 g/m*3 15 C 0 km/h
150 08-06-2011 05:56:03 15.1 C 11.48 g/m*3 15.1 C 0 km/h
Sensor: Nr:Datum:Temp:Abs-Feuchte:Windchill:Wind:
Aussen-T/F 151 08-06-2011 06:08:03 15 C 11.41 g/m*3 15 C 0 km/h
152 08-06-2011 06:20:03 13.4 C 10.46 g/m*3 13.4 C 0 km/h
153 08-06-2011 06:32:03 12.6 C 9.96 g/m*3 12.6 C 0 km/h
154 08-06-2011 06:44:03 12.5 C 9.78 g/m*3 12.5 C 0 km/h
155 08-06-2011 06:56:03 12.4 C 9.51 g/m*3 12.4 C 0 km/h
156 08-06-2011 07:08:02 12.1 C 9.22 g/m*3 12.1 C 0 km/h
157 08-06-2011 07:20:01 12.1 C 9.12 g/m*3 12.1 C 0 km/h
158 08-06-2011 07:32:02 11.9 C 9.11 g/m*3 11.9 C 0 km/h
159 08-06-2011 07:44:02 11.8 C 9.05 g/m*3 11.8 C 0 km/h
160 08-06-2011 07:56:02 11.4 C 8.62 g/m*3 11.4 C 0 km/h
161 08-06-2011 08:08:02 11.4 C 8.72 g/m*3 11.4 C 0 km/h
162 08-06-2011 08:20:01 11.2 C 8.62 g/m*3 11.2 C 0 km/h
163 08-06-2011 08:32:02 11.5 C 8.88 g/m*3 11.5 C 0 km/h
164 08-06-2011 08:44:02 11.4 C 8.72 g/m*3 11.4 C 0 km/h
165 08-06-2011 08:56:01 11.3 C 8.57 g/m*3 11.3 C 0 km/h
166 08-06-2011 09:08:02 11.7 C 8.89 g/m*3 11.7 C 0 km/h
167 08-06-2011 09:20:02 11.8 C 8.95 g/m*3 11.8 C 0 km/h
168 08-06-2011 09:32:01 11.8 C 8.84 g/m*3 11.8 C 0 km/h
169 08-06-2011 09:44:01 12 C 8.95 g/m*3 12 C 0 km/h
170 08-06-2011 09:56:01 11.7 C 8.79 g/m*3 11.7 C 0 km/h
171 08-06-2011 10:08:01 11.9 C 8.9 g/m*3 11.9 C 0 km/h
172 08-06-2011 10:20:02 12.3 C 8.9 g/m*3 12.3 C 0 km/h
173 08-06-2011 10:32:01 12.4 C 8.85 g/m*3 12.4 C 0 km/h
174 08-06-2011 10:44:01 12.2 C 8.52 g/m*3 12.2 C 0 km/h
175 08-06-2011 10:56:03 12 C 8.1 g/m*3 12 C 0 km/h
Sensor: Nr:Datum:Temp:Abs-Feuchte:Windchill:Wind:
Aussen-T/F 176 08-06-2011 11:08:02 12.1 C 8.15 g/m*3 12.1 C 0 km/h
177 08-06-2011 11:20:02 12.4 C 8.19 g/m*3 12.4 C 0 km/h
178 08-06-2011 11:32:02 13.5 C 9.01 g/m*3 13.5 C 0 km/h
179 08-06-2011 11:44:02 14.1 C 7.89 g/m*3 14.1 C 0 km/h
180 08-06-2011 11:56:02 14.5 C 7.59 g/m*3 14.5 C 0 km/h
181 08-06-2011 12:08:01 15.4 C 7.75 g/m*3 15.4 C 0 km/h
182 08-06-2011 12:20:02 15.9 C 6.77 g/m*3 15.9 C 0 km/h
183 08-06-2011 12:32:02 15.8 C 6.6 g/m*3 15.8 C 0 km/h
184 08-06-2011 12:44:02 16.2 C 6.34 g/m*3 16.2 C 0 km/h
185 08-06-2011 12:56:02 17.3 C 6.48 g/m*3 17.3 C 0 km/h
186 08-06-2011 13:08:02 18 C 6.6 g/m*3 18 C 0 km/h
187 08-06-2011 13:20:02 18.6 C 7 g/m*3 18.6 C 0 km/h
188 08-06-2011 13:32:02 19.9 C 7.04 g/m*3 19.9 C 0 km/h
189 08-06-2011 13:44:02 22 C 6.6 g/m*3 22 C 0 km/h
190 08-06-2011 13:56:01 24.2 C 6.82 g/m*3 24.2 C 0 km/h
191 08-06-2011 14:08:02 20.5 C 6.58 g/m*3 20.5 C 0 km/h
192 08-06-2011 14:20:01 18.9 C 6.97 g/m*3 18.9 C 0 km/h
193 08-06-2011 14:32:01 18.6 C 7.16 g/m*3 18.6 C 0 km/h
194 08-06-2011 14:44:01 22.9 C 7.36 g/m*3 22.9 C 0 km/h
195 08-06-2011 14:56:01 19.6 C 6.75 g/m*3 19.6 C 0 km/h
196 08-06-2011 15:08:01 21.1 C 6.82 g/m*3 21.1 C 0 km/h
197 08-06-2011 15:20:01 22.4 C 6.75 g/m*3 22.4 C 0 km/h
198 08-06-2011 15:32:01 19.9 C 7.04 g/m*3 19.9 C 0 km/h
199 08-06-2011 15:44:01 20.3 C 7.03 g/m*3 20.3 C 0 km/h
200 08-06-2011 15:56:02 20.8 C 7.42 g/m*3 20.8 C 0 km/h
Sensor: Nr:Datum:Temp:Abs-Feuchte:Windchill:Wind:
Aussen-T/F 201 08-06-2011 16:08:02 20.3 C 6.16 g/m*3 20.3 C 0 km/h
202 08-06-2011 16:20:03 19.4 C 5.51 g/m*3 19.4 C 0 km/h
203 08-06-2011 16:32:02 20.4 C 5.66 g/m*3 20.4 C 0 km/h
204 08-06-2011 16:44:02 19.2 C 5.11 g/m*3 19.2 C 0 km/h
205 08-06-2011 16:56:02 20.9 C 5.28 g/m*3 20.9 C 0 km/h
206 08-06-2011 17:08:02 20.6 C 5.55 g/m*3 20.6 C 0 km/h
207 08-06-2011 17:20:02 20.9 C 5.46 g/m*3 20.9 C 0 km/h
208 08-06-2011 17:32:02 19.6 C 5.06 g/m*3 19.6 C 0 km/h
209 08-06-2011 17:44:02 18.9 C 5.67 g/m*3 18.9 C 0 km/h
210 08-06-2011 17:56:02 18.6 C 5.73 g/m*3 18.6 C 0 km/h
211 08-06-2011 18:08:02 19.4 C 5.51 g/m*3 19.4 C 0 km/h
212 08-06-2011 18:20:02 18.6 C 5.73 g/m*3 18.6 C 0 km/h
213 08-06-2011 18:32:02 18.2 C 6.22 g/m*3 18.2 C 0 km/h
214 08-06-2011 18:44:02 17.9 C 6.11 g/m*3 17.9 C 0 km/h
215 08-06-2011 18:56:02 17.6 C 6.3 g/m*3 17.6 C 0 km/h
216 08-06-2011 19:08:01 17.7 C 6.34 g/m*3 17.7 C 0 km/h
217 08-06-2011 19:20:02 17.4 C 6.97 g/m*3 17.4 C 0 km/h
218 08-06-2011 19:32:01 17.3 C 7.66 g/m*3 17.3 C 0 km/h
219 08-06-2011 19:44:01 17.3 C 7.22 g/m*3 17.3 C 0 km/h
220 08-06-2011 19:56:02 16.9 C 6.47 g/m*3 16.9 C 0 km/h
221 08-06-2011 20:08:01 16.3 C 7.08 g/m*3 16.3 C 0 km/h
222 08-06-2011 20:20:01 16.3 C 7.08 g/m*3 16.3 C 0 km/h
223 08-06-2011 20:32:02 16.3 C 7.08 g/m*3 16.3 C 0 km/h
224 08-06-2011 20:44:02 15 C 8.21 g/m*3 15 C 0 km/h
225 08-06-2011 20:56:02 14.9 C 8.16 g/m*3 14.9 C 0 km/h
Sensor: Nr:Datum:Temp:Abs-Feuchte:Windchill:Wind:
Aussen-T/F 226 08-06-2011 21:08:02 14.7 C 8.18 g/m*3 14.7 C 0 km/h
227 08-06-2011 21:20:02 14.4 C 8.03 g/m*3 14.4 C 0 km/h
228 08-06-2011 21:32:02 14.2 C 8.3 g/m*3 14.2 C 0 km/h
229 08-06-2011 21:44:02 14 C 8.32 g/m*3 14 C 0 km/h
230 08-06-2011 21:56:02 13.7 C 8.41 g/m*3 13.7 C 0 km/h
231 08-06-2011 22:08:02 13.6 C 8.47 g/m*3 13.6 C 0 km/h
232 08-06-2011 22:20:02 13.2 C 8.27 g/m*3 13.2 C 0 km/h
233 08-06-2011 22:32:03 13.4 C 8.49 g/m*3 13.4 C 0 km/h
234 08-06-2011 22:44:03 13.2 C 8.15 g/m*3 13.2 C 0 km/h
235 08-06-2011 22:56:03 13.2 C 8.04 g/m*3 13.2 C 0 km/h
236 08-06-2011 23:08:02 13.3 C 7.86 g/m*3 13.3 C 0 km/h
237 08-06-2011 23:21:04 13.4 C 7.79 g/m*3 13.4 C 0 km/h
238 08-06-2011 23:33:04 13.4 C 7.79 g/m*3 13.4 C 0 km/h
239 08-06-2011 23:45:04 13.4 C 7.79 g/m*3 13.4 C 0 km/h
240 08-06-2011 23:57:04 13.4 C 7.79 g/m*3 13.4 C 0 km/h
241 09-06-2011 00:09:04 13.4 C 7.79 g/m*3 13.4 C 0 km/h
242 09-06-2011 00:21:04 13.4 C 7.79 g/m*3 13.4 C 0 km/h
243 09-06-2011 00:33:04 13.4 C 7.79 g/m*3 13.4 C 0 km/h
244 09-06-2011 00:45:04 13.4 C 7.79 g/m*3 13.4 C 0 km/h
245 09-06-2011 00:57:05 13.4 C 7.79 g/m*3 13.4 C 0 km/h
246 09-06-2011 01:09:05 13.4 C 7.79 g/m*3 13.4 C 0 km/h
247 09-06-2011 01:21:05 11.7 C 7.64 g/m*3 11.7 C 0 km/h
248 09-06-2011 01:33:05 11.7 C 7.64 g/m*3 11.7 C 0 km/h
249 09-06-2011 01:45:05 11.7 C 7.64 g/m*3 11.7 C 0 km/h
250 09-06-2011 01:57:05 11.1 C 7.55 g/m*3 11.1 C 0 km/h
Sensor: Nr:Datum:Temp:Abs-Feuchte:Windchill:Wind:
Aussen-T/F 251 09-06-2011 02:09:05 11.1 C 7.55 g/m*3 11.1 C 0 km/h
252 09-06-2011 02:21:05 11.1 C 7.55 g/m*3 11.1 C 0 km/h
253 09-06-2011 02:33:05 11.1 C 7.55 g/m*3 11.1 C 0 km/h
254 09-06-2011 02:45:05 11.1 C 7.55 g/m*3 11.1 C 0 km/h
255 09-06-2011 02:57:05 11.1 C 7.55 g/m*3 11.1 C 0 km/h
256 09-06-2011 03:09:05 11.1 C 7.55 g/m*3 11.1 C 0 km/h
257 09-06-2011 03:21:05 11.1 C 7.55 g/m*3 11.1 C 0 km/h
258 09-06-2011 03:33:05 11.1 C 7.55 g/m*3 11.1 C 0 km/h
259 09-06-2011 03:45:05 11.1 C 7.55 g/m*3 11.1 C 0 km/h
260 09-06-2011 03:57:05 11.1 C 7.55 g/m*3 11.1 C 0 km/h
261 09-06-2011 04:09:05 11.1 C 7.55 g/m*3 11.1 C 0 km/h
262 09-06-2011 04:21:05 11.1 C 7.55 g/m*3 11.1 C 0 km/h
263 09-06-2011 04:33:05 11.1 C 7.55 g/m*3 11.1 C 0 km/h
264 09-06-2011 04:45:05 11.1 C 7.55 g/m*3 11.1 C 0 km/h
265 09-06-2011 04:57:06 11.1 C 7.55 g/m*3 11.1 C 0 km/h
266 09-06-2011 05:09:06 11.1 C 7.55 g/m*3 11.1 C 0 km/h
267 09-06-2011 05:21:06 11.1 C 7.55 g/m*3 11.1 C 0 km/h
268 09-06-2011 05:33:06 11.1 C 7.55 g/m*3 11.1 C 0 km/h
269 09-06-2011 05:45:06 11.1 C 7.55 g/m*3 11.1 C 0 km/h
270 09-06-2011 05:57:06 11.1 C 7.55 g/m*3 11.1 C 0 km/h
271 09-06-2011 06:09:06 11.1 C 7.55 g/m*3 11.1 C 0 km/h
272 09-06-2011 06:21:06 8.8 C 7.66 g/m*3 8.8 C 0 km/h
273 09-06-2011 06:33:06 8.7 C 7.61 g/m*3 8.7 C 0 km/h
274 09-06-2011 06:45:02 8.6 C 7.56 g/m*3 8.6 C 0 km/h
275 09-06-2011 06:57:02 8.8 C 7.66 g/m*3 8.8 C 0 km/h
Sensor: Nr:Datum:Temp:Abs-Feuchte:Windchill:Wind:
Aussen-T/F 276 09-06-2011 07:09:02 9.3 C 7.91 g/m*3 9.3 C 0 km/h
277 09-06-2011 07:21:02 9.5 C 8.01 g/m*3 9.5 C 0 km/h
278 09-06-2011 07:33:02 9.7 C 8.11 g/m*3 9.7 C 0 km/h
279 09-06-2011 07:45:02 9.7 C 8.11 g/m*3 9.7 C 0 km/h
280 09-06-2011 07:57:02 9.7 C 8.11 g/m*3 9.7 C 0 km/h
281 09-06-2011 08:09:01 9.7 C 8.11 g/m*3 9.7 C 0 km/h
282 09-06-2011 08:21:02 9.7 C 8.11 g/m*3 9.7 C 0 km/h
283 09-06-2011 08:33:02 9.7 C 8.11 g/m*3 9.7 C 0 km/h
284 09-06-2011 08:45:02 9.7 C 8.11 g/m*3 9.7 C 0 km/h
285 09-06-2011 08:57:02 9.7 C 8.11 g/m*3 9.7 C 0 km/h
286 09-06-2011 09:09:03 9.7 C 8.11 g/m*3 9.7 C 0 km/h
287 09-06-2011 09:21:02 9.7 C 8.11 g/m*3 9.7 C 0 km/h
288 09-06-2011 09:33:03 9.7 C 8.11 g/m*3 9.7 C 0 km/h
289 09-06-2011 09:45:02 9.7 C 8.11 g/m*3 9.7 C 0 km/h
290 09-06-2011 09:57:03 9.7 C 8.11 g/m*3 9.7 C 0 km/h
291 09-06-2011 10:09:01 9.7 C 8.11 g/m*3 9.7 C 0 km/h
292 09-06-2011 10:21:02 9.7 C 8.11 g/m*3 9.7 C 0 km/h
293 09-06-2011 10:33:02 9.7 C 8.11 g/m*3 9.7 C 0 km/h
294 09-06-2011 10:58:02 9.7 C 8.11 g/m*3 9.7 C 0 km/h
295 09-06-2011 11:10:03 9.7 C 8.11 g/m*3 9.7 C 0 km/h
296 09-06-2011 11:22:02 9.7 C 8.11 g/m*3 9.7 C 0 km/h
297 09-06-2011 11:34:02 9.7 C 8.11 g/m*3 9.7 C 0 km/h
298 09-06-2011 11:46:02 9.7 C 8.11 g/m*3 9.7 C 0 km/h
299 09-06-2011 11:58:02 18.6 C 6.37 g/m*3 18.6 C 0 km/h
300 09-06-2011 12:10:03 18.8 C 6.76 g/m*3 18.8 C 0 km/h
Sensor: Nr:Datum:Temp:Abs-Feuchte:Windchill:Wind:
Aussen-T/F 301 09-06-2011 12:22:03 18.3 C 6.1 g/m*3 18.3 C 0 km/h
302 09-06-2011 12:34:02 18.1 C 8.03 g/m*3 18.1 C 0 km/h
303 09-06-2011 12:46:02 20 C 6.91 g/m*3 20 C 0 km/h
304 09-06-2011 12:58:03 20.9 C 6.56 g/m*3 20.9 C 0 km/h
305 09-06-2011 13:10:01 20.9 C 6.19 g/m*3 20.9 C 0 km/h
306 09-06-2011 13:22:02 20.1 C 6.78 g/m*3 20.1 C 0 km/h
307 09-06-2011 13:34:02 20.1 C 6.61 g/m*3 20.1 C 0 km/h
308 09-06-2011 13:46:02 18.8 C 6.76 g/m*3 18.8 C 0 km/h
309 09-06-2011 13:58:02 17.1 C 7.57 g/m*3 17.1 C 0 km/h
310 09-06-2011 14:10:03 16.7 C 6.54 g/m*3 16.7 C 0 km/h
311 09-06-2011 14:22:02 16.2 C 7.58 g/m*3 16.2 C 0 km/h
312 09-06-2011 14:34:02 15.6 C 7.98 g/m*3 15.6 C 0 km/h
313 09-06-2011 14:46:01 15.5 C 8.06 g/m*3 15.5 C 0 km/h
314 09-06-2011 14:58:01 15.7 C 8.16 g/m*3 15.7 C 0 km/h
315 09-06-2011 15:10:02 16.2 C 8.14 g/m*3 16.2 C 0 km/h
316 09-06-2011 15:22:01 17 C 8.68 g/m*3 17 C 0 km/h
317 09-06-2011 15:34:01 17.3 C 8.25 g/m*3 17.3 C 0 km/h
318 09-06-2011 15:46:01 17.9 C 8.24 g/m*3 17.9 C 0 km/h
319 09-06-2011 15:58:01 18.2 C 8.39 g/m*3 18.2 C 0 km/h
320 09-06-2011 16:10:02 17.6 C 8.7 g/m*3 17.6 C 0 km/h
321 09-06-2011 16:22:01 17.2 C 8.35 g/m*3 17.2 C 0 km/h
322 09-06-2011 16:34:01 17.1 C 8.44 g/m*3 17.1 C 0 km/h
323 09-06-2011 16:46:01 16.8 C 9.01 g/m*3 16.8 C 0 km/h
324 09-06-2011 16:58:01 16.6 C 9.18 g/m*3 16.6 C 0 km/h
325 09-06-2011 17:10:01 16.5 C 8.99 g/m*3 16.5 C 0 km/h
Sensor: Nr:Datum:Temp:Abs-Feuchte:Windchill:Wind:
Aussen-T/F 326 09-06-2011 17:22:02 16.8 C 9.01 g/m*3 16.8 C 0 km/h
327 09-06-2011 17:34:01 16.8 C 9.01 g/m*3 16.8 C 0 km/h
328 09-06-2011 17:46:02 17.2 C 8.93 g/m*3 17.2 C 0 km/h
329 09-06-2011 17:58:02 17.8 C 8.8 g/m*3 17.8 C 0 km/h
330 09-06-2011 18:10:02 20.4 C 7.78 g/m*3 20.4 C 0 km/h
331 09-06-2011 18:22:02 21.3 C 6.9 g/m*3 21.3 C 0 km/h
332 09-06-2011 18:34:02 23.3 C 6.69 g/m*3 23.3 C 0 km/h
333 09-06-2011 18:46:02 22.2 C 5.5 g/m*3 22.2 C 0 km/h
334 09-06-2011 18:58:02 22.5 C 6.19 g/m*3 22.5 C 0 km/h
335 09-06-2011 19:10:01 22.3 C 7.5 g/m*3 22.3 C 0 km/h
336 09-06-2011 19:22:02 22.3 C 7.5 g/m*3 22.3 C 0 km/h
337 09-06-2011 19:34:02 22.3 C 7.5 g/m*3 22.3 C 0 km/h
338 09-06-2011 19:46:02 22.3 C 7.5 g/m*3 22.3 C 0 km/h
339 09-06-2011 19:58:02 22.3 C 7.5 g/m*3 22.3 C 0 km/h
340 09-06-2011 20:10:02 22.3 C 7.5 g/m*3 22.3 C 0 km/h
341 09-06-2011 20:22:02 22.3 C 7.5 g/m*3 22.3 C 0 km/h
342 09-06-2011 20:34:02 22.3 C 7.5 g/m*3 22.3 C 0 km/h
343 09-06-2011 20:46:02 22.3 C 7.5 g/m*3 22.3 C 0 km/h
344 09-06-2011 20:58:02 22.3 C 7.5 g/m*3 22.3 C 0 km/h
345 09-06-2011 21:10:02 13 C 9.3 g/m*3 13 C 0 km/h
346 09-06-2011 21:22:01 12.9 C 9.47 g/m*3 12.9 C 0 km/h
347 09-06-2011 21:34:02 12.9 C 9.58 g/m*3 12.9 C 0 km/h
348 09-06-2011 21:46:02 12.5 C 9.46 g/m*3 12.5 C 0 km/h
349 09-06-2011 21:58:02 12.4 C 9.4 g/m*3 12.4 C 0 km/h
350 09-06-2011 22:10:02 12.4 C 9.4 g/m*3 12.4 C 0 km/h
Sensor: Nr:Datum:Temp:Abs-Feuchte:Windchill:Wind:
Aussen-T/F 351 09-06-2011 22:22:01 11.5 C 8.99 g/m*3 11.5 C 0 km/h
352 09-06-2011 22:35:03 11.5 C 8.99 g/m*3 11.5 C 0 km/h
353 09-06-2011 22:47:03 11.4 C 8.93 g/m*3 11.4 C 0 km/h
354 09-06-2011 22:59:03 11.4 C 8.93 g/m*3 11.4 C 0 km/h
355 09-06-2011 23:11:03 11.4 C 8.93 g/m*3 11.4 C 0 km/h
356 09-06-2011 23:23:03 11.4 C 8.93 g/m*3 11.4 C 0 km/h
357 09-06-2011 23:35:03 11.4 C 8.93 g/m*3 11.4 C 0 km/h
358 09-06-2011 23:47:03 11.4 C 8.93 g/m*3 11.4 C 0 km/h
359 09-06-2011 23:59:03 11.4 C 8.93 g/m*3 11.4 C 0 km/h
360 10-06-2011 00:11:03 11.4 C 8.93 g/m*3 11.4 C 0 km/h
361 10-06-2011 00:23:03 11.4 C 8.93 g/m*3 11.4 C 0 km/h
362 10-06-2011 00:35:03 11.4 C 8.93 g/m*3 11.4 C 0 km/h
363 10-06-2011 00:47:04 11.4 C 8.93 g/m*3 11.4 C 0 km/h
364 10-06-2011 00:59:04 11.4 C 8.93 g/m*3 11.4 C 0 km/h
365 10-06-2011 01:11:04 11.4 C 8.93 g/m*3 11.4 C 0 km/h
366 10-06-2011 01:23:04 11.4 C 8.93 g/m*3 11.4 C 0 km/h
367 10-06-2011 01:35:04 11.4 C 8.93 g/m*3 11.4 C 0 km/h
368 10-06-2011 01:47:04 11.4 C 8.93 g/m*3 11.4 C 0 km/h
369 10-06-2011 01:59:04 11.4 C 8.93 g/m*3 11.4 C 0 km/h
370 10-06-2011 02:11:04 11.4 C 8.93 g/m*3 11.4 C 0 km/h
371 10-06-2011 02:23:04 11.4 C 8.93 g/m*3 11.4 C 0 km/h
372 10-06-2011 02:35:04 11.4 C 8.93 g/m*3 11.4 C 0 km/h
373 10-06-2011 02:47:04 11.4 C 8.93 g/m*3 11.4 C 0 km/h
374 10-06-2011 02:59:04 11.4 C 8.93 g/m*3 11.4 C 0 km/h
375 10-06-2011 03:11:04 11.4 C 8.93 g/m*3 11.4 C 0 km/h
Sensor: Nr:Datum:Temp:Abs-Feuchte:Windchill:Wind:
Aussen-T/F 376 10-06-2011 03:23:04 11.4 C 8.93 g/m*3 11.4 C 0 km/h
377 10-06-2011 03:35:04 11.4 C 8.93 g/m*3 11.4 C 0 km/h
378 10-06-2011 03:47:04 11.4 C 8.93 g/m*3 11.4 C 0 km/h
379 10-06-2011 03:59:04 11.4 C 8.93 g/m*3 11.4 C 0 km/h
380 10-06-2011 04:11:04 11.4 C 8.93 g/m*3 11.4 C 0 km/h
381 10-06-2011 04:23:04 11.4 C 8.93 g/m*3 11.4 C 0 km/h
382 10-06-2011 04:35:04 11.4 C 8.93 g/m*3 11.4 C 0 km/h
383 10-06-2011 04:47:04 11.4 C 8.93 g/m*3 11.4 C 0 km/h
384 10-06-2011 04:59:05 11.4 C 8.93 g/m*3 11.4 C 0 km/h
385 10-06-2011 05:11:05 11.4 C 8.93 g/m*3 11.4 C 0 km/h
386 10-06-2011 05:23:05 11.4 C 8.93 g/m*3 11.4 C 0 km/h
387 10-06-2011 05:35:05 11.4 C 8.93 g/m*3 11.4 C 0 km/h
388 10-06-2011 05:47:05 11.4 C 8.93 g/m*3 11.4 C 0 km/h
389 10-06-2011 05:59:05 11.4 C 8.93 g/m*3 11.4 C 0 km/h
390 10-06-2011 06:11:05 11.4 C 8.93 g/m*3 11.4 C 0 km/h
391 10-06-2011 06:23:05 11.4 C 8.93 g/m*3 11.4 C 0 km/h
392 10-06-2011 06:35:03 11.5 C 9.09 g/m*3 11.5 C 0 km/h
393 10-06-2011 06:47:02 11.8 C 9.26 g/m*3 11.8 C 0 km/h
394 10-06-2011 06:59:02 12 C 9.27 g/m*3 12 C 0 km/h
395 10-06-2011 07:11:03 12.1 C 9.33 g/m*3 12.1 C 0 km/h
396 10-06-2011 07:23:02 12.5 C 9.46 g/m*3 12.5 C 0 km/h
397 10-06-2011 07:35:02 12.5 C 9.46 g/m*3 12.5 C 0 km/h
398 10-06-2011 07:47:01 13 C 9.07 g/m*3 13 C 0 km/h
399 10-06-2011 07:59:01 13 C 9.07 g/m*3 13 C 0 km/h
400 10-06-2011 08:11:02 13 C 9.07 g/m*3 13 C 0 km/h
Sensor: Nr:Datum:Temp:Abs-Feuchte:Windchill:Wind:
Aussen-T/F 401 10-06-2011 08:23:01 13 C 9.07 g/m*3 13 C 0 km/h
402 10-06-2011 08:35:02 13 C 9.07 g/m*3 13 C 0 km/h
403 10-06-2011 08:47:02 13 C 9.07 g/m*3 13 C 0 km/h
404 10-06-2011 08:59:02 13 C 9.07 g/m*3 13 C 0 km/h
405 10-06-2011 09:11:02 13 C 9.07 g/m*3 13 C 0 km/h
406 10-06-2011 09:23:01 13 C 9.07 g/m*3 13 C 0 km/h
407 10-06-2011 09:35:02 13 C 9.07 g/m*3 13 C 0 km/h
408 10-06-2011 09:47:02 13 C 9.07 g/m*3 13 C 0 km/h
409 10-06-2011 09:59:02 13 C 9.07 g/m*3 13 C 0 km/h
410 10-06-2011 10:11:02 13 C 9.07 g/m*3 13 C 0 km/h
411 10-06-2011 10:23:01 13 C 9.07 g/m*3 13 C 0 km/h
412 10-06-2011 10:35:02 13 C 9.07 g/m*3 13 C 0 km/h
413 10-06-2011 10:47:01 13 C 9.07 g/m*3 13 C 0 km/h
414 10-06-2011 10:59:01 13 C 9.07 g/m*3 13 C 0 km/h
415 10-06-2011 11:11:02 13 C 9.07 g/m*3 13 C 0 km/h
416 10-06-2011 11:23:02 13 C 9.07 g/m*3 13 C 0 km/h
417 10-06-2011 11:35:02 13 C 9.07 g/m*3 13 C 0 km/h
418 10-06-2011 11:47:01 13 C 9.07 g/m*3 13 C 0 km/h
419 10-06-2011 11:59:01 13 C 9.07 g/m*3 13 C 0 km/h
420 10-06-2011 12:11:02 13 C 9.07 g/m*3 13 C 0 km/h
421 10-06-2011 12:23:02 13 C 9.07 g/m*3 13 C 0 km/h
422 10-06-2011 12:35:01 13 C 9.07 g/m*3 13 C 0 km/h
423 10-06-2011 12:47:02 13 C 9.07 g/m*3 13 C 0 km/h
424 10-06-2011 12:59:02 13 C 9.07 g/m*3 13 C 0 km/h
425 10-06-2011 13:11:01 13 C 9.07 g/m*3 13 C 0 km/h
Sensor: Nr:Datum:Temp:Abs-Feuchte:Windchill:Wind:
Aussen-T/F 426 10-06-2011 13:23:02 13 C 9.07 g/m*3 13 C 0 km/h
427 10-06-2011 13:35:01 13 C 9.07 g/m*3 13 C 0 km/h
428 10-06-2011 13:47:02 13 C 9.07 g/m*3 13 C 0 km/h
429 10-06-2011 13:59:02 13 C 9.07 g/m*3 13 C 0 km/h
430 10-06-2011 14:11:01 13 C 9.07 g/m*3 13 C 0 km/h
431 10-06-2011 14:23:01 13 C 9.07 g/m*3 13 C 0 km/h
432 10-06-2011 14:35:01 13 C 9.07 g/m*3 13 C 0 km/h
433 10-06-2011 14:47:02 13 C 9.07 g/m*3 13 C 0 km/h
434 10-06-2011 14:59:02 13 C 9.07 g/m*3 13 C 0 km/h
435 10-06-2011 15:11:02 13 C 9.07 g/m*3 13 C 0 km/h
436 10-06-2011 15:23:02 21.5 C 6.03 g/m*3 21.5 C 0 km/h
437 10-06-2011 15:35:02 21.7 C 5.91 g/m*3 21.7 C 0 km/h
438 10-06-2011 15:47:02 22 C 5.43 g/m*3 22 C 0 km/h
439 10-06-2011 15:59:02 24.1 C 5.69 g/m*3 24.1 C 0 km/h
440 10-06-2011 16:11:02 26.7 C 5.06 g/m*3 26.7 C 0 km/h
441 10-06-2011 16:23:02 27 C 5.15 g/m*3 27 C 0 km/h
442 10-06-2011 16:35:01 24 C 4.35 g/m*3 24 C 0 km/h
443 10-06-2011 16:47:03 27.6 C 5.32 g/m*3 27.6 C 0 km/h
444 10-06-2011 16:59:03 26.3 C 4.95 g/m*3 26.3 C 0 km/h
445 10-06-2011 17:11:03 23.3 C 4.39 g/m*3 23.3 C 0 km/h
446 10-06-2011 17:23:02 22.5 C 4.79 g/m*3 22.5 C 0 km/h
447 10-06-2011 17:35:02 22.5 C 4.79 g/m*3 22.5 C 0 km/h
448 10-06-2011 17:47:02 20.6 C 6.62 g/m*3 20.6 C 0 km/h
449 10-06-2011 17:59:02 19.3 C 7.63 g/m*3 19.3 C 0 km/h
450 10-06-2011 18:11:01 18.8 C 7.57 g/m*3 18.8 C 0 km/h
Sensor: Nr:Datum:Temp:Abs-Feuchte:Windchill:Wind:
Aussen-T/F 451 10-06-2011 18:23:01 18.1 C 6.18 g/m*3 18.1 C 0 km/h
452 10-06-2011 18:35:02 18.2 C 6.53 g/m*3 18.2 C 0 km/h
453 10-06-2011 18:47:02 18.2 C 6.53 g/m*3 18.2 C 0 km/h
454 10-06-2011 18:59:02 18.2 C 6.53 g/m*3 18.2 C 0 km/h
455 10-06-2011 19:11:02 18.2 C 6.53 g/m*3 18.2 C 0 km/h
456 10-06-2011 19:23:02 18.2 C 7.77 g/m*3 18.2 C 0 km/h
457 10-06-2011 19:35:02 18.2 C 7.77 g/m*3 18.2 C 0 km/h
458 10-06-2011 19:47:02 18.2 C 7.77 g/m*3 18.2 C 0 km/h
459 10-06-2011 19:59:02 18.2 C 7.77 g/m*3 18.2 C 0 km/h
460 10-06-2011 20:11:02 18.2 C 7.77 g/m*3 18.2 C 0 km/h
461 10-06-2011 20:23:02 18.2 C 7.77 g/m*3 18.2 C 0 km/h
462 10-06-2011 20:35:02 18.2 C 7.77 g/m*3 18.2 C 0 km/h
463 10-06-2011 20:47:01 18.2 C 7.77 g/m*3 18.2 C 0 km/h
464 10-06-2011 20:59:01 18.2 C 7.77 g/m*3 18.2 C 0 km/h
465 10-06-2011 21:11:01 18.2 C 7.77 g/m*3 18.2 C 0 km/h
466 10-06-2011 21:23:01 18.2 C 7.77 g/m*3 18.2 C 0 km/h
467 10-06-2011 21:35:01 14.3 C 8.72 g/m*3 14.3 C 0 km/h
468 10-06-2011 21:47:01 14.3 C 8.72 g/m*3 14.3 C 0 km/h
469 10-06-2011 21:59:01 14.3 C 8.72 g/m*3 14.3 C 0 km/h
470 10-06-2011 22:11:02 14.4 C 8.9 g/m*3 14.4 C 0 km/h
471 10-06-2011 22:24:03 14.4 C 8.9 g/m*3 14.4 C 0 km/h
472 10-06-2011 22:36:03 14.4 C 8.9 g/m*3 14.4 C 0 km/h
473 10-06-2011 22:48:03 14.4 C 8.9 g/m*3 14.4 C 0 km/h
474 10-06-2011 23:00:03 14.4 C 8.9 g/m*3 14.4 C 0 km/h
475 10-06-2011 23:12:03 14.4 C 8.9 g/m*3 14.4 C 0 km/h
Sensor: Nr:Datum:Temp:Abs-Feuchte:Windchill:Wind:
Aussen-T/F 476 10-06-2011 23:24:03 14.4 C 8.9 g/m*3 14.4 C 0 km/h
477 10-06-2011 23:36:03 15.1 C 7.87 g/m*3 15.1 C 0 km/h
478 10-06-2011 23:48:03 15.1 C 7.87 g/m*3 15.1 C 0 km/h
479 11-06-2011 00:00:03 15.1 C 7.87 g/m*3 15.1 C 0 km/h
480 11-06-2011 00:12:03 12.6 C 9.07 g/m*3 12.6 C 0 km/h
481 11-06-2011 00:24:03 12.6 C 9.07 g/m*3 12.6 C 0 km/h
482 11-06-2011 00:36:03 12.6 C 9.07 g/m*3 12.6 C 0 km/h
483 11-06-2011 00:48:03 12.6 C 9.07 g/m*3 12.6 C 0 km/h
484 11-06-2011 01:00:03 12.6 C 9.07 g/m*3 12.6 C 0 km/h
485 11-06-2011 01:12:03 12.6 C 9.07 g/m*3 12.6 C 0 km/h
486 11-06-2011 01:24:03 12.6 C 9.07 g/m*3 12.6 C 0 km/h
487 11-06-2011 01:36:04 12.6 C 9.07 g/m*3 12.6 C 0 km/h
488 11-06-2011 01:48:04 12.6 C 9.07 g/m*3 12.6 C 0 km/h
489 11-06-2011 02:00:04 12.6 C 9.07 g/m*3 12.6 C 0 km/h
490 11-06-2011 02:12:04 12.6 C 9.07 g/m*3 12.6 C 0 km/h
491 11-06-2011 02:24:04 12.6 C 9.07 g/m*3 12.6 C 0 km/h
492 11-06-2011 02:36:04 12.6 C 9.07 g/m*3 12.6 C 0 km/h
493 11-06-2011 02:48:04 12.6 C 9.07 g/m*3 12.6 C 0 km/h
494 11-06-2011 03:00:04 12.6 C 9.07 g/m*3 12.6 C 0 km/h
495 11-06-2011 03:12:04 12.6 C 9.07 g/m*3 12.6 C 0 km/h
496 11-06-2011 03:24:04 12.6 C 9.07 g/m*3 12.6 C 0 km/h
497 11-06-2011 03:36:04 12.6 C 9.07 g/m*3 12.6 C 0 km/h
498 11-06-2011 03:48:04 12.6 C 9.07 g/m*3 12.6 C 0 km/h
499 11-06-2011 04:00:04 12.6 C 9.07 g/m*3 12.6 C 0 km/h
500 11-06-2011 04:12:04 12.6 C 9.07 g/m*3 12.6 C 0 km/h
Sensor: Nr:Datum:Temp:Abs-Feuchte:Windchill:Wind:
Aussen-T/F 501 11-06-2011 04:24:04 12.6 C 9.07 g/m*3 12.6 C 0 km/h
502 11-06-2011 04:36:04 12.6 C 9.07 g/m*3 12.6 C 0 km/h
503 11-06-2011 04:48:04 12.6 C 9.07 g/m*3 12.6 C 0 km/h
504 11-06-2011 05:00:04 12.6 C 9.07 g/m*3 12.6 C 0 km/h
505 11-06-2011 05:12:04 12.6 C 9.07 g/m*3 12.6 C 0 km/h
506 11-06-2011 05:24:04 12.6 C 9.07 g/m*3 12.6 C 0 km/h
507 11-06-2011 05:36:04 12.6 C 9.07 g/m*3 12.6 C 0 km/h
508 11-06-2011 05:48:05 12.6 C 9.07 g/m*3 12.6 C 0 km/h
509 11-06-2011 06:00:05 12.6 C 9.07 g/m*3 12.6 C 0 km/h
510 11-06-2011 06:12:05 12.6 C 9.07 g/m*3 12.6 C 0 km/h
511 11-06-2011 06:24:05 12.6 C 9.07 g/m*3 12.6 C 0 km/h
512 11-06-2011 06:36:05 12.6 C 9.07 g/m*3 12.6 C 0 km/h
513 11-06-2011 06:48:05 12.6 C 9.07 g/m*3 12.6 C 0 km/h
514 11-06-2011 07:00:05 12.6 C 9.07 g/m*3 12.6 C 0 km/h
515 11-06-2011 07:12:05 12.6 C 9.07 g/m*3 12.6 C 0 km/h
516 11-06-2011 07:24:05 10 C 8.36 g/m*3 10 C 0 km/h
517 11-06-2011 07:36:05 10.5 C 8.73 g/m*3 10.5 C 0 km/h
518 11-06-2011 07:48:02 11.2 C 9.02 g/m*3 11.2 C 0 km/h
519 11-06-2011 08:00:02 10.8 C 8.8 g/m*3 10.8 C 0 km/h
520 11-06-2011 08:12:02 10.8 C 8.8 g/m*3 10.8 C 0 km/h
521 11-06-2011 08:24:02 12.2 C 9.39 g/m*3 12.2 C 0 km/h
522 11-06-2011 08:36:01 11.9 C 8.9 g/m*3 11.9 C 0 km/h
523 11-06-2011 08:48:02 11.9 C 8.9 g/m*3 11.9 C 0 km/h
524 11-06-2011 09:00:02 11.9 C 8.9 g/m*3 11.9 C 0 km/h
525 11-06-2011 09:12:01 11.9 C 8.9 g/m*3 11.9 C 0 km/h
Sensor: Nr:Datum:Temp:Abs-Feuchte:Windchill:Wind:
Aussen-T/F 526 11-06-2011 09:24:02 13.4 C 7.32 g/m*3 13.4 C 0 km/h
527 11-06-2011 09:36:01 13.1 C 6.96 g/m*3 13.1 C 0 km/h
528 11-06-2011 09:48:03 13.5 C 7.49 g/m*3 13.5 C 0 km/h
529 11-06-2011 10:00:03 13.6 C 7.3 g/m*3 13.6 C 0 km/h
530 11-06-2011 10:12:02 13.6 C 7.3 g/m*3 13.6 C 0 km/h
531 11-06-2011 10:24:02 13.6 C 7.3 g/m*3 13.6 C 0 km/h
532 11-06-2011 10:36:02 13.6 C 7.3 g/m*3 13.6 C 0 km/h
533 11-06-2011 10:48:02 13.6 C 7.3 g/m*3 13.6 C 0 km/h
534 11-06-2011 11:00:02 13.6 C 7.3 g/m*3 13.6 C 0 km/h
535 11-06-2011 11:12:01 13.6 C 7.3 g/m*3 13.6 C 0 km/h
536 11-06-2011 11:24:02 13.6 C 7.3 g/m*3 13.6 C 0 km/h
537 11-06-2011 11:36:02 13.6 C 7.3 g/m*3 13.6 C 0 km/h
538 11-06-2011 11:48:01 13.6 C 7.3 g/m*3 13.6 C 0 km/h
539 11-06-2011 12:00:01 13.6 C 7.3 g/m*3 13.6 C 0 km/h
540 11-06-2011 12:12:01 13.6 C 7.3 g/m*3 13.6 C 0 km/h
541 11-06-2011 12:24:01 13.6 C 7.3 g/m*3 13.6 C 0 km/h
542 11-06-2011 12:36:02 13.6 C 7.3 g/m*3 13.6 C 0 km/h
543 11-06-2011 12:48:02 13.6 C 7.3 g/m*3 13.6 C 0 km/h
544 11-06-2011 13:00:02 17.8 C 5.01 g/m*3 17.8 C 0 km/h
545 11-06-2011 13:12:02 17.8 C 4.71 g/m*3 17.8 C 0 km/h
546 11-06-2011 13:24:01 21.4 C 5.44 g/m*3 21.4 C 0 km/h
547 11-06-2011 13:36:02 22.7 C 4.24 g/m*3 22.7 C 0 km/h
548 11-06-2011 13:48:02 20.2 C 4.9 g/m*3 20.2 C 0 km/h
549 11-06-2011 14:00:02 20.3 C 5.28 g/m*3 20.3 C 0 km/h
550 11-06-2011 14:12:02 23.7 C 5.13 g/m*3 23.7 C 0 km/h
Sensor: Nr:Datum:Temp:Abs-Feuchte:Windchill:Wind:
Aussen-T/F 551 11-06-2011 14:24:01 20.8 C 4.89 g/m*3 20.8 C 0 km/h
552 11-06-2011 14:36:02 19.8 C 4.95 g/m*3 19.8 C 0 km/h
553 11-06-2011 14:48:02 21.7 C 4.77 g/m*3 21.7 C 0 km/h
554 11-06-2011 15:00:02 25.9 C 4.84 g/m*3 25.9 C 0 km/h
555 11-06-2011 15:12:02 27.5 C 5.29 g/m*3 27.5 C 0 km/h
556 11-06-2011 15:24:02 27.6 C 5.32 g/m*3 27.6 C 0 km/h
557 11-06-2011 15:36:02 22.5 C 3.99 g/m*3 22.5 C 0 km/h
558 11-06-2011 15:48:02 27.4 C 5.26 g/m*3 27.4 C 0 km/h
559 11-06-2011 16:00:02 26.3 C 4.95 g/m*3 26.3 C 0 km/h
560 11-06-2011 16:12:02 22.7 C 4.04 g/m*3 22.7 C 0 km/h
561 11-06-2011 16:24:02 25.5 C 4.73 g/m*3 25.5 C 0 km/h
562 11-06-2011 16:36:01 25.5 C 4.73 g/m*3 25.5 C 0 km/h
563 11-06-2011 16:48:02 25.5 C 4.73 g/m*3 25.5 C 0 km/h
564 11-06-2011 17:00:02 25.5 C 4.73 g/m*3 25.5 C 0 km/h
565 11-06-2011 17:12:01 25.5 C 4.73 g/m*3 25.5 C 0 km/h
566 11-06-2011 17:24:01 25.5 C 4.73 g/m*3 25.5 C 0 km/h
567 11-06-2011 17:36:01 25.5 C 4.73 g/m*3 25.5 C 0 km/h
568 11-06-2011 17:48:02 25.5 C 4.73 g/m*3 25.5 C 0 km/h
569 11-06-2011 18:00:03 25.5 C 4.73 g/m*3 25.5 C 0 km/h
570 11-06-2011 18:12:02 25.5 C 4.73 g/m*3 25.5 C 0 km/h
571 11-06-2011 18:24:02 25.5 C 4.73 g/m*3 25.5 C 0 km/h
572 11-06-2011 18:36:02 23.6 C 4.89 g/m*3 23.6 C 0 km/h
573 11-06-2011 18:48:01 23.6 C 4.89 g/m*3 23.6 C 0 km/h
574 11-06-2011 19:00:01 22.1 C 5.27 g/m*3 22.1 C 0 km/h
575 11-06-2011 19:12:02 18.9 C 5.51 g/m*3 18.9 C 0 km/h
Sensor: Nr:Datum:Temp:Abs-Feuchte:Windchill:Wind:
Aussen-T/F 576 11-06-2011 19:24:01 18.9 C 5.51 g/m*3 18.9 C 0 km/h
577 11-06-2011 19:36:02 18 C 7.22 g/m*3 18 C 0 km/h
578 11-06-2011 19:48:01 17.6 C 7.8 g/m*3 17.6 C 0 km/h
579 11-06-2011 20:00:01 16.8 C 7.72 g/m*3 16.8 C 0 km/h
580 11-06-2011 20:12:02 16.6 C 7.63 g/m*3 16.6 C 0 km/h
581 11-06-2011 20:24:01 16.2 C 7.86 g/m*3 16.2 C 0 km/h
582 11-06-2011 20:36:02 15.7 C 8.16 g/m*3 15.7 C 0 km/h
583 11-06-2011 20:48:01 15.4 C 7.88 g/m*3 15.4 C 0 km/h
584 11-06-2011 21:00:01 15 C 7.82 g/m*3 15 C 0 km/h
585 11-06-2011 21:12:02 15.8 C 6.6 g/m*3 15.8 C 0 km/h
586 11-06-2011 21:24:01 15.7 C 6.69 g/m*3 15.7 C 0 km/h
587 11-06-2011 21:36:01 15.2 C 6.88 g/m*3 15.2 C 0 km/h
588 11-06-2011 21:48:01 14.9 C 6.88 g/m*3 14.9 C 0 km/h
589 11-06-2011 22:00:01 14.5 C 6.84 g/m*3 14.5 C 0 km/h
590 11-06-2011 22:12:02 14.1 C 7.28 g/m*3 14.1 C 0 km/h
591 11-06-2011 22:24:02 13.6 C 7.41 g/m*3 13.6 C 0 km/h
592 11-06-2011 22:36:01 12.8 C 7.39 g/m*3 12.8 C 0 km/h
593 11-06-2011 22:49:03 12.4 C 7.54 g/m*3 12.4 C 0 km/h
594 11-06-2011 23:01:03 12.4 C 7.43 g/m*3 12.4 C 0 km/h
595 11-06-2011 23:13:03 12.2 C 7.34 g/m*3 12.2 C 0 km/h
596 11-06-2011 23:25:03 12.1 C 7.4 g/m*3 12.1 C 0 km/h
597 11-06-2011 23:37:04 11.7 C 7.64 g/m*3 11.7 C 0 km/h
598 11-06-2011 23:49:04 11.1 C 7.45 g/m*3 11.1 C 0 km/h
599 12-06-2011 00:01:04 10.9 C 7.56 g/m*3 10.9 C 0 km/h
600 12-06-2011 00:13:04 10.8 C 7.61 g/m*3 10.8 C 0 km/h
Sensor: Nr:Datum:Temp:Abs-Feuchte:Windchill:Wind:
Aussen-T/F 601 12-06-2011 00:25:04 10.2 C 7.42 g/m*3 10.2 C 0 km/h
602 12-06-2011 00:37:04 9.7 C 7.38 g/m*3 9.7 C 0 km/h
603 12-06-2011 00:49:04 9.7 C 7.56 g/m*3 9.7 C 0 km/h
604 12-06-2011 01:01:04 9.4 C 7.42 g/m*3 9.4 C 0 km/h
605 12-06-2011 01:13:04 9.6 C 7.6 g/m*3 9.6 C 0 km/h
606 12-06-2011 01:25:04 9.3 C 7.55 g/m*3 9.3 C 0 km/h
607 12-06-2011 01:37:04 9.4 C 7.69 g/m*3 9.4 C 0 km/h
608 12-06-2011 01:49:04 9.1 C 7.54 g/m*3 9.1 C 0 km/h
609 12-06-2011 02:01:04 8.7 C 7.44 g/m*3 8.7 C 0 km/h
610 12-06-2011 02:13:04 8.4 C 7.3 g/m*3 8.4 C 0 km/h
611 12-06-2011 02:25:04 8.8 C 7.57 g/m*3 8.8 C 0 km/h
612 12-06-2011 02:37:04 8.7 C 7.52 g/m*3 8.7 C 0 km/h
613 12-06-2011 02:49:04 8.3 C 7.33 g/m*3 8.3 C 0 km/h
614 12-06-2011 03:01:04 8 C 7.19 g/m*3 8 C 0 km/h
615 12-06-2011 03:13:04 8.5 C 7.51 g/m*3 8.5 C 0 km/h
616 12-06-2011 03:25:04 8.2 C 7.37 g/m*3 8.2 C 0 km/h
617 12-06-2011 03:37:04 7.6 C 7.09 g/m*3 7.6 C 0 km/h
618 12-06-2011 03:49:05 7.8 C 7.26 g/m*3 7.8 C 0 km/h
619 12-06-2011 04:01:05 7.9 C 7.31 g/m*3 7.9 C 0 km/h
620 12-06-2011 04:13:05 7.9 C 7.39 g/m*3 7.9 C 0 km/h
621 12-06-2011 04:25:05 7.6 C 7.25 g/m*3 7.6 C 0 km/h
622 12-06-2011 04:37:05 7.3 C 7.11 g/m*3 7.3 C 0 km/h
623 12-06-2011 04:49:05 6.9 C 7.01 g/m*3 6.9 C 0 km/h
624 12-06-2011 05:01:05 7.2 C 7.06 g/m*3 7.2 C 0 km/h
625 12-06-2011 05:13:05 6.9 C 7.01 g/m*3 6.9 C 0 km/h
Sensor: Nr:Datum:Temp:Abs-Feuchte:Windchill:Wind:
Aussen-T/F 626 12-06-2011 05:25:05 6.7 C 6.91 g/m*3 6.7 C 0 km/h
627 12-06-2011 05:37:05 7 C 6.97 g/m*3 7 C 0 km/h
628 12-06-2011 05:49:05 6.7 C 6.91 g/m*3 6.7 C 0 km/h
629 12-06-2011 06:01:05 7 C 6.97 g/m*3 7 C 0 km/h
630 12-06-2011 06:13:05 7 C 6.97 g/m*3 7 C 0 km/h
631 12-06-2011 06:25:05 7 C 6.97 g/m*3 7 C 0 km/h
632 12-06-2011 06:37:05 7.5 C 7.28 g/m*3 7.5 C 0 km/h
633 12-06-2011 06:49:05 7.5 C 7.28 g/m*3 7.5 C 0 km/h
634 12-06-2011 07:01:04 8.1 C 7.49 g/m*3 8.1 C 0 km/h
635 12-06-2011 07:13:04 8.7 C 7.78 g/m*3 8.7 C 0 km/h
636 12-06-2011 07:25:03 8.8 C 7.75 g/m*3 8.8 C 0 km/h
637 12-06-2011 07:37:03 9.2 C 7.86 g/m*3 9.2 C 0 km/h
638 12-06-2011 07:49:02 9.7 C 8.11 g/m*3 9.7 C 0 km/h
639 12-06-2011 08:01:02 10.6 C 8.49 g/m*3 10.6 C 0 km/h
640 12-06-2011 08:13:02 11.6 C 8.52 g/m*3 11.6 C 0 km/h
641 12-06-2011 08:25:01 12.1 C 7.83 g/m*3 12.1 C 0 km/h
642 12-06-2011 08:37:02 12.5 C 7.92 g/m*3 12.5 C 0 km/h
643 12-06-2011 08:49:01 12.6 C 7.74 g/m*3 12.6 C 0 km/h
644 12-06-2011 09:01:02 13.1 C 7.76 g/m*3 13.1 C 0 km/h
645 12-06-2011 09:13:02 13.3 C 7.16 g/m*3 13.3 C 0 km/h
646 12-06-2011 09:25:01 13.7 C 7.22 g/m*3 13.7 C 0 km/h
647 12-06-2011 09:37:02 13.9 C 7.43 g/m*3 13.9 C 0 km/h
648 12-06-2011 09:49:01 14.4 C 7.29 g/m*3 14.4 C 0 km/h
649 12-06-2011 10:01:02 15.5 C 7.53 g/m*3 15.5 C 0 km/h
650 12-06-2011 10:13:02 16.5 C 7.3 g/m*3 16.5 C 0 km/h
Sensor: Nr:Datum:Temp:Abs-Feuchte:Windchill:Wind:
Aussen-T/F 651 12-06-2011 10:25:02 16.2 C 7.03 g/m*3 16.2 C 0 km/h
652 12-06-2011 10:37:01 16 C 6.81 g/m*3 16 C 0 km/h
653 12-06-2011 10:49:02 16.5 C 7.02 g/m*3 16.5 C 0 km/h
654 12-06-2011 11:01:01 17 C 6.66 g/m*3 17 C 0 km/h
655 12-06-2011 11:13:01 17.5 C 6.71 g/m*3 17.5 C 0 km/h
656 12-06-2011 11:25:02 16.4 C 7.68 g/m*3 16.4 C 0 km/h
657 12-06-2011 11:37:01 18.3 C 5.63 g/m*3 18.3 C 0 km/h
658 12-06-2011 11:49:02 18.3 C 5.47 g/m*3 18.3 C 0 km/h
659 12-06-2011 12:01:02 17.7 C 5.58 g/m*3 17.7 C 0 km/h
660 12-06-2011 12:13:02 18.3 C 5.94 g/m*3 18.3 C 0 km/h
661 12-06-2011 12:25:02 17.7 C 6.04 g/m*3 17.7 C 0 km/h
662 12-06-2011 12:37:02 18.1 C 6.49 g/m*3 18.1 C 0 km/h
663 12-06-2011 12:49:01 18.9 C 5.99 g/m*3 18.9 C 0 km/h
664 12-06-2011 13:01:02 18.8 C 5.8 g/m*3 18.8 C 0 km/h
665 12-06-2011 13:13:02 19.6 C 5.91 g/m*3 19.6 C 0 km/h
666 12-06-2011 13:25:01 21.9 C 5.79 g/m*3 21.9 C 0 km/h
667 12-06-2011 13:37:02 24.6 C 4.5 g/m*3 24.6 C 0 km/h
668 12-06-2011 13:49:02 25.1 C 4.63 g/m*3 25.1 C 0 km/h
669 12-06-2011 14:01:02 23.6 C 4.68 g/m*3 23.6 C 0 km/h
670 12-06-2011 14:13:02 26.1 C 4.9 g/m*3 26.1 C 0 km/h
671 12-06-2011 14:25:01 26.1 C 4.9 g/m*3 26.1 C 0 km/h
672 12-06-2011 14:37:02 26.4 C 4.98 g/m*3 26.4 C 0 km/h
673 12-06-2011 14:49:01 25.9 C 4.84 g/m*3 25.9 C 0 km/h
674 12-06-2011 15:01:02 23.4 C 4.21 g/m*3 23.4 C 0 km/h
675 12-06-2011 15:13:02 22.5 C 3.99 g/m*3 22.5 C 0 km/h
Sensor: Nr:Datum:Temp:Abs-Feuchte:Windchill:Wind:
Aussen-T/F 676 12-06-2011 15:25:01 23.3 C 4.18 g/m*3 23.3 C 0 km/h
677 12-06-2011 15:37:02 23.7 C 4.28 g/m*3 23.7 C 0 km/h
678 12-06-2011 15:49:01 22.7 C 4.04 g/m*3 22.7 C 0 km/h
679 12-06-2011 16:01:02 22.8 C 4.27 g/m*3 22.8 C 0 km/h
680 12-06-2011 16:13:02 24.7 C 4.53 g/m*3 24.7 C 0 km/h
681 12-06-2011 16:25:02 25.8 C 4.82 g/m*3 25.8 C 0 km/h
682 12-06-2011 16:37:01 23 C 4.11 g/m*3 23 C 0 km/h
683 12-06-2011 16:49:02 23.2 C 4.16 g/m*3 23.2 C 0 km/h
684 12-06-2011 17:01:01 23.5 C 4.23 g/m*3 23.5 C 0 km/h
685 12-06-2011 17:13:01 23 C 4.11 g/m*3 23 C 0 km/h
686 12-06-2011 17:25:02 22.2 C 4.52 g/m*3 22.2 C 0 km/h
687 12-06-2011 17:37:01 23.2 C 4.16 g/m*3 23.2 C 0 km/h
688 12-06-2011 17:49:02 21.9 C 5.98 g/m*3 21.9 C 0 km/h
689 12-06-2011 18:01:02 21.9 C 5.79 g/m*3 21.9 C 0 km/h
690 12-06-2011 18:13:02 23.7 C 4.49 g/m*3 23.7 C 0 km/h
691 12-06-2011 18:25:02 24.4 C 4.45 g/m*3 24.4 C 0 km/h
692 12-06-2011 18:37:02 23.3 C 4.39 g/m*3 23.3 C 0 km/h
693 12-06-2011 18:49:01 22.1 C 4.88 g/m*3 22.1 C 0 km/h
694 12-06-2011 19:01:02 21.8 C 6.91 g/m*3 21.8 C 0 km/h
695 12-06-2011 19:13:02 24 C 4.35 g/m*3 24 C 0 km/h
696 12-06-2011 19:25:01 21.6 C 4.36 g/m*3 21.6 C 0 km/h
697 12-06-2011 19:37:02 19.5 C 7.55 g/m*3 19.5 C 0 km/h
698 12-06-2011 19:49:01 18.6 C 7.64 g/m*3 18.6 C 0 km/h
699 12-06-2011 20:01:02 18.7 C 7.84 g/m*3 18.7 C 0 km/h
700 12-06-2011 20:13:02 18.2 C 7.77 g/m*3 18.2 C 0 km/h
Sensor: Nr:Datum:Temp:Abs-Feuchte:Windchill:Wind:
Aussen-T/F 701 12-06-2011 20:25:01 17.2 C 7.61 g/m*3 17.2 C 0 km/h
702 12-06-2011 20:37:02 16.5 C 7.44 g/m*3 16.5 C 0 km/h
703 12-06-2011 20:49:01 16 C 6.54 g/m*3 16 C 0 km/h
704 12-06-2011 21:01:02 15.9 C 6.23 g/m*3 15.9 C 0 km/h
705 12-06-2011 21:13:02 15.6 C 6.25 g/m*3 15.6 C 0 km/h
706 12-06-2011 21:25:01 15.1 C 6.06 g/m*3 15.1 C 0 km/h
707 12-06-2011 21:37:02 14.9 C 6.25 g/m*3 14.9 C 0 km/h
708 12-06-2011 21:49:01 14.7 C 6.8 g/m*3 14.7 C 0 km/h
709 12-06-2011 22:01:02 14.5 C 7.21 g/m*3 14.5 C 0 km/h
710 12-06-2011 22:13:02 14.2 C 7.2 g/m*3 14.2 C 0 km/h
711 12-06-2011 22:25:02 14 C 7.36 g/m*3 14 C 0 km/h
712 12-06-2011 22:38:03 13.5 C 7.13 g/m*3 13.5 C 0 km/h
713 12-06-2011 22:50:03 13.4 C 7.44 g/m*3 13.4 C 0 km/h
714 12-06-2011 23:02:03 13.2 C 7.12 g/m*3 13.2 C 0 km/h
715 12-06-2011 23:14:03 13.2 C 7.35 g/m*3 13.2 C 0 km/h
716 12-06-2011 23:26:03 13 C 7.03 g/m*3 13 C 0 km/h
717 12-06-2011 23:38:03 12.7 C 7.12 g/m*3 12.7 C 0 km/h
718 12-06-2011 23:50:03 12.6 C 7.08 g/m*3 12.6 C 0 km/h
719 13-06-2011 00:02:03 12.5 C 7.04 g/m*3 12.5 C 0 km/h
720 13-06-2011 00:14:03 12.5 C 7.15 g/m*3 12.5 C 0 km/h
721 13-06-2011 00:26:03 12.4 C 7.1 g/m*3 12.4 C 0 km/h
722 13-06-2011 00:38:03 12.3 C 7.17 g/m*3 12.3 C 0 km/h
723 13-06-2011 00:50:03 12.2 C 7.01 g/m*3 12.2 C 0 km/h
724 13-06-2011 01:02:03 12 C 6.93 g/m*3 12 C 0 km/h
725 13-06-2011 01:14:03 11.8 C 6.95 g/m*3 11.8 C 0 km/h
Sensor: Nr:Datum:Temp:Abs-Feuchte:Windchill:Wind:
Aussen-T/F 726 13-06-2011 01:26:03 11.8 C 7.26 g/m*3 11.8 C 0 km/h
727 13-06-2011 01:38:03 11.7 C 7.22 g/m*3 11.7 C 0 km/h
728 13-06-2011 01:50:03 11.7 C 7.22 g/m*3 11.7 C 0 km/h
729 13-06-2011 02:02:03 11.9 C 7.41 g/m*3 11.9 C 0 km/h
730 13-06-2011 02:14:04 11.8 C 7.26 g/m*3 11.8 C 0 km/h
731 13-06-2011 02:26:04 11.9 C 7.31 g/m*3 11.9 C 0 km/h
732 13-06-2011 02:38:04 12 C 7.35 g/m*3 12 C 0 km/h
733 13-06-2011 02:50:04 12 C 7.25 g/m*3 12 C 0 km/h
734 13-06-2011 03:02:04 12.1 C 7.51 g/m*3 12.1 C 0 km/h
735 13-06-2011 03:14:04 12.3 C 7.6 g/m*3 12.3 C 0 km/h
736 13-06-2011 03:26:04 12.3 C 7.71 g/m*3 12.3 C 0 km/h
737 13-06-2011 03:38:04 12.4 C 7.76 g/m*3 12.4 C 0 km/h
738 13-06-2011 03:50:04 12.3 C 7.71 g/m*3 12.3 C 0 km/h
739 13-06-2011 04:02:04 12.6 C 7.63 g/m*3 12.6 C 0 km/h
740 13-06-2011 04:14:04 12.7 C 7.79 g/m*3 12.7 C 0 km/h
741 13-06-2011 04:26:04 12.7 C 7.68 g/m*3 12.7 C 0 km/h
742 13-06-2011 04:38:04 12.8 C 7.73 g/m*3 12.8 C 0 km/h
743 13-06-2011 04:50:04 12.8 C 7.84 g/m*3 12.8 C 0 km/h
744 13-06-2011 05:02:04 12.8 C 7.95 g/m*3 12.8 C 0 km/h
745 13-06-2011 05:14:04 12.7 C 8.13 g/m*3 12.7 C 0 km/h
746 13-06-2011 05:26:04 12.6 C 8.08 g/m*3 12.6 C 0 km/h
747 13-06-2011 05:38:04 12.7 C 8.13 g/m*3 12.7 C 0 km/h
748 13-06-2011 05:50:04 12.7 C 8.13 g/m*3 12.7 C 0 km/h
749 13-06-2011 06:02:04 12.8 C 8.18 g/m*3 12.8 C 0 km/h
750 13-06-2011 06:14:04 12.8 C 8.18 g/m*3 12.8 C 0 km/h
Sensor: Nr:Datum:Temp:Abs-Feuchte:Windchill:Wind:
Aussen-T/F 751 13-06-2011 06:26:05 12.9 C 8.34 g/m*3 12.9 C 0 km/h
752 13-06-2011 06:38:05 13.1 C 8.22 g/m*3 13.1 C 0 km/h
753 13-06-2011 06:50:05 13.2 C 8.15 g/m*3 13.2 C 0 km/h
754 13-06-2011 07:02:05 13.6 C 8.36 g/m*3 13.6 C 0 km/h
755 13-06-2011 07:14:05 13.8 C 8.46 g/m*3 13.8 C 0 km/h
756 13-06-2011 07:26:05 13.8 C 8.46 g/m*3 13.8 C 0 km/h
757 13-06-2011 07:38:05 14 C 8.32 g/m*3 14 C 0 km/h
758 13-06-2011 07:50:03 14.1 C 8.01 g/m*3 14.1 C 0 km/h
759 13-06-2011 08:02:02 14.2 C 7.82 g/m*3 14.2 C 0 km/h
760 13-06-2011 08:14:02 14.5 C 8.21 g/m*3 14.5 C 0 km/h
761 13-06-2011 08:26:02 14.7 C 8.18 g/m*3 14.7 C 0 km/h
762 13-06-2011 08:38:03 14.8 C 8.36 g/m*3 14.8 C 0 km/h
763 13-06-2011 08:50:02 14.9 C 8.28 g/m*3 14.9 C 0 km/h
764 13-06-2011 09:02:02 15.2 C 8.31 g/m*3 15.2 C 0 km/h
765 13-06-2011 09:14:02 15 C 8.08 g/m*3 15 C 0 km/h
766 13-06-2011 09:26:02 15.4 C 8.54 g/m*3 15.4 C 0 km/h
767 13-06-2011 09:38:02 15.8 C 8.62 g/m*3 15.8 C 0 km/h
768 13-06-2011 09:50:01 16.6 C 8.62 g/m*3 16.6 C 0 km/h
769 13-06-2011 10:02:02 16.5 C 8.28 g/m*3 16.5 C 0 km/h
770 13-06-2011 10:14:02 16 C 8.17 g/m*3 16 C 0 km/h
771 13-06-2011 10:26:01 16.4 C 8.23 g/m*3 16.4 C 0 km/h
772 13-06-2011 10:38:01 16.4 C 8.23 g/m*3 16.4 C 0 km/h
773 13-06-2011 10:50:01 16.7 C 8.24 g/m*3 16.7 C 0 km/h
774 13-06-2011 11:02:02 17 C 7.96 g/m*3 17 C 0 km/h
775 13-06-2011 11:14:02 16.6 C 8.05 g/m*3 16.6 C 0 km/h
Sensor: Nr:Datum:Temp:Abs-Feuchte:Windchill:Wind:
Aussen-T/F 776 13-06-2011 11:26:01 17 C 8.1 g/m*3 17 C 0 km/h
777 13-06-2011 11:38:01 17.4 C 8.15 g/m*3 17.4 C 0 km/h
778 13-06-2011 11:50:01 17.3 C 7.96 g/m*3 17.3 C 0 km/h
779 13-06-2011 12:02:01 17.7 C 8.15 g/m*3 17.7 C 0 km/h
780 13-06-2011 12:14:01 18.1 C 8.19 g/m*3 18.1 C 0 km/h
781 13-06-2011 12:26:02 18.8 C 8.21 g/m*3 18.8 C 0 km/h
782 13-06-2011 12:38:01 20.3 C 8.09 g/m*3 20.3 C 0 km/h
783 13-06-2011 12:50:03 18.7 C 7.68 g/m*3 18.7 C 0 km/h
784 13-06-2011 13:02:02 19.2 C 7.91 g/m*3 19.2 C 0 km/h
785 13-06-2011 13:14:02 19.4 C 7.84 g/m*3 19.4 C 0 km/h
786 13-06-2011 13:26:02 19.1 C 7.7 g/m*3 19.1 C 0 km/h
787 13-06-2011 13:38:02 19.7 C 7.98 g/m*3 19.7 C 0 km/h
788 13-06-2011 13:50:02 20.4 C 8.14 g/m*3 20.4 C 0 km/h
789 13-06-2011 14:02:01 20.9 C 8.2 g/m*3 20.9 C 0 km/h
790 13-06-2011 14:14:01 21.5 C 8.11 g/m*3 21.5 C 0 km/h
791 13-06-2011 14:26:02 20.7 C 7.92 g/m*3 20.7 C 0 km/h
792 13-06-2011 14:38:02 21.6 C 7.97 g/m*3 21.6 C 0 km/h
793 13-06-2011 14:50:01 21.4 C 7.69 g/m*3 21.4 C 0 km/h
794 13-06-2011 15:02:02 22 C 7.57 g/m*3 22 C 0 km/h
795 13-06-2011 15:14:02 22.5 C 7.79 g/m*3 22.5 C 0 km/h
796 13-06-2011 15:26:01 22.7 C 7.48 g/m*3 22.7 C 0 km/h
797 13-06-2011 15:38:01 22 C 7.76 g/m*3 22 C 0 km/h
798 13-06-2011 15:50:01 22.2 C 8.05 g/m*3 22.2 C 0 km/h
799 13-06-2011 16:02:02 22.6 C 8.04 g/m*3 22.6 C 0 km/h
800 13-06-2011 16:14:02 24.1 C 7.88 g/m*3 24.1 C 0 km/h
Sensor: Nr:Datum:Temp:Abs-Feuchte:Windchill:Wind:
Aussen-T/F 801 13-06-2011 16:26:01 22.5 C 7.79 g/m*3 22.5 C 0 km/h
802 13-06-2011 16:38:02 24.5 C 8.06 g/m*3 24.5 C 0 km/h
803 13-06-2011 16:50:01 25.1 C 7.64 g/m*3 25.1 C 0 km/h
804 13-06-2011 17:02:02 22.9 C 7.97 g/m*3 22.9 C 0 km/h
805 13-06-2011 17:14:02 23.4 C 7.99 g/m*3 23.4 C 0 km/h
806 13-06-2011 17:26:01 21.6 C 7.97 g/m*3 21.6 C 0 km/h
807 13-06-2011 17:38:02 21.2 C 8.34 g/m*3 21.2 C 0 km/h
808 13-06-2011 17:50:01 21.1 C 8.66 g/m*3 21.1 C 0 km/h
809 13-06-2011 18:02:02 21.5 C 8.49 g/m*3 21.5 C 0 km/h
810 13-06-2011 18:14:02 21.2 C 8.52 g/m*3 21.2 C 0 km/h
811 13-06-2011 18:26:02 20.9 C 8.56 g/m*3 20.9 C 0 km/h
812 13-06-2011 18:38:01 21.1 C 9.03 g/m*3 21.1 C 0 km/h
813 13-06-2011 18:50:02 21 C 8.79 g/m*3 21 C 0 km/h
814 13-06-2011 19:02:01 21.3 C 8.76 g/m*3 21.3 C 0 km/h
815 13-06-2011 19:14:01 20.8 C 8.69 g/m*3 20.8 C 0 km/h
816 13-06-2011 19:26:02 20.4 C 8.85 g/m*3 20.4 C 0 km/h
817 13-06-2011 19:38:01 20.7 C 8.82 g/m*3 20.7 C 0 km/h
818 13-06-2011 19:50:02 21.3 C 8.57 g/m*3 21.3 C 0 km/h
819 13-06-2011 20:02:02 21.1 C 8.66 g/m*3 21.1 C 0 km/h
820 13-06-2011 20:14:02 20 C 8.99 g/m*3 20 C 0 km/h
821 13-06-2011 20:26:02 19.6 C 9.28 g/m*3 19.6 C 0 km/h
822 13-06-2011 20:38:02 19.2 C 9.23 g/m*3 19.2 C 0 km/h
823 13-06-2011 20:50:01 18.7 C 9.77 g/m*3 18.7 C 0 km/h
824 13-06-2011 21:02:02 18.3 C 9.85 g/m*3 18.3 C 0 km/h
825 13-06-2011 21:14:02 18.1 C 9.73 g/m*3 18.1 C 0 km/h
Sensor: Nr:Datum:Temp:Abs-Feuchte:Windchill:Wind:
Aussen-T/F 826 13-06-2011 21:26:01 18 C 9.83 g/m*3 18 C 0 km/h
827 13-06-2011 21:38:02 17.7 C 10.11 g/m*3 17.7 C 0 km/h
828 13-06-2011 21:50:02 17.6 C 10.05 g/m*3 17.6 C 0 km/h
829 13-06-2011 22:02:02 17.5 C 10.14 g/m*3 17.5 C 0 km/h
830 13-06-2011 22:14:02 17.6 C 10.05 g/m*3 17.6 C 0 km/h
831 13-06-2011 22:27:03 17.5 C 9.99 g/m*3 17.5 C 0 km/h
832 13-06-2011 22:39:03 17.5 C 9.99 g/m*3 17.5 C 0 km/h
833 13-06-2011 22:51:03 17.4 C 10.08 g/m*3 17.4 C 0 km/h
834 13-06-2011 23:03:03 17.4 C 10.08 g/m*3 17.4 C 0 km/h
835 13-06-2011 23:15:03 17.2 C 10.1 g/m*3 17.2 C 0 km/h
836 13-06-2011 23:27:03 16.9 C 10.21 g/m*3 16.9 C 0 km/h
837 13-06-2011 23:39:03 16.9 C 10.36 g/m*3 16.9 C 0 km/h
838 13-06-2011 23:51:03 16.8 C 10.29 g/m*3 16.8 C 0 km/h
839 14-06-2011 00:03:03 16.7 C 10.37 g/m*3 16.7 C 0 km/h
840 14-06-2011 00:15:03 16.6 C 10.45 g/m*3 16.6 C 0 km/h
841 14-06-2011 00:27:03 16.6 C 10.31 g/m*3 16.6 C 0 km/h
842 14-06-2011 00:39:03 16.6 C 10.45 g/m*3 16.6 C 0 km/h
843 14-06-2011 00:51:03 16.6 C 10.45 g/m*3 16.6 C 0 km/h
844 14-06-2011 01:03:03 16.4 C 10.33 g/m*3 16.4 C 0 km/h
845 14-06-2011 01:15:03 16.4 C 10.33 g/m*3 16.4 C 0 km/h
846 14-06-2011 01:27:03 16.4 C 10.47 g/m*3 16.4 C 0 km/h
847 14-06-2011 01:39:03 16.3 C 10.41 g/m*3 16.3 C 0 km/h
848 14-06-2011 01:51:04 16.2 C 10.34 g/m*3 16.2 C 0 km/h
849 14-06-2011 02:03:04 16.1 C 10.28 g/m*3 16.1 C 0 km/h
850 14-06-2011 02:15:04 15.8 C 10.5 g/m*3 15.8 C 0 km/h
Sensor: Nr:Datum:Temp:Abs-Feuchte:Windchill:Wind:
Aussen-T/F 851 14-06-2011 02:27:04 15 C 10 g/m*3 15 C 0 km/h
852 14-06-2011 02:39:04 14.4 C 9.77 g/m*3 14.4 C 0 km/h
853 14-06-2011 02:51:04 13.9 C 9.83 g/m*3 13.9 C 0 km/h
854 14-06-2011 03:03:04 14.1 C 9.95 g/m*3 14.1 C 0 km/h
855 14-06-2011 03:15:04 13.8 C 10.01 g/m*3 13.8 C 0 km/h
856 14-06-2011 03:27:04 13.5 C 9.94 g/m*3 13.5 C 0 km/h
857 14-06-2011 03:39:04 13.6 C 10 g/m*3 13.6 C 0 km/h
858 14-06-2011 03:51:04 13.7 C 10.18 g/m*3 13.7 C 0 km/h
859 14-06-2011 04:03:04 14.2 C 10.5 g/m*3 14.2 C 0 km/h
860 14-06-2011 04:15:04 14.3 C 10.69 g/m*3 14.3 C 0 km/h
861 14-06-2011 04:27:04 14.5 C 10.82 g/m*3 14.5 C 0 km/h
862 14-06-2011 04:39:04 14.6 C 10.89 g/m*3 14.6 C 0 km/h
863 14-06-2011 04:51:04 14.6 C 10.89 g/m*3 14.6 C 0 km/h
864 14-06-2011 05:03:04 14.7 C 10.95 g/m*3 14.7 C 0 km/h
865 14-06-2011 05:15:04 14.7 C 10.95 g/m*3 14.7 C 0 km/h
866 14-06-2011 05:27:04 14.7 C 10.95 g/m*3 14.7 C 0 km/h
867 14-06-2011 05:39:04 14.8 C 11.02 g/m*3 14.8 C 0 km/h
868 14-06-2011 05:51:04 14.8 C 11.02 g/m*3 14.8 C 0 km/h
869 14-06-2011 06:03:05 15 C 11.16 g/m*3 15 C 0 km/h
870 14-06-2011 06:15:05 15.1 C 11.22 g/m*3 15.1 C 0 km/h
871 14-06-2011 06:27:05 15.2 C 11.29 g/m*3 15.2 C 0 km/h
872 14-06-2011 06:39:05 15.4 C 11.43 g/m*3 15.4 C 0 km/h
873 14-06-2011 06:51:05 15.4 C 11.43 g/m*3 15.4 C 0 km/h
874 14-06-2011 07:03:03 15.5 C 11.5 g/m*3 15.5 C 0 km/h
875 14-06-2011 07:15:03 15.8 C 11.71 g/m*3 15.8 C 0 km/h
Sensor: Nr:Datum:Temp:Abs-Feuchte:Windchill:Wind:
Aussen-T/F 876 14-06-2011 07:27:03 16.2 C 11.86 g/m*3 16.2 C 0 km/h
877 14-06-2011 07:39:03 17.1 C 12.23 g/m*3 17.1 C 0 km/h
878 14-06-2011 07:51:02 17.1 C 11.65 g/m*3 17.1 C 0 km/h
879 14-06-2011 08:03:02 17.1 C 11.5 g/m*3 17.1 C 0 km/h
880 14-06-2011 08:15:02 17.8 C 11.84 g/m*3 17.8 C 0 km/h
881 14-06-2011 08:27:03 18.1 C 11.43 g/m*3 18.1 C 0 km/h
882 14-06-2011 08:39:01 18 C 11.37 g/m*3 18 C 0 km/h
883 14-06-2011 08:51:02 18.5 C 11.71 g/m*3 18.5 C 0 km/h
884 14-06-2011 09:03:01 18.8 C 11.6 g/m*3 18.8 C 0 km/h
885 14-06-2011 09:15:01 18.5 C 11.39 g/m*3 18.5 C 0 km/h
886 14-06-2011 09:27:01 18.8 C 11.6 g/m*3 18.8 C 0 km/h
887 14-06-2011 09:39:02 19.4 C 11.68 g/m*3 19.4 C 0 km/h
888 14-06-2011 09:51:02 20.2 C 11.71 g/m*3 20.2 C 0 km/h
889 14-06-2011 10:03:02 21.3 C 10.62 g/m*3 21.3 C 0 km/h
890 14-06-2011 10:15:01 20.9 C 10.75 g/m*3 20.9 C 0 km/h
891 14-06-2011 10:27:01 20.2 C 10.84 g/m*3 20.2 C 0 km/h
892 14-06-2011 10:39:02 20.3 C 10.73 g/m*3 20.3 C 0 km/h
893 14-06-2011 10:51:02 21.1 C 10.69 g/m*3 21.1 C 0 km/h
894 14-06-2011 11:03:02 21.2 C 10.19 g/m*3 21.2 C 0 km/h
895 14-06-2011 11:15:02 22.6 C 10.25 g/m*3 22.6 C 0 km/h
896 14-06-2011 11:27:02 23.5 C 9.73 g/m*3 23.5 C 0 km/h
897 14-06-2011 11:39:02 21 C 10.44 g/m*3 21 C 0 km/h
898 14-06-2011 11:51:02 20.9 C 10.75 g/m*3 20.9 C 0 km/h
899 14-06-2011 12:03:02 21 C 10.99 g/m*3 21 C 0 km/h
900 14-06-2011 12:15:02 22.3 C 10.47 g/m*3 22.3 C 0 km/h
Sensor: Nr:Datum:Temp:Abs-Feuchte:Windchill:Wind:
Aussen-T/F 901 14-06-2011 12:27:02 23.1 C 9.92 g/m*3 23.1 C 0 km/h
902 14-06-2011 12:39:02 23.6 C 9.78 g/m*3 23.6 C 0 km/h
903 14-06-2011 12:51:02 23.5 C 10.15 g/m*3 23.5 C 0 km/h
904 14-06-2011 13:03:02 22.9 C 10.22 g/m*3 22.9 C 0 km/h
905 14-06-2011 13:15:02 22.8 C 9.75 g/m*3 22.8 C 0 km/h
906 14-06-2011 13:27:02 23.9 C 9.74 g/m*3 23.9 C 0 km/h
907 14-06-2011 13:39:01 22 C 11.26 g/m*3 22 C 0 km/h
908 14-06-2011 13:51:02 22.1 C 9.17 g/m*3 22.1 C 0 km/h
909 14-06-2011 14:03:01 27 C 9.26 g/m*3 27 C 0 km/h
910 14-06-2011 14:15:02 26.4 C 8.71 g/m*3 26.4 C 0 km/h
911 14-06-2011 14:27:02 29.6 C 8.61 g/m*3 29.6 C 0 km/h
912 14-06-2011 14:39:01 28.2 C 8.25 g/m*3 28.2 C 0 km/h
913 14-06-2011 14:51:02 27.5 C 7.94 g/m*3 27.5 C 0 km/h
914 14-06-2011 15:03:02 27 C 8.24 g/m*3 27 C 0 km/h
915 14-06-2011 15:15:02 28.8 C 8.24 g/m*3 28.8 C 0 km/h
916 14-06-2011 15:27:02 26.9 C 7.42 g/m*3 26.9 C 0 km/h
917 14-06-2011 15:39:03 30.6 C 7.2 g/m*3 30.6 C 0 km/h
918 14-06-2011 15:51:02 30.6 C 6.89 g/m*3 30.6 C 0 km/h
919 14-06-2011 16:03:02 30.9 C 6.68 g/m*3 30.9 C 0 km/h
920 14-06-2011 16:15:01 31.2 C 6.47 g/m*3 31.2 C 0 km/h
921 14-06-2011 16:27:01 31.2 C 6.47 g/m*3 31.2 C 0 km/h
922 14-06-2011 16:39:02 31.6 C 6.61 g/m*3 31.6 C 0 km/h
923 14-06-2011 16:51:02 30.9 C 6.68 g/m*3 30.9 C 0 km/h
924 14-06-2011 17:03:02 27.7 C 7.49 g/m*3 27.7 C 0 km/h
925 14-06-2011 17:15:02 30.7 C 6.61 g/m*3 30.7 C 0 km/h
Sensor: Nr:Datum:Temp:Abs-Feuchte:Windchill:Wind:
Aussen-T/F 926 14-06-2011 17:27:02 31.7 C 6.64 g/m*3 31.7 C 0 km/h
927 14-06-2011 17:39:02 30.5 C 6.54 g/m*3 30.5 C 0 km/h
928 14-06-2011 17:51:02 30.4 C 7.75 g/m*3 30.4 C 0 km/h
929 14-06-2011 18:03:02 29.9 C 7.54 g/m*3 29.9 C 0 km/h
930 14-06-2011 18:15:02 28.9 C 7.14 g/m*3 28.9 C 0 km/h
931 14-06-2011 18:27:02 30.4 C 7.13 g/m*3 30.4 C 0 km/h
932 14-06-2011 18:39:02 30.7 C 7.24 g/m*3 30.7 C 0 km/h
933 14-06-2011 18:51:02 26.5 C 7.01 g/m*3 26.5 C 0 km/h
934 14-06-2011 19:03:02 28 C 8.16 g/m*3 28 C 0 km/h
935 14-06-2011 19:15:02 26.9 C 7.93 g/m*3 26.9 C 0 km/h
936 14-06-2011 19:27:02 25.1 C 8.57 g/m*3 25.1 C 0 km/h
937 14-06-2011 19:39:02 26 C 8.28 g/m*3 26 C 0 km/h
938 14-06-2011 19:51:02 25 C 8.52 g/m*3 25 C 0 km/h
939 14-06-2011 20:03:02 23.6 C 8.72 g/m*3 23.6 C 0 km/h
940 14-06-2011 20:15:02 22.8 C 9.14 g/m*3 22.8 C 0 km/h
941 14-06-2011 20:27:02 22.3 C 9.08 g/m*3 22.3 C 0 km/h
942 14-06-2011 20:39:01 22.3 C 9.08 g/m*3 22.3 C 0 km/h
943 14-06-2011 20:51:02 21.7 C 9.73 g/m*3 21.7 C 0 km/h
944 14-06-2011 21:03:01 21.3 C 9.88 g/m*3 21.3 C 0 km/h
945 14-06-2011 21:15:01 20.7 C 9.72 g/m*3 20.7 C 0 km/h
946 14-06-2011 21:27:01 19.4 C 9.84 g/m*3 19.4 C 0 km/h
947 14-06-2011 21:39:02 18.7 C 9.93 g/m*3 18.7 C 0 km/h
948 14-06-2011 21:51:02 18.1 C 10.04 g/m*3 18.1 C 0 km/h
949 14-06-2011 22:03:02 17.6 C 10.05 g/m*3 17.6 C 0 km/h
950 14-06-2011 22:15:02 17.1 C 9.9 g/m*3 17.1 C 0 km/h
Sensor: Nr:Datum:Temp:Abs-Feuchte:Windchill:Wind:
Aussen-T/F 951 14-06-2011 22:27:02 16.6 C 9.75 g/m*3 16.6 C 0 km/h
952 14-06-2011 22:40:02 16.2 C 9.52 g/m*3 16.2 C 0 km/h
953 14-06-2011 22:52:02 16.5 C 9.97 g/m*3 16.5 C 0 km/h
954 14-06-2011 23:04:02 15.8 C 9.69 g/m*3 15.8 C 0 km/h
955 14-06-2011 23:16:02 15.9 C 10.02 g/m*3 15.9 C 0 km/h
956 14-06-2011 23:28:02 15.4 C 9.85 g/m*3 15.4 C 0 km/h
957 14-06-2011 23:40:03 14.8 C 9.63 g/m*3 14.8 C 0 km/h
958 14-06-2011 23:52:03 14.6 C 9.64 g/m*3 14.6 C 0 km/h
959 15-06-2011 00:04:03 14.3 C 9.71 g/m*3 14.3 C 0 km/h
960 15-06-2011 00:16:03 14.1 C 9.59 g/m*3 14.1 C 0 km/h
961 15-06-2011 00:28:03 14.1 C 9.71 g/m*3 14.1 C 0 km/h
962 15-06-2011 00:40:03 14.2 C 9.89 g/m*3 14.2 C 0 km/h
963 15-06-2011 00:52:03 13.8 C 9.77 g/m*3 13.8 C 0 km/h
964 15-06-2011 01:04:03 13.5 C 9.59 g/m*3 13.5 C 0 km/h
965 15-06-2011 01:16:03 13.5 C 9.71 g/m*3 13.5 C 0 km/h
966 15-06-2011 01:28:03 13.2 C 9.53 g/m*3 13.2 C 0 km/h
967 15-06-2011 01:40:03 13.2 C 9.64 g/m*3 13.2 C 0 km/h
968 15-06-2011 01:52:03 13.1 C 9.59 g/m*3 13.1 C 0 km/h
969 15-06-2011 02:04:03 13 C 9.53 g/m*3 13 C 0 km/h
970 15-06-2011 02:16:03 12.9 C 9.58 g/m*3 12.9 C 0 km/h
971 15-06-2011 02:28:03 12.8 C 9.63 g/m*3 12.8 C 0 km/h
972 15-06-2011 02:40:03 12.7 C 9.57 g/m*3 12.7 C 0 km/h
973 15-06-2011 02:52:03 12.6 C 9.51 g/m*3 12.6 C 0 km/h
974 15-06-2011 03:04:03 12.6 C 9.51 g/m*3 12.6 C 0 km/h
975 15-06-2011 03:16:03 12.7 C 9.68 g/m*3 12.7 C 0 km/h
Sensor: Nr:Datum:Temp:Abs-Feuchte:Windchill:Wind:
Aussen-T/F 976 15-06-2011 03:28:03 12.9 C 9.81 g/m*3 12.9 C 0 km/h
977 15-06-2011 03:40:03 12.4 C 9.51 g/m*3 12.4 C 0 km/h
978 15-06-2011 03:52:04 12.1 C 9.33 g/m*3 12.1 C 0 km/h
979 15-06-2011 04:04:04 12 C 9.27 g/m*3 12 C 0 km/h
980 15-06-2011 04:16:04 12.3 C 9.56 g/m*3 12.3 C 0 km/h
981 15-06-2011 04:28:04 11.9 C 9.32 g/m*3 11.9 C 0 km/h
982 15-06-2011 04:40:04 12.1 C 9.44 g/m*3 12.1 C 0 km/h
983 15-06-2011 04:52:04 11.9 C 9.43 g/m*3 11.9 C 0 km/h
984 15-06-2011 05:04:04 11.8 C 9.37 g/m*3 11.8 C 0 km/h
985 15-06-2011 05:16:04 12.2 C 9.6 g/m*3 12.2 C 0 km/h
986 15-06-2011 05:28:04 12.7 C 9.91 g/m*3 12.7 C 0 km/h
987 15-06-2011 05:40:04 12.8 C 9.97 g/m*3 12.8 C 0 km/h
988 15-06-2011 05:52:04 13 C 10.09 g/m*3 13 C 0 km/h
989 15-06-2011 06:04:04 13.3 C 10.28 g/m*3 13.3 C 0 km/h
990 15-06-2011 06:16:04 13.3 C 10.28 g/m*3 13.3 C 0 km/h
991 15-06-2011 06:28:04 13.7 C 10.42 g/m*3 13.7 C 0 km/h
992 15-06-2011 06:40:04 13.9 C 10.43 g/m*3 13.9 C 0 km/h
993 15-06-2011 06:52:04 14.1 C 10.44 g/m*3 14.1 C 0 km/h
994 15-06-2011 07:04:03 14.3 C 10.44 g/m*3 14.3 C 0 km/h
995 15-06-2011 07:16:02 14.7 C 10.45 g/m*3 14.7 C 0 km/h
996 15-06-2011 07:28:02 15 C 10.13 g/m*3 15 C 0 km/h
997 15-06-2011 07:40:03 15.4 C 10.12 g/m*3 15.4 C 0 km/h
998 15-06-2011 07:52:02 16 C 9.81 g/m*3 16 C 0 km/h
999 15-06-2011 08:04:02 16.4 C 9.63 g/m*3 16.4 C 0 km/h
1000 15-06-2011 08:16:01 17 C 9.84 g/m*3 17 C 0 km/h
Sensor: Nr:Datum:Temp:Abs-Feuchte:Windchill:Wind:
Aussen-T/F 1001 15-06-2011 08:28:01 16.7 C 9.66 g/m*3 16.7 C 0 km/h
1002 15-06-2011 08:40:02 17 C 9.84 g/m*3 17 C 0 km/h
1003 15-06-2011 08:52:02 17.6 C 9.9 g/m*3 17.6 C 0 km/h
1004 15-06-2011 09:04:02 18.3 C 9.69 g/m*3 18.3 C 0 km/h
1005 15-06-2011 09:16:01 18.2 C 9.64 g/m*3 18.2 C 0 km/h
1006 15-06-2011 09:28:01 18.2 C 9.64 g/m*3 18.2 C 0 km/h
1007 15-06-2011 09:40:02 18.9 C 9.88 g/m*3 18.9 C 0 km/h
1008 15-06-2011 09:52:02 19.1 C 9.67 g/m*3 19.1 C 0 km/h
1009 15-06-2011 10:04:02 19.7 C 9.51 g/m*3 19.7 C 0 km/h
1010 15-06-2011 10:16:02 20.3 C 9.67 g/m*3 20.3 C 0 km/h
1011 15-06-2011 10:28:02 20 C 9.51 g/m*3 20 C 0 km/h
1012 15-06-2011 10:40:02 20.5 C 9.61 g/m*3 20.5 C 0 km/h
1013 15-06-2011 10:52:02 21.8 C 9.78 g/m*3 21.8 C 0 km/h
1014 15-06-2011 11:04:02 23.5 C 9.73 g/m*3 23.5 C 0 km/h
1015 15-06-2011 11:16:02 23.6 C 9.78 g/m*3 23.6 C 0 km/h
1016 15-06-2011 11:28:02 24.2 C 9.9 g/m*3 24.2 C 0 km/h
1017 15-06-2011 11:40:01 24.6 C 9.68 g/m*3 24.6 C 0 km/h
1018 15-06-2011 11:52:02 24.3 C 9.74 g/m*3 24.3 C 0 km/h
1019 15-06-2011 12:04:01 24.1 C 10.06 g/m*3 24.1 C 0 km/h
1020 15-06-2011 12:16:01 24.1 C 10.06 g/m*3 24.1 C 0 km/h
1021 15-06-2011 12:28:01 24.8 C 9.56 g/m*3 24.8 C 0 km/h
1022 15-06-2011 12:40:02 25.1 C 9.49 g/m*3 25.1 C 0 km/h
1023 15-06-2011 12:52:02 25.1 C 8.8 g/m*3 25.1 C 0 km/h
1024 15-06-2011 13:04:02 26.2 C 8.86 g/m*3 26.2 C 0 km/h
1025 15-06-2011 13:16:02 27.2 C 8.07 g/m*3 27.2 C 0 km/h
Sensor: Nr:Datum:Temp:Abs-Feuchte:Windchill:Wind:
Aussen-T/F 1026 15-06-2011 13:28:02 28.2 C 8.25 g/m*3 28.2 C 0 km/h
1027 15-06-2011 13:40:02 30 C 8.19 g/m*3 30 C 0 km/h
1028 15-06-2011 13:52:01 28.8 C 8.52 g/m*3 28.8 C 0 km/h
1029 15-06-2011 14:04:02 26.6 C 7.55 g/m*3 26.6 C 0 km/h
1030 15-06-2011 14:16:01 25.7 C 8.14 g/m*3 25.7 C 0 km/h
1031 15-06-2011 14:28:01 24.7 C 8.6 g/m*3 24.7 C 0 km/h
1032 15-06-2011 14:40:01 24 C 9.14 g/m*3 24 C 0 km/h
1033 15-06-2011 14:52:01 23.3 C 9.83 g/m*3 23.3 C 0 km/h
1034 15-06-2011 15:04:02 23 C 9.25 g/m*3 23 C 0 km/h
1035 15-06-2011 15:16:01 22.6 C 10.04 g/m*3 22.6 C 0 km/h
1036 15-06-2011 15:28:01 24 C 9.57 g/m*3 24 C 0 km/h
1037 15-06-2011 15:40:02 25 C 8.75 g/m*3 25 C 0 km/h
1038 15-06-2011 15:52:03 26.6 C 8.81 g/m*3 26.6 C 0 km/h
1039 15-06-2011 16:04:02 26.2 C 8.86 g/m*3 26.2 C 0 km/h
1040 15-06-2011 16:16:02 25.6 C 8.57 g/m*3 25.6 C 0 km/h
1041 15-06-2011 16:28:02 26.8 C 8.14 g/m*3 26.8 C 0 km/h
1042 15-06-2011 16:40:02 27 C 7.72 g/m*3 27 C 0 km/h
1043 15-06-2011 16:52:02 27 C 7.98 g/m*3 27 C 0 km/h
1044 15-06-2011 17:04:02 28 C 7.89 g/m*3 28 C 0 km/h
1045 15-06-2011 17:16:01 28.3 C 7.46 g/m*3 28.3 C 0 km/h
1046 15-06-2011 17:28:01 28.3 C 7.46 g/m*3 28.3 C 0 km/h
1047 15-06-2011 17:40:01 28.5 C 7.27 g/m*3 28.5 C 0 km/h
1048 15-06-2011 17:52:01 27.7 C 8.02 g/m*3 27.7 C 0 km/h
1049 15-06-2011 18:04:02 27 C 7.98 g/m*3 27 C 0 km/h
1050 15-06-2011 18:16:01 26.9 C 8.19 g/m*3 26.9 C 0 km/h
Sensor: Nr:Datum:Temp:Abs-Feuchte:Windchill:Wind:
Aussen-T/F 1051 15-06-2011 18:28:01 27.1 C 8.02 g/m*3 27.1 C 0 km/h
1052 15-06-2011 18:40:02 28 C 7.89 g/m*3 28 C 0 km/h
1053 15-06-2011 18:52:02 25.9 C 9.2 g/m*3 25.9 C 0 km/h
1054 15-06-2011 19:04:02 27.5 C 7.67 g/m*3 27.5 C 0 km/h
1055 15-06-2011 19:16:01 28.6 C 7.87 g/m*3 28.6 C 0 km/h
1056 15-06-2011 19:28:01 25.9 C 8.96 g/m*3 25.9 C 0 km/h
1057 15-06-2011 19:40:02 25.1 C 9.72 g/m*3 25.1 C 0 km/h
1058 15-06-2011 19:52:01 23.6 C 10.42 g/m*3 23.6 C 0 km/h
1059 15-06-2011 20:04:02 22.9 C 10.63 g/m*3 22.9 C 0 km/h
1060 15-06-2011 20:16:02 22.8 C 9.96 g/m*3 22.8 C 0 km/h
1061 15-06-2011 20:28:02 21.9 C 10.61 g/m*3 21.9 C 0 km/h
1062 15-06-2011 20:40:02 21.2 C 10.56 g/m*3 21.2 C 0 km/h
1063 15-06-2011 20:52:02 21 C 10.26 g/m*3 21 C 0 km/h
1064 15-06-2011 21:04:02 20.8 C 10.32 g/m*3 20.8 C 0 km/h
1065 15-06-2011 21:16:02 20.5 C 10.14 g/m*3 20.5 C 0 km/h
1066 15-06-2011 21:28:02 20 C 10.02 g/m*3 20 C 0 km/h
1067 15-06-2011 21:40:02 19.7 C 10.36 g/m*3 19.7 C 0 km/h
1068 15-06-2011 21:52:02 18.9 C 10.21 g/m*3 18.9 C 0 km/h
1069 16-06-2011 20:53:01 17.2 C 9.23 g/m*3 17.2 C 0 km/h
1070 16-06-2011 21:05:02 17.7 C 9.2 g/m*3 17.7 C 0 km/h
1071 16-06-2011 21:17:01 17.2 C 9.08 g/m*3 17.2 C 0 km/h
1072 16-06-2011 21:29:01 16.7 C 9.1 g/m*3 16.7 C 0 km/h
1073 16-06-2011 21:41:02 16.2 C 9.1 g/m*3 16.2 C 0 km/h
1074 16-06-2011 21:53:02 15.9 C 9.34 g/m*3 15.9 C 0 km/h
1075 16-06-2011 22:06:15 16 C 9.26 g/m*3 16 C 0 km/h
Sensor: Nr:Datum:Temp:Abs-Feuchte:Windchill:Wind:
Aussen-T/F 1076 16-06-2011 22:18:15 15.9 C 8.94 g/m*3 15.9 C 0 km/h
1077 16-06-2011 22:30:15 15.7 C 8.83 g/m*3 15.7 C 0 km/h
1078 16-06-2011 22:42:15 16.2 C 7.72 g/m*3 16.2 C 0 km/h
1079 16-06-2011 22:54:15 16.1 C 7.26 g/m*3 16.1 C 0 km/h
1080 16-06-2011 23:06:15 15.8 C 7.4 g/m*3 15.8 C 0 km/h
1081 16-06-2011 23:18:15 15.4 C 7.36 g/m*3 15.4 C 0 km/h
1082 16-06-2011 23:30:15 14.8 C 7.47 g/m*3 14.8 C 0 km/h
1083 16-06-2011 23:42:15 14.7 C 7.43 g/m*3 14.7 C 0 km/h
1084 16-06-2011 23:54:15 14.4 C 7.05 g/m*3 14.4 C 0 km/h
1085 17-06-2011 00:06:15 14.1 C 6.67 g/m*3 14.1 C 0 km/h
1086 17-06-2011 00:18:15 13.5 C 6.55 g/m*3 13.5 C 0 km/h
1087 17-06-2011 00:30:15 13 C 6.46 g/m*3 13 C 0 km/h
1088 17-06-2011 00:42:15 12.8 C 6.83 g/m*3 12.8 C 0 km/h
1089 17-06-2011 00:54:15 12.2 C 6.91 g/m*3 12.2 C 0 km/h
1090 17-06-2011 01:06:15 11.8 C 7.16 g/m*3 11.8 C 0 km/h
1091 17-06-2011 01:18:15 12 C 7.03 g/m*3 12 C 0 km/h
1092 17-06-2011 01:30:15 13 C 6.46 g/m*3 13 C 0 km/h
1093 17-06-2011 01:42:16 12.5 C 6.49 g/m*3 12.5 C 0 km/h
1094 17-06-2011 01:54:16 12.1 C 6.54 g/m*3 12.1 C 0 km/h
1095 17-06-2011 02:06:16 11.5 C 6.71 g/m*3 11.5 C 0 km/h
1096 17-06-2011 02:18:16 10.8 C 6.72 g/m*3 10.8 C 0 km/h
1097 17-06-2011 02:30:16 10.5 C 6.89 g/m*3 10.5 C 0 km/h
1098 17-06-2011 02:42:16 10 C 6.77 g/m*3 10 C 0 km/h
1099 17-06-2011 02:54:16 10.2 C 7.04 g/m*3 10.2 C 0 km/h
1100 17-06-2011 03:06:16 10.1 C 7 g/m*3 10.1 C 0 km/h
Sensor: Nr:Datum:Temp:Abs-Feuchte:Windchill:Wind:
Aussen-T/F 1101 17-06-2011 03:18:16 9.3 C 7.01 g/m*3 9.3 C 0 km/h
1102 17-06-2011 03:30:16 9.1 C 7.01 g/m*3 9.1 C 0 km/h
1103 17-06-2011 03:42:16 8.8 C 7.14 g/m*3 8.8 C 0 km/h
1104 17-06-2011 03:54:16 9 C 7.23 g/m*3 9 C 0 km/h
1105 17-06-2011 04:06:16 8.7 C 7.18 g/m*3 8.7 C 0 km/h
1106 17-06-2011 04:18:16 8.3 C 7.08 g/m*3 8.3 C 0 km/h
1107 17-06-2011 04:30:16 8 C 7.03 g/m*3 8 C 0 km/h
1108 17-06-2011 04:42:16 7.9 C 7.06 g/m*3 7.9 C 0 km/h
1109 17-06-2011 04:54:16 7.6 C 7.01 g/m*3 7.6 C 0 km/h
1110 17-06-2011 05:06:16 7.5 C 6.96 g/m*3 7.5 C 0 km/h
1111 17-06-2011 05:18:16 7.4 C 6.92 g/m*3 7.4 C 0 km/h
1112 17-06-2011 05:30:16 7.4 C 6.92 g/m*3 7.4 C 0 km/h
1113 17-06-2011 05:42:17 7.5 C 7.04 g/m*3 7.5 C 0 km/h
1114 17-06-2011 05:54:17 7.5 C 7.04 g/m*3 7.5 C 0 km/h
1115 17-06-2011 06:06:17 7.5 C 7.04 g/m*3 7.5 C 0 km/h
1116 17-06-2011 06:18:17 7.5 C 7.04 g/m*3 7.5 C 0 km/h
1117 17-06-2011 06:30:17 7.6 C 7.17 g/m*3 7.6 C 0 km/h
1118 17-06-2011 06:42:17 8.1 C 7.32 g/m*3 8.1 C 0 km/h
1119 17-06-2011 06:54:17 8.3 C 7.42 g/m*3 8.3 C 0 km/h
1120 17-06-2011 07:06:17 8.9 C 7.8 g/m*3 8.9 C 0 km/h
1121 17-06-2011 07:18:17 9 C 7.76 g/m*3 9 C 0 km/h
1122 17-06-2011 07:30:17 9.1 C 7.72 g/m*3 9.1 C 0 km/h
1123 17-06-2011 07:42:17 9.8 C 8.16 g/m*3 9.8 C 0 km/h
1124 17-06-2011 07:54:17 10.3 C 8.24 g/m*3 10.3 C 0 km/h
1125 17-06-2011 08:06:17 11.3 C 8.57 g/m*3 11.3 C 0 km/h
Sensor: Nr:Datum:Temp:Abs-Feuchte:Windchill:Wind:
Aussen-T/F 1126 17-06-2011 08:18:17 11.9 C 8.37 g/m*3 11.9 C 0 km/h
1127 17-06-2011 08:30:17 12.4 C 7.65 g/m*3 12.4 C 0 km/h
1128 17-06-2011 08:42:17 12.7 C 7.9 g/m*3 12.7 C 0 km/h
1129 17-06-2011 08:54:17 13.2 C 7.92 g/m*3 13.2 C 0 km/h
1130 17-06-2011 09:06:17 14.1 C 8.13 g/m*3 14.1 C 0 km/h
1131 17-06-2011 09:18:17 14.2 C 7.69 g/m*3 14.2 C 0 km/h
1132 17-06-2011 09:30:17 14.6 C 8.01 g/m*3 14.6 C 0 km/h
1133 17-06-2011 09:42:18 16 C 6.95 g/m*3 16 C 0 km/h
1134 17-06-2011 09:54:18 16.9 C 6.47 g/m*3 16.9 C 0 km/h
1135 17-06-2011 10:06:18 17.5 C 6.71 g/m*3 17.5 C 0 km/h
1136 17-06-2011 10:18:18 17.6 C 6.15 g/m*3 17.6 C 0 km/h
1137 17-06-2011 10:30:18 18.1 C 6.33 g/m*3 18.1 C 0 km/h
1138 17-06-2011 10:42:18 18.6 C 6.05 g/m*3 18.6 C 0 km/h
1139 17-06-2011 10:54:18 18.9 C 5.67 g/m*3 18.9 C 0 km/h
1140 17-06-2011 11:06:18 19 C 5.54 g/m*3 19 C 0 km/h
1141 17-06-2011 11:18:18 19.4 C 5.34 g/m*3 19.4 C 0 km/h
1142 17-06-2011 11:30:18 19.1 C 5.74 g/m*3 19.1 C 0 km/h
1143 17-06-2011 11:42:18 19.7 C 5.6 g/m*3 19.7 C 0 km/h
1144 17-06-2011 11:54:18 20 C 5.7 g/m*3 20 C 0 km/h
1145 17-06-2011 12:06:18 20.3 C 5.63 g/m*3 20.3 C 0 km/h
1146 17-06-2011 12:18:18 20.7 C 5.58 g/m*3 20.7 C 0 km/h
1147 17-06-2011 12:30:18 20.9 C 5.46 g/m*3 20.9 C 0 km/h
1148 17-06-2011 12:42:18 21.3 C 5.59 g/m*3 21.3 C 0 km/h
1149 17-06-2011 12:54:18 21.4 C 5.44 g/m*3 21.4 C 0 km/h
1150 17-06-2011 13:06:18 22 C 5.82 g/m*3 22 C 0 km/h
Sensor: Nr:Datum:Temp:Abs-Feuchte:Windchill:Wind:
Aussen-T/F 1151 17-06-2011 13:18:18 22.9 C 6.13 g/m*3 22.9 C 0 km/h
1152 17-06-2011 13:30:18 22.9 C 5.52 g/m*3 22.9 C 0 km/h
1153 17-06-2011 13:42:18 25.8 C 6.26 g/m*3 25.8 C 0 km/h
1154 17-06-2011 13:54:19 23.4 C 5.47 g/m*3 23.4 C 0 km/h
1155 17-06-2011 14:06:19 28.3 C 5.81 g/m*3 28.3 C 0 km/h
1156 17-06-2011 14:18:19 25.8 C 5.3 g/m*3 25.8 C 0 km/h
1157 17-06-2011 14:30:19 25 C 5.75 g/m*3 25 C 0 km/h
1158 17-06-2011 14:42:19 24.8 C 5.69 g/m*3 24.8 C 0 km/h
1159 17-06-2011 14:54:19 24.5 C 5.6 g/m*3 24.5 C 0 km/h
1160 17-06-2011 15:06:19 25.1 C 5.09 g/m*3 25.1 C 0 km/h
1161 17-06-2011 15:18:19 26.2 C 5.17 g/m*3 26.2 C 0 km/h
1162 17-06-2011 15:30:01 24.5 C 4.92 g/m*3 24.5 C 0 km/h
1163 17-06-2011 15:42:01 23.3 C 6.06 g/m*3 23.3 C 0 km/h
1164 17-06-2011 15:54:01 22.8 C 6.3 g/m*3 22.8 C 0 km/h
1165 17-06-2011 16:06:01 22.3 C 7.31 g/m*3 22.3 C 0 km/h
1166 17-06-2011 16:18:02 21.8 C 7.29 g/m*3 21.8 C 0 km/h
1167 17-06-2011 16:30:02 22 C 6.99 g/m*3 22 C 0 km/h
1168 17-06-2011 16:42:01 22.6 C 8.24 g/m*3 22.6 C 0 km/h
1169 17-06-2011 16:54:02 22.4 C 7.94 g/m*3 22.4 C 0 km/h
1170 17-06-2011 17:06:02 22.4 C 8.74 g/m*3 22.4 C 0 km/h
1171 17-06-2011 17:18:02 21.5 C 9.05 g/m*3 21.5 C 0 km/h
1172 17-06-2011 17:30:03 21.6 C 8.91 g/m*3 21.6 C 0 km/h
1173 17-06-2011 17:42:02 21.2 C 8.52 g/m*3 21.2 C 0 km/h
1174 17-06-2011 17:54:02 20.7 C 8.64 g/m*3 20.7 C 0 km/h
1175 17-06-2011 18:06:02 20.5 C 8.72 g/m*3 20.5 C 0 km/h
Sensor: Nr:Datum:Temp:Abs-Feuchte:Windchill:Wind:
Aussen-T/F 1176 17-06-2011 18:18:02 20.5 C 9.25 g/m*3 20.5 C 0 km/h
1177 17-06-2011 18:30:02 21 C 9.34 g/m*3 21 C 0 km/h
1178 17-06-2011 18:42:02 20.9 C 9.11 g/m*3 20.9 C 0 km/h
1179 17-06-2011 18:54:02 21.2 C 8.9 g/m*3 21.2 C 0 km/h
1180 17-06-2011 19:06:02 20.5 C 8.72 g/m*3 20.5 C 0 km/h
1181 17-06-2011 19:18:02 20 C 8.99 g/m*3 20 C 0 km/h
1182 17-06-2011 19:30:02 19.9 C 8.93 g/m*3 19.9 C 0 km/h
1183 17-06-2011 19:42:02 19.5 C 8.73 g/m*3 19.5 C 0 km/h
1184 17-06-2011 19:54:02 19.1 C 8.69 g/m*3 19.1 C 0 km/h
1185 17-06-2011 20:06:02 18.9 C 8.91 g/m*3 18.9 C 0 km/h
1186 17-06-2011 20:18:02 18.1 C 8.81 g/m*3 18.1 C 0 km/h
1187 17-06-2011 20:30:02 17 C 9.12 g/m*3 17 C 0 km/h
1188 17-06-2011 20:42:01 16.2 C 9.93 g/m*3 16.2 C 0 km/h
1189 17-06-2011 20:54:02 15.9 C 10.02 g/m*3 15.9 C 0 km/h
1190 17-06-2011 21:06:01 15.8 C 10.23 g/m*3 15.8 C 0 km/h
1191 17-06-2011 21:18:02 15.7 C 10.44 g/m*3 15.7 C 0 km/h
1192 17-06-2011 21:30:02 15.4 C 10.38 g/m*3 15.4 C 0 km/h
1193 17-06-2011 21:42:01 15.2 C 10.51 g/m*3 15.2 C 0 km/h
1194 17-06-2011 21:54:01 15 C 10.51 g/m*3 15 C 0 km/h
1195 17-06-2011 22:06:01 15 C 10.64 g/m*3 15 C 0 km/h
1196 17-06-2011 22:18:02 14.8 C 10.77 g/m*3 14.8 C 0 km/h
1197 17-06-2011 22:30:02 14.5 C 10.57 g/m*3 14.5 C 0 km/h
1198 17-06-2011 22:43:02 14.3 C 10.44 g/m*3 14.3 C 0 km/h
1199 17-06-2011 22:55:02 14.2 C 10.5 g/m*3 14.2 C 0 km/h
1200 17-06-2011 23:07:02 14.2 C 10.5 g/m*3 14.2 C 0 km/h
Sensor: Nr:Datum:Temp:Abs-Feuchte:Windchill:Wind:
Aussen-T/F 1201 17-06-2011 23:19:02 14.2 C 10.62 g/m*3 14.2 C 0 km/h
1202 17-06-2011 23:31:02 14.2 C 10.62 g/m*3 14.2 C 0 km/h
1203 17-06-2011 23:43:02 14.1 C 10.56 g/m*3 14.1 C 0 km/h
1204 17-06-2011 23:55:02 14.1 C 10.56 g/m*3 14.1 C 0 km/h
1205 18-06-2011 00:07:02 14.1 C 10.56 g/m*3 14.1 C 0 km/h
1206 18-06-2011 00:19:02 14 C 10.49 g/m*3 14 C 0 km/h
1207 18-06-2011 00:31:02 14.2 C 10.75 g/m*3 14.2 C 0 km/h
1208 18-06-2011 00:43:02 14.2 C 10.75 g/m*3 14.2 C 0 km/h
1209 18-06-2011 00:55:02 13.9 C 10.55 g/m*3 13.9 C 0 km/h
1210 18-06-2011 01:07:02 13.8 C 10.48 g/m*3 13.8 C 0 km/h
1211 18-06-2011 01:19:02 13.9 C 10.55 g/m*3 13.9 C 0 km/h
1212 18-06-2011 01:31:02 14 C 10.61 g/m*3 14 C 0 km/h
1213 18-06-2011 01:43:02 14.3 C 10.81 g/m*3 14.3 C 0 km/h
1214 18-06-2011 01:55:02 14.2 C 10.75 g/m*3 14.2 C 0 km/h
1215 18-06-2011 02:07:03 14.3 C 10.93 g/m*3 14.3 C 0 km/h
1216 18-06-2011 02:19:03 14.3 C 10.93 g/m*3 14.3 C 0 km/h
1217 18-06-2011 02:31:03 14.5 C 11.07 g/m*3 14.5 C 0 km/h
1218 18-06-2011 02:43:03 14.3 C 10.93 g/m*3 14.3 C 0 km/h
1219 18-06-2011 02:55:03 14.2 C 10.87 g/m*3 14.2 C 0 km/h
1220 18-06-2011 03:07:03 14.2 C 10.87 g/m*3 14.2 C 0 km/h
1221 18-06-2011 03:19:03 14.3 C 10.93 g/m*3 14.3 C 0 km/h
1222 18-06-2011 03:31:03 14.4 C 11 g/m*3 14.4 C 0 km/h
1223 18-06-2011 03:43:03 14.4 C 11 g/m*3 14.4 C 0 km/h
1224 18-06-2011 03:55:03 14.4 C 11 g/m*3 14.4 C 0 km/h
1225 18-06-2011 04:07:03 14.5 C 11.07 g/m*3 14.5 C 0 km/h
Sensor: Nr:Datum:Temp:Abs-Feuchte:Windchill:Wind:
Aussen-T/F 1226 18-06-2011 04:19:03 15 C 11.16 g/m*3 15 C 0 km/h
1227 18-06-2011 04:31:03 15.3 C 10.58 g/m*3 15.3 C 0 km/h
1228 18-06-2011 04:43:03 14.7 C 10.32 g/m*3 14.7 C 0 km/h
1229 18-06-2011 04:55:03 15.2 C 10.12 g/m*3 15.2 C 0 km/h
1230 18-06-2011 05:07:03 15.1 C 9.93 g/m*3 15.1 C 0 km/h
1231 18-06-2011 05:19:03 14.8 C 10.01 g/m*3 14.8 C 0 km/h
1232 18-06-2011 05:31:03 14.9 C 9.94 g/m*3 14.9 C 0 km/h
1233 18-06-2011 05:43:03 15 C 9.62 g/m*3 15 C 0 km/h
1234 18-06-2011 05:55:03 14.8 C 9.5 g/m*3 14.8 C 0 km/h
1235 18-06-2011 06:07:04 14.8 C 9.5 g/m*3 14.8 C 0 km/h
1236 18-06-2011 06:19:04 14.4 C 9.15 g/m*3 14.4 C 0 km/h
1237 18-06-2011 06:31:04 14.7 C 9.19 g/m*3 14.7 C 0 km/h
1238 18-06-2011 06:43:04 15 C 8.85 g/m*3 15 C 0 km/h
1239 18-06-2011 06:55:04 15.4 C 8.54 g/m*3 15.4 C 0 km/h
1240 18-06-2011 07:07:04 15.6 C 8.38 g/m*3 15.6 C 0 km/h
1241 18-06-2011 07:19:04 15.6 C 8.38 g/m*3 15.6 C 0 km/h
1242 18-06-2011 07:31:04 15.6 C 8.25 g/m*3 15.6 C 0 km/h
1243 18-06-2011 07:43:04 15.7 C 8.16 g/m*3 15.7 C 0 km/h
1244 18-06-2011 07:55:04 15.7 C 8.3 g/m*3 15.7 C 0 km/h
1245 18-06-2011 08:07:04 15.7 C 8.16 g/m*3 15.7 C 0 km/h
1246 18-06-2011 08:19:04 15.9 C 7.85 g/m*3 15.9 C 0 km/h
1247 18-06-2011 08:31:04 16 C 7.77 g/m*3 16 C 0 km/h
1248 18-06-2011 08:43:04 16.3 C 7.63 g/m*3 16.3 C 0 km/h
1249 18-06-2011 08:55:04 16.6 C 7.49 g/m*3 16.6 C 0 km/h
1250 18-06-2011 09:07:04 16.7 C 7.67 g/m*3 16.7 C 0 km/h
Sensor: Nr:Datum:Temp:Abs-Feuchte:Windchill:Wind:
Aussen-T/F 1251 18-06-2011 09:19:02 16.8 C 7.58 g/m*3 16.8 C 0 km/h
1252 18-06-2011 09:31:02 16.5 C 7.58 g/m*3 16.5 C 0 km/h
1253 18-06-2011 09:43:02 16.7 C 7.67 g/m*3 16.7 C 0 km/h
1254 18-06-2011 09:55:02 16.2 C 7.58 g/m*3 16.2 C 0 km/h
1255 18-06-2011 10:07:02 16.5 C 7.86 g/m*3 16.5 C 0 km/h
1256 18-06-2011 10:19:02 17 C 7.23 g/m*3 17 C 0 km/h
1257 18-06-2011 10:31:01 16.2 C 6.62 g/m*3 16.2 C 0 km/h
1258 18-06-2011 10:43:01 16 C 6.4 g/m*3 16 C 0 km/h
1259 18-06-2011 10:55:02 16.7 C 6.54 g/m*3 16.7 C 0 km/h
1260 18-06-2011 11:07:01 16.6 C 6.5 g/m*3 16.6 C 0 km/h
1261 18-06-2011 11:19:02 17 C 6.08 g/m*3 17 C 0 km/h
1262 18-06-2011 11:31:02 17.5 C 6.41 g/m*3 17.5 C 0 km/h
1263 18-06-2011 11:43:02 15.9 C 6.09 g/m*3 15.9 C 0 km/h
1264 18-06-2011 11:55:03 17.5 C 6.41 g/m*3 17.5 C 0 km/h
1265 18-06-2011 12:07:02 17.3 C 5.89 g/m*3 17.3 C 0 km/h
1266 18-06-2011 12:19:03 16.5 C 6.32 g/m*3 16.5 C 0 km/h
1267 18-06-2011 12:31:02 17 C 5.93 g/m*3 17 C 0 km/h
1268 18-06-2011 12:43:02 16.5 C 5.9 g/m*3 16.5 C 0 km/h
1269 18-06-2011 12:55:02 17.2 C 6.15 g/m*3 17.2 C 0 km/h
1270 18-06-2011 13:07:02 18.2 C 6.37 g/m*3 18.2 C 0 km/h
1271 18-06-2011 13:19:02 18.3 C 6.1 g/m*3 18.3 C 0 km/h
1272 18-06-2011 13:31:02 17.4 C 5.93 g/m*3 17.4 C 0 km/h
1273 18-06-2011 13:43:02 18.9 C 5.83 g/m*3 18.9 C 0 km/h
1274 18-06-2011 13:55:02 17.4 C 6.08 g/m*3 17.4 C 0 km/h
1275 18-06-2011 14:07:01 19.8 C 6.15 g/m*3 19.8 C 0 km/h
Sensor: Nr:Datum:Temp:Abs-Feuchte:Windchill:Wind:
Aussen-T/F 1276 18-06-2011 14:19:02 19.1 C 5.9 g/m*3 19.1 C 0 km/h
1277 18-06-2011 14:31:01 19.7 C 5.6 g/m*3 19.7 C 0 km/h
1278 18-06-2011 14:43:01 18.8 C 5.31 g/m*3 18.8 C 0 km/h
1279 18-06-2011 14:55:02 18.1 C 5.56 g/m*3 18.1 C 0 km/h
1280 18-06-2011 15:07:01 19.9 C 5.15 g/m*3 19.9 C 0 km/h
1281 18-06-2011 15:19:02 20.8 C 4.71 g/m*3 20.8 C 0 km/h
1282 18-06-2011 15:31:01 22.4 C 5.36 g/m*3 22.4 C 0 km/h
1283 18-06-2011 15:43:01 20 C 5.18 g/m*3 20 C 0 km/h
1284 18-06-2011 15:55:02 21.2 C 5.74 g/m*3 21.2 C 0 km/h
1285 18-06-2011 16:07:01 21.8 C 5.76 g/m*3 21.8 C 0 km/h
1286 18-06-2011 16:19:02 19.4 C 5.34 g/m*3 19.4 C 0 km/h
1287 18-06-2011 16:31:01 19.8 C 5.81 g/m*3 19.8 C 0 km/h
1288 18-06-2011 16:43:01 22 C 6.02 g/m*3 22 C 0 km/h
1289 18-06-2011 16:55:02 21.1 C 5.34 g/m*3 21.1 C 0 km/h
1290 18-06-2011 17:07:02 18.6 C 5.73 g/m*3 18.6 C 0 km/h
1291 18-06-2011 17:19:02 18.1 C 6.03 g/m*3 18.1 C 0 km/h
1292 18-06-2011 17:31:03 17.5 C 6.11 g/m*3 17.5 C 0 km/h
1293 18-06-2011 17:43:03 17.2 C 6.44 g/m*3 17.2 C 0 km/h
1294 18-06-2011 17:55:02 16.2 C 6.76 g/m*3 16.2 C 0 km/h
1295 18-06-2011 18:07:02 16.3 C 6.52 g/m*3 16.3 C 0 km/h
1296 18-06-2011 18:19:02 15.8 C 6.46 g/m*3 15.8 C 0 km/h
1297 18-06-2011 18:31:02 18.7 C 6.72 g/m*3 18.7 C 0 km/h
1298 18-06-2011 18:43:02 19.3 C 5.81 g/m*3 19.3 C 0 km/h
1299 18-06-2011 18:55:02 18.1 C 6.33 g/m*3 18.1 C 0 km/h
1300 18-06-2011 19:07:02 16.6 C 6.36 g/m*3 16.6 C 0 km/h
Sensor: Nr:Datum:Temp:Abs-Feuchte:Windchill:Wind:
Aussen-T/F 1301 18-06-2011 19:19:02 15.7 C 6.42 g/m*3 15.7 C 0 km/h
1302 18-06-2011 19:31:02 15.3 C 6.66 g/m*3 15.3 C 0 km/h
1303 18-06-2011 19:43:02 15.3 C 6.53 g/m*3 15.3 C 0 km/h
1304 18-06-2011 19:55:02 15.1 C 6.58 g/m*3 15.1 C 0 km/h
1305 18-06-2011 20:07:01 15.3 C 6.66 g/m*3 15.3 C 0 km/h
1306 18-06-2011 20:19:01 15.1 C 6.71 g/m*3 15.1 C 0 km/h
1307 18-06-2011 20:31:00 15 C 6.67 g/m*3 15 C 0 km/h
1308 18-06-2011 20:43:00 14.8 C 6.84 g/m*3 14.8 C 0 km/h
1309 18-06-2011 20:55:02 14.5 C 6.96 g/m*3 14.5 C 0 km/h
1310 18-06-2011 21:07:01 14 C 6.88 g/m*3 14 C 0 km/h
1311 18-06-2011 21:19:02 13.7 C 7.22 g/m*3 13.7 C 0 km/h
1312 18-06-2011 21:31:01 13.1 C 7.19 g/m*3 13.1 C 0 km/h
1313 18-06-2011 21:43:01 13 C 7.26 g/m*3 13 C 0 km/h
1314 18-06-2011 21:55:03 12.5 C 7.26 g/m*3 12.5 C 0 km/h
1315 18-06-2011 22:07:02 12.5 C 7.15 g/m*3 12.5 C 0 km/h
1316 18-06-2011 22:20:02 12.4 C 7.21 g/m*3 12.4 C 0 km/h
1317 18-06-2011 22:32:02 12.3 C 7.28 g/m*3 12.3 C 0 km/h
1318 18-06-2011 22:44:02 12.1 C 7.18 g/m*3 12.1 C 0 km/h
1319 18-06-2011 22:56:02 12.3 C 7.17 g/m*3 12.3 C 0 km/h
1320 18-06-2011 23:08:02 12.1 C 7.08 g/m*3 12.1 C 0 km/h
1321 18-06-2011 23:20:02 11.7 C 7.32 g/m*3 11.7 C 0 km/h
1322 18-06-2011 23:32:03 11.3 C 7.45 g/m*3 11.3 C 0 km/h
1323 18-06-2011 23:44:03 11.7 C 7.64 g/m*3 11.7 C 0 km/h
1324 18-06-2011 23:56:03 11.5 C 7.64 g/m*3 11.5 C 0 km/h
1325 19-06-2011 00:08:03 11.5 C 7.75 g/m*3 11.5 C 0 km/h
Sensor: Nr:Datum:Temp:Abs-Feuchte:Windchill:Wind:
Aussen-T/F 1326 19-06-2011 00:20:03 11.9 C 7.94 g/m*3 11.9 C 0 km/h
1327 19-06-2011 00:32:03 12.4 C 7.65 g/m*3 12.4 C 0 km/h
1328 19-06-2011 00:44:03 12.9 C 7.44 g/m*3 12.9 C 0 km/h
1329 19-06-2011 00:56:03 12.8 C 7.39 g/m*3 12.8 C 0 km/h
1330 19-06-2011 01:08:03 12.5 C 7.26 g/m*3 12.5 C 0 km/h
1331 19-06-2011 01:20:03 12.7 C 7.24 g/m*3 12.7 C 0 km/h
1332 19-06-2011 01:32:03 12.5 C 7.04 g/m*3 12.5 C 0 km/h
1333 19-06-2011 01:44:03 12.5 C 7.15 g/m*3 12.5 C 0 km/h
1334 19-06-2011 01:56:03 12.6 C 7.08 g/m*3 12.6 C 0 km/h
1335 19-06-2011 02:08:03 12.8 C 7.17 g/m*3 12.8 C 0 km/h
1336 19-06-2011 02:20:03 12.8 C 7.06 g/m*3 12.8 C 0 km/h
1337 19-06-2011 02:32:03 12.5 C 7.04 g/m*3 12.5 C 0 km/h
1338 19-06-2011 02:44:03 12.6 C 7.08 g/m*3 12.6 C 0 km/h
1339 19-06-2011 02:56:03 12.2 C 7.01 g/m*3 12.2 C 0 km/h
1340 19-06-2011 03:08:03 12 C 6.93 g/m*3 12 C 0 km/h
1341 19-06-2011 03:20:03 11.2 C 6.89 g/m*3 11.2 C 0 km/h
1342 19-06-2011 03:32:03 10.9 C 6.96 g/m*3 10.9 C 0 km/h
1343 19-06-2011 03:44:04 11.5 C 7.13 g/m*3 11.5 C 0 km/h
1344 19-06-2011 03:56:04 11.6 C 7.07 g/m*3 11.6 C 0 km/h
1345 19-06-2011 04:08:04 11.5 C 7.02 g/m*3 11.5 C 0 km/h
1346 19-06-2011 04:20:04 11.3 C 7.04 g/m*3 11.3 C 0 km/h
1347 19-06-2011 04:32:04 11.3 C 7.04 g/m*3 11.3 C 0 km/h
1348 19-06-2011 04:44:04 11.4 C 6.98 g/m*3 11.4 C 0 km/h
1349 19-06-2011 04:56:04 11.4 C 6.98 g/m*3 11.4 C 0 km/h
1350 19-06-2011 05:08:04 11.7 C 7.11 g/m*3 11.7 C 0 km/h
Sensor: Nr:Datum:Temp:Abs-Feuchte:Windchill:Wind:
Aussen-T/F 1351 19-06-2011 05:20:04 12 C 7.14 g/m*3 12 C 0 km/h
1352 19-06-2011 05:32:04 11.9 C 7.1 g/m*3 11.9 C 0 km/h
1353 19-06-2011 05:44:04 12 C 6.93 g/m*3 12 C 0 km/h
1354 19-06-2011 05:56:04 12.1 C 6.97 g/m*3 12.1 C 0 km/h
1355 19-06-2011 06:08:02 12.2 C 6.91 g/m*3 12.2 C 0 km/h
1356 19-06-2011 06:20:01 12.1 C 6.86 g/m*3 12.1 C 0 km/h
1357 19-06-2011 06:32:02 12.2 C 6.8 g/m*3 12.2 C 0 km/h
1358 19-06-2011 06:44:02 12.1 C 6.86 g/m*3 12.1 C 0 km/h
1359 19-06-2011 06:56:01 12.4 C 6.88 g/m*3 12.4 C 0 km/h
1360 19-06-2011 07:08:02 12.4 C 6.99 g/m*3 12.4 C 0 km/h
1361 19-06-2011 07:20:02 12.5 C 6.93 g/m*3 12.5 C 0 km/h
1362 19-06-2011 07:32:01 12.6 C 7.08 g/m*3 12.6 C 0 km/h
1363 19-06-2011 07:44:01 12.6 C 6.97 g/m*3 12.6 C 0 km/h
1364 19-06-2011 07:56:02 12.7 C 7.01 g/m*3 12.7 C 0 km/h
1365 19-06-2011 08:08:01 12.8 C 7.17 g/m*3 12.8 C 0 km/h
1366 19-06-2011 08:20:02 11.9 C 7.52 g/m*3 11.9 C 0 km/h
1367 19-06-2011 08:32:01 12.8 C 7.73 g/m*3 12.8 C 0 km/h
1368 19-06-2011 08:44:01 12.9 C 7.21 g/m*3 12.9 C 0 km/h
1369 19-06-2011 08:56:02 12.6 C 7.3 g/m*3 12.6 C 0 km/h
1370 19-06-2011 09:08:02 12.7 C 7.46 g/m*3 12.7 C 0 km/h
1371 19-06-2011 09:20:02 12.8 C 7.39 g/m*3 12.8 C 0 km/h
1372 19-06-2011 09:32:02 13.3 C 7.16 g/m*3 13.3 C 0 km/h
1373 19-06-2011 09:44:02 13.2 C 7.23 g/m*3 13.2 C 0 km/h
1374 19-06-2011 09:56:02 14.7 C 7.3 g/m*3 14.7 C 0 km/h
1375 19-06-2011 10:08:02 14.8 C 6.97 g/m*3 14.8 C 0 km/h
Sensor: Nr:Datum:Temp:Abs-Feuchte:Windchill:Wind:
Aussen-T/F 1376 19-06-2011 10:20:02 14.5 C 6.84 g/m*3 14.5 C 0 km/h
1377 19-06-2011 10:32:02 14.2 C 6.72 g/m*3 14.2 C 0 km/h
1378 19-06-2011 10:44:02 14.9 C 7.14 g/m*3 14.9 C 0 km/h
1379 19-06-2011 10:56:02 14.4 C 6.8 g/m*3 14.4 C 0 km/h
1380 19-06-2011 11:08:02 14.5 C 6.72 g/m*3 14.5 C 0 km/h
1381 19-06-2011 11:20:01 15.3 C 6.92 g/m*3 15.3 C 0 km/h
1382 19-06-2011 11:32:02 15.1 C 6.58 g/m*3 15.1 C 0 km/h
1383 19-06-2011 11:44:02 15.4 C 6.7 g/m*3 15.4 C 0 km/h
1384 19-06-2011 11:56:01 15.4 C 6.57 g/m*3 15.4 C 0 km/h
1385 19-06-2011 12:08:02 16.8 C 6.86 g/m*3 16.8 C 0 km/h
1386 19-06-2011 12:20:02 15.8 C 6.6 g/m*3 15.8 C 0 km/h
1387 19-06-2011 12:32:01 16.5 C 6.74 g/m*3 16.5 C 0 km/h
1388 19-06-2011 12:44:01 17 C 6.8 g/m*3 17 C 0 km/h
1389 19-06-2011 12:56:02 16.3 C 6.66 g/m*3 16.3 C 0 km/h
1390 19-06-2011 13:08:01 17.2 C 6.74 g/m*3 17.2 C 0 km/h
1391 19-06-2011 13:20:02 17 C 6.08 g/m*3 17 C 0 km/h
1392 19-06-2011 13:32:01 17.9 C 6.57 g/m*3 17.9 C 0 km/h
1393 19-06-2011 13:44:01 16.8 C 6.29 g/m*3 16.8 C 0 km/h
1394 19-06-2011 13:56:02 17.1 C 6.4 g/m*3 17.1 C 0 km/h
1395 19-06-2011 14:08:01 18 C 6.3 g/m*3 18 C 0 km/h
1396 19-06-2011 14:20:01 18 C 6.3 g/m*3 18 C 0 km/h
1397 19-06-2011 14:32:02 18 C 6.3 g/m*3 18 C 0 km/h
1398 19-06-2011 14:44:02 18 C 6.14 g/m*3 18 C 0 km/h
1399 19-06-2011 14:56:02 20.9 C 6.01 g/m*3 20.9 C 0 km/h
1400 19-06-2011 15:08:01 18.7 C 5.92 g/m*3 18.7 C 0 km/h
Sensor: Nr:Datum:Temp:Abs-Feuchte:Windchill:Wind:
Aussen-T/F 1401 19-06-2011 15:20:02 18.3 C 6.57 g/m*3 18.3 C 0 km/h
1402 19-06-2011 15:32:02 17.6 C 6.45 g/m*3 17.6 C 0 km/h
1403 19-06-2011 15:44:02 17.7 C 8.15 g/m*3 17.7 C 0 km/h
1404 19-06-2011 15:56:02 17.7 C 8 g/m*3 17.7 C 0 km/h
1405 19-06-2011 16:08:02 17.7 C 8 g/m*3 17.7 C 0 km/h
1406 19-06-2011 16:20:02 16.9 C 7.05 g/m*3 16.9 C 0 km/h
1407 19-06-2011 16:32:02 17.9 C 7.33 g/m*3 17.9 C 0 km/h
1408 19-06-2011 16:44:02 17.9 C 7.33 g/m*3 17.9 C 0 km/h
1409 19-06-2011 16:56:01 16.7 C 6.54 g/m*3 16.7 C 0 km/h
1410 19-06-2011 17:08:02 16 C 7.36 g/m*3 16 C 0 km/h
1411 19-06-2011 17:20:01 17.5 C 7.16 g/m*3 17.5 C 0 km/h
1412 19-06-2011 17:32:02 19.5 C 6.55 g/m*3 19.5 C 0 km/h
1413 19-06-2011 17:44:02 18.1 C 6.64 g/m*3 18.1 C 0 km/h
1414 19-06-2011 17:56:03 18.1 C 6.64 g/m*3 18.1 C 0 km/h
1415 19-06-2011 18:08:03 18.1 C 6.64 g/m*3 18.1 C 0 km/h
1416 19-06-2011 18:20:02 17.8 C 6.22 g/m*3 17.8 C 0 km/h
1417 19-06-2011 18:32:02 17.8 C 6.22 g/m*3 17.8 C 0 km/h
1418 19-06-2011 18:44:02 16.8 C 7.01 g/m*3 16.8 C 0 km/h
1419 19-06-2011 18:56:02 16.8 C 7.01 g/m*3 16.8 C 0 km/h
1420 19-06-2011 19:08:02 16.8 C 7.01 g/m*3 16.8 C 0 km/h
1421 19-06-2011 19:20:02 15.9 C 7.85 g/m*3 15.9 C 0 km/h
1422 19-06-2011 19:32:02 16 C 7.08 g/m*3 16 C 0 km/h
1423 19-06-2011 19:44:02 16 C 6.68 g/m*3 16 C 0 km/h
1424 19-06-2011 19:56:02 15.9 C 6.91 g/m*3 15.9 C 0 km/h
1425 19-06-2011 20:08:02 15.8 C 7 g/m*3 15.8 C 0 km/h
Sensor: Nr:Datum:Temp:Abs-Feuchte:Windchill:Wind:
Aussen-T/F 1426 19-06-2011 20:20:02 15.7 C 7.36 g/m*3 15.7 C 0 km/h
1427 19-06-2011 20:32:01 15.8 C 7.13 g/m*3 15.8 C 0 km/h
1428 19-06-2011 20:44:01 16 C 6.81 g/m*3 16 C 0 km/h
1429 19-06-2011 20:56:02 16 C 6.81 g/m*3 16 C 0 km/h
1430 19-06-2011 21:08:01 15.5 C 6.87 g/m*3 15.5 C 0 km/h
1431 19-06-2011 21:20:02 15 C 7.18 g/m*3 15 C 0 km/h
1432 19-06-2011 21:32:02 15 C 6.92 g/m*3 15 C 0 km/h
1433 19-06-2011 21:44:02 15 C 7.18 g/m*3 15 C 0 km/h
1434 19-06-2011 21:56:02 14.8 C 7.47 g/m*3 14.8 C 0 km/h
1435 19-06-2011 22:08:02 14.4 C 7.54 g/m*3 14.4 C 0 km/h
1436 19-06-2011 22:20:02 14.1 C 7.65 g/m*3 14.1 C 0 km/h
1437 19-06-2011 22:33:04 13.8 C 7.74 g/m*3 13.8 C 0 km/h
1438 19-06-2011 22:45:04 13.8 C 7.86 g/m*3 13.8 C 0 km/h
1439 19-06-2011 22:57:04 13.8 C 7.86 g/m*3 13.8 C 0 km/h
1440 19-06-2011 23:09:04 13.9 C 7.31 g/m*3 13.9 C 0 km/h
1441 19-06-2011 23:21:04 13.7 C 7.34 g/m*3 13.7 C 0 km/h
1442 19-06-2011 23:33:04 13.5 C 7.37 g/m*3 13.5 C 0 km/h
1443 19-06-2011 23:45:04 13.3 C 7.39 g/m*3 13.3 C 0 km/h
1444 19-06-2011 23:57:04 12.1 C 7.51 g/m*3 12.1 C 0 km/h
1445 20-06-2011 00:09:04 11.9 C 7.63 g/m*3 11.9 C 0 km/h
1446 20-06-2011 00:21:04 12 C 7.78 g/m*3 12 C 0 km/h
1447 20-06-2011 00:33:04 11.8 C 7.79 g/m*3 11.8 C 0 km/h
1448 20-06-2011 00:45:04 11.6 C 7.9 g/m*3 11.6 C 0 km/h
1449 20-06-2011 00:57:04 11.6 C 7.9 g/m*3 11.6 C 0 km/h
1450 20-06-2011 01:09:04 11.6 C 7.9 g/m*3 11.6 C 0 km/h
Sensor: Nr:Datum:Temp:Abs-Feuchte:Windchill:Wind:
Aussen-T/F 1451 20-06-2011 01:21:04 11.6 C 7.9 g/m*3 11.6 C 0 km/h
1452 20-06-2011 01:33:04 11.6 C 7.9 g/m*3 11.6 C 0 km/h
1453 20-06-2011 01:45:04 12.2 C 7.88 g/m*3 12.2 C 0 km/h
1454 20-06-2011 01:57:04 12.2 C 7.66 g/m*3 12.2 C 0 km/h
1455 20-06-2011 02:09:05 12.4 C 7.76 g/m*3 12.4 C 0 km/h
1456 20-06-2011 02:21:05 12.2 C 7.77 g/m*3 12.2 C 0 km/h
1457 20-06-2011 02:33:05 12.3 C 7.71 g/m*3 12.3 C 0 km/h
1458 20-06-2011 02:45:05 12.1 C 7.72 g/m*3 12.1 C 0 km/h
1459 20-06-2011 02:57:05 11.8 C 7.79 g/m*3 11.8 C 0 km/h
1460 20-06-2011 03:09:05 10.9 C 7.46 g/m*3 10.9 C 0 km/h
1461 20-06-2011 03:21:05 10.5 C 7.57 g/m*3 10.5 C 0 km/h
1462 20-06-2011 03:33:05 10 C 7.42 g/m*3 10 C 0 km/h
1463 20-06-2011 03:45:05 9.7 C 7.56 g/m*3 9.7 C 0 km/h
1464 20-06-2011 03:57:05 9.7 C 7.65 g/m*3 9.7 C 0 km/h
1465 20-06-2011 04:09:05 9.7 C 7.65 g/m*3 9.7 C 0 km/h
1466 20-06-2011 04:21:05 9.4 C 7.6 g/m*3 9.4 C 0 km/h
1467 20-06-2011 04:33:05 10 C 7.8 g/m*3 10 C 0 km/h
1468 20-06-2011 04:45:05 9.5 C 7.55 g/m*3 9.5 C 0 km/h
1469 20-06-2011 04:57:05 9.3 C 7.55 g/m*3 9.3 C 0 km/h
1470 20-06-2011 05:09:05 9 C 7.41 g/m*3 9 C 0 km/h
1471 20-06-2011 05:21:05 8.4 C 7.21 g/m*3 8.4 C 0 km/h
1472 20-06-2011 05:33:05 8.2 C 7.2 g/m*3 8.2 C 0 km/h
1473 20-06-2011 05:45:05 8.1 C 7.16 g/m*3 8.1 C 0 km/h
1474 20-06-2011 05:57:05 8.4 C 7.38 g/m*3 8.4 C 0 km/h
1475 20-06-2011 06:09:06 8.6 C 7.56 g/m*3 8.6 C 0 km/h
Sensor: Nr:Datum:Temp:Abs-Feuchte:Windchill:Wind:
Aussen-T/F 1476 20-06-2011 06:21:06 8.5 C 7.43 g/m*3 8.5 C 0 km/h
1477 20-06-2011 06:33:03 8.5 C 7.43 g/m*3 8.5 C 0 km/h
1478 20-06-2011 06:45:03 8.5 C 7.43 g/m*3 8.5 C 0 km/h
1479 20-06-2011 06:57:03 8.5 C 7.43 g/m*3 8.5 C 0 km/h
1480 20-06-2011 07:09:02 8.5 C 7.43 g/m*3 8.5 C 0 km/h
1481 20-06-2011 07:21:02 10.7 C 8.45 g/m*3 10.7 C 0 km/h
1482 20-06-2011 07:33:02 11.1 C 8.36 g/m*3 11.1 C 0 km/h
1483 20-06-2011 07:45:02 11.9 C 8.37 g/m*3 11.9 C 0 km/h
1484 20-06-2011 07:57:02 12.2 C 8.09 g/m*3 12.2 C 0 km/h
1485 20-06-2011 08:09:02 13.2 C 8.27 g/m*3 13.2 C 0 km/h
1486 20-06-2011 08:21:02 13.8 C 8.1 g/m*3 13.8 C 0 km/h
1487 20-06-2011 08:33:02 14.7 C 7.68 g/m*3 14.7 C 0 km/h
1488 20-06-2011 08:45:02 15.5 C 7.14 g/m*3 15.5 C 0 km/h
1489 20-06-2011 08:57:02 14.9 C 7.14 g/m*3 14.9 C 0 km/h
1490 20-06-2011 09:09:02 14.5 C 7.21 g/m*3 14.5 C 0 km/h
1491 20-06-2011 09:21:02 13.8 C 7.51 g/m*3 13.8 C 0 km/h
1492 20-06-2011 09:33:02 12.7 C 8.01 g/m*3 12.7 C 0 km/h
1493 20-06-2011 09:45:02 12.8 C 8.4 g/m*3 12.8 C 0 km/h
1494 20-06-2011 09:57:02 13 C 8.73 g/m*3 13 C 0 km/h
1495 20-06-2011 10:09:02 13.1 C 8.9 g/m*3 13.1 C 0 km/h
1496 20-06-2011 10:21:02 13.1 C 8.9 g/m*3 13.1 C 0 km/h
1497 20-06-2011 10:33:02 13.5 C 9.01 g/m*3 13.5 C 0 km/h
1498 20-06-2011 10:45:01 13.7 C 8.88 g/m*3 13.7 C 0 km/h
1499 20-06-2011 10:57:01 13.6 C 8.94 g/m*3 13.6 C 0 km/h
1500 20-06-2011 11:09:03 13.3 C 8.78 g/m*3 13.3 C 0 km/h
Sensor: Nr:Datum:Temp:Abs-Feuchte:Windchill:Wind:
Aussen-T/F 1501 20-06-2011 11:21:01 14.3 C 9.58 g/m*3 14.3 C 0 km/h
1502 20-06-2011 11:33:02 14.2 C 9.52 g/m*3 14.2 C 0 km/h
1503 20-06-2011 11:45:03 14.2 C 9.52 g/m*3 14.2 C 0 km/h
1504 20-06-2011 11:57:03 14.2 C 9.52 g/m*3 14.2 C 0 km/h
1505 20-06-2011 12:09:03 14.2 C 9.52 g/m*3 14.2 C 0 km/h
1506 20-06-2011 12:21:02 14.2 C 9.52 g/m*3 14.2 C 0 km/h
1507 20-06-2011 12:33:02 13.7 C 9.71 g/m*3 13.7 C 0 km/h
1508 20-06-2011 12:45:02 13.8 C 9.77 g/m*3 13.8 C 0 km/h
1509 20-06-2011 12:57:02 14.1 C 9.95 g/m*3 14.1 C 0 km/h
1510 20-06-2011 13:09:02 14.2 C 9.89 g/m*3 14.2 C 0 km/h
1511 20-06-2011 13:21:02 14.2 C 9.77 g/m*3 14.2 C 0 km/h
1512 20-06-2011 13:33:02 14.5 C 10.07 g/m*3 14.5 C 0 km/h
1513 20-06-2011 13:45:02 14.6 C 10.01 g/m*3 14.6 C 0 km/h
1514 20-06-2011 13:57:02 14.3 C 9.83 g/m*3 14.3 C 0 km/h
1515 20-06-2011 14:09:03 14.3 C 10.07 g/m*3 14.3 C 0 km/h
1516 20-06-2011 14:21:02 14.5 C 10.2 g/m*3 14.5 C 0 km/h
1517 20-06-2011 14:33:03 14.8 C 10.26 g/m*3 14.8 C 0 km/h
1518 20-06-2011 14:45:02 15 C 10.26 g/m*3 15 C 0 km/h
1519 20-06-2011 14:57:03 15.8 C 10.63 g/m*3 15.8 C 0 km/h
1520 20-06-2011 15:09:02 16.5 C 10.67 g/m*3 16.5 C 0 km/h
1521 20-06-2011 15:21:02 16.7 C 10.52 g/m*3 16.7 C 0 km/h
1522 20-06-2011 15:33:03 17.6 C 10.05 g/m*3 17.6 C 0 km/h
1523 20-06-2011 15:45:02 17.5 C 9.69 g/m*3 17.5 C 0 km/h
1524 20-06-2011 15:57:02 17.3 C 10.31 g/m*3 17.3 C 0 km/h
1525 20-06-2011 16:09:02 17.5 C 10.14 g/m*3 17.5 C 0 km/h
Sensor: Nr:Datum:Temp:Abs-Feuchte:Windchill:Wind:
Aussen-T/F 1526 20-06-2011 16:21:02 17.7 C 10.56 g/m*3 17.7 C 0 km/h
1527 20-06-2011 16:33:02 17.9 C 10.38 g/m*3 17.9 C 0 km/h
1528 20-06-2011 16:45:02 17.4 C 10.23 g/m*3 17.4 C 0 km/h
1529 20-06-2011 16:57:02 17.2 C 10.69 g/m*3 17.2 C 0 km/h
1530 20-06-2011 17:09:03 17.6 C 10.95 g/m*3 17.6 C 0 km/h
1531 20-06-2011 17:21:02 18.4 C 10.07 g/m*3 18.4 C 0 km/h
1532 20-06-2011 17:33:02 17.7 C 10.56 g/m*3 17.7 C 0 km/h
1533 20-06-2011 17:45:01 17.7 C 10.56 g/m*3 17.7 C 0 km/h
1534 20-06-2011 17:57:01 17.3 C 10.46 g/m*3 17.3 C 0 km/h
1535 20-06-2011 18:09:03 17.1 C 10.77 g/m*3 17.1 C 0 km/h
1536 20-06-2011 18:21:02 17 C 10.71 g/m*3 17 C 0 km/h
1537 20-06-2011 18:33:02 17.2 C 10.84 g/m*3 17.2 C 0 km/h
1538 20-06-2011 18:45:02 17.1 C 10.63 g/m*3 17.1 C 0 km/h
1539 20-06-2011 18:57:02 16.8 C 10.72 g/m*3 16.8 C 0 km/h
1540 20-06-2011 19:09:02 16.5 C 11.09 g/m*3 16.5 C 0 km/h
1541 20-06-2011 19:21:02 16.4 C 11.31 g/m*3 16.4 C 0 km/h
1542 20-06-2011 19:33:02 16.2 C 11.31 g/m*3 16.2 C 0 km/h
1543 20-06-2011 19:45:02 16.2 C 11.31 g/m*3 16.2 C 0 km/h
1544 20-06-2011 19:57:02 16.1 C 11.38 g/m*3 16.1 C 0 km/h
1545 20-06-2011 20:09:02 16.2 C 11.58 g/m*3 16.2 C 0 km/h
1546 20-06-2011 20:21:02 16.2 C 11.58 g/m*3 16.2 C 0 km/h
1547 20-06-2011 20:33:03 16 C 11.58 g/m*3 16 C 0 km/h
1548 20-06-2011 20:45:03 15.8 C 11.58 g/m*3 15.8 C 0 km/h
1549 20-06-2011 20:57:03 15.7 C 11.51 g/m*3 15.7 C 0 km/h
1550 20-06-2011 21:09:03 15.7 C 11.64 g/m*3 15.7 C 0 km/h
Sensor: Nr:Datum:Temp:Abs-Feuchte:Windchill:Wind:
Aussen-T/F 1551 20-06-2011 21:21:03 15.9 C 11.78 g/m*3 15.9 C 0 km/h
1552 20-06-2011 21:33:03 15.8 C 11.58 g/m*3 15.8 C 0 km/h
1553 20-06-2011 21:45:02 15.6 C 11.44 g/m*3 15.6 C 0 km/h
1554 20-06-2011 21:57:02 15.4 C 11.43 g/m*3 15.4 C 0 km/h
1555 20-06-2011 22:09:02 15.1 C 11.22 g/m*3 15.1 C 0 km/h
1556 20-06-2011 22:21:03 15 C 11.16 g/m*3 15 C 0 km/h
1557 20-06-2011 22:33:02 14.8 C 11.15 g/m*3 14.8 C 0 km/h
1558 20-06-2011 22:45:02 14.5 C 10.94 g/m*3 14.5 C 0 km/h
1559 20-06-2011 22:57:02 14.1 C 10.68 g/m*3 14.1 C 0 km/h
1560 20-06-2011 23:09:02 13.8 C 10.48 g/m*3 13.8 C 0 km/h
1561 20-06-2011 23:21:02 14.1 C 10.68 g/m*3 14.1 C 0 km/h
1562 20-06-2011 23:33:01 14.4 C 11 g/m*3 14.4 C 0 km/h
1563 20-06-2011 23:45:02 14.5 C 11.07 g/m*3 14.5 C 0 km/h
1564 20-06-2011 23:57:02 14.7 C 11.21 g/m*3 14.7 C 0 km/h
1565 21-06-2011 00:09:01 14.7 C 11.21 g/m*3 14.7 C 0 km/h
1566 21-06-2011 00:21:02 14.8 C 11.4 g/m*3 14.8 C 0 km/h
1567 21-06-2011 00:33:02 14.8 C 11.4 g/m*3 14.8 C 0 km/h
1568 21-06-2011 00:45:02 14.9 C 11.47 g/m*3 14.9 C 0 km/h
1569 21-06-2011 00:57:02 14.8 C 11.4 g/m*3 14.8 C 0 km/h
1570 21-06-2011 01:09:01 14.9 C 11.47 g/m*3 14.9 C 0 km/h
1571 21-06-2011 01:21:02 14.8 C 11.4 g/m*3 14.8 C 0 km/h
1572 21-06-2011 01:33:01 14.9 C 11.47 g/m*3 14.9 C 0 km/h
1573 21-06-2011 01:45:02 14.9 C 11.47 g/m*3 14.9 C 0 km/h
1574 21-06-2011 01:57:02 15 C 11.41 g/m*3 15 C 0 km/h
1575 21-06-2011 02:09:02 15 C 11.41 g/m*3 15 C 0 km/h
Sensor: Nr:Datum:Temp:Abs-Feuchte:Windchill:Wind:
Aussen-T/F 1576 21-06-2011 02:21:02 14.9 C 11.47 g/m*3 14.9 C 0 km/h
1577 21-06-2011 02:33:02 14.9 C 11.47 g/m*3 14.9 C 0 km/h
1578 21-06-2011 02:46:04 14.9 C 11.47 g/m*3 14.9 C 0 km/h
1579 21-06-2011 02:58:04 15 C 11.54 g/m*3 15 C 0 km/h
1580 21-06-2011 03:10:04 15 C 11.54 g/m*3 15 C 0 km/h
1581 21-06-2011 03:22:04 14.9 C 11.47 g/m*3 14.9 C 0 km/h
1582 21-06-2011 03:34:02 15.1 C 11.61 g/m*3 15.1 C 0 km/h
1583 21-06-2011 03:46:02 15.2 C 11.68 g/m*3 15.2 C 0 km/h
1584 21-06-2011 03:58:02 15.5 C 11.9 g/m*3 15.5 C 0 km/h
1585 21-06-2011 04:10:02 15.5 C 11.9 g/m*3 15.5 C 0 km/h
1586 21-06-2011 04:22:02 15.6 C 11.97 g/m*3 15.6 C 0 km/h
1587 21-06-2011 04:34:02 15.7 C 12.04 g/m*3 15.7 C 0 km/h
1588 21-06-2011 04:46:01 15.7 C 12.04 g/m*3 15.7 C 0 km/h
1589 21-06-2011 04:58:01 15.8 C 12.11 g/m*3 15.8 C 0 km/h
1590 21-06-2011 05:10:02 15.9 C 12.19 g/m*3 15.9 C 0 km/h
1591 21-06-2011 05:22:01 15.8 C 12.11 g/m*3 15.8 C 0 km/h
1592 21-06-2011 05:34:01 15.8 C 12.11 g/m*3 15.8 C 0 km/h
1593 21-06-2011 05:46:01 15.8 C 12.11 g/m*3 15.8 C 0 km/h
1594 21-06-2011 05:58:01 15.8 C 12.11 g/m*3 15.8 C 0 km/h
1595 21-06-2011 06:10:02 15.8 C 12.11 g/m*3 15.8 C 0 km/h
1596 21-06-2011 06:22:01 15.8 C 12.11 g/m*3 15.8 C 0 km/h
1597 21-06-2011 06:34:01 15.9 C 12.19 g/m*3 15.9 C 0 km/h
1598 21-06-2011 06:46:01 16 C 12.26 g/m*3 16 C 0 km/h
1599 21-06-2011 06:58:01 16.1 C 12.34 g/m*3 16.1 C 0 km/h
1600 21-06-2011 07:10:01 16.2 C 12.41 g/m*3 16.2 C 0 km/h
Sensor: Nr:Datum:Temp:Abs-Feuchte:Windchill:Wind:
Aussen-T/F 1601 21-06-2011 07:22:02 16.4 C 12.56 g/m*3 16.4 C 0 km/h
1602 21-06-2011 07:34:01 16.7 C 12.79 g/m*3 16.7 C 0 km/h
1603 21-06-2011 07:46:01 16.9 C 12.94 g/m*3 16.9 C 0 km/h
1604 21-06-2011 07:58:01 16.9 C 12.94 g/m*3 16.9 C 0 km/h
1605 21-06-2011 08:10:03 17.5 C 13.27 g/m*3 17.5 C 0 km/h
1606 21-06-2011 08:22:03 17.7 C 13.43 g/m*3 17.7 C 0 km/h
1607 21-06-2011 08:34:04 17.9 C 13.44 g/m*3 17.9 C 0 km/h
1608 21-06-2011 08:46:02 18.2 C 12.9 g/m*3 18.2 C 0 km/h
1609 21-06-2011 08:58:02 18.7 C 12.01 g/m*3 18.7 C 0 km/h
1610 21-06-2011 09:10:03 18.8 C 11.6 g/m*3 18.8 C 0 km/h
1611 21-06-2011 09:22:02 18.7 C 11.21 g/m*3 18.7 C 0 km/h
1612 21-06-2011 09:34:03 19 C 11.41 g/m*3 19 C 0 km/h
1613 21-06-2011 09:46:02 18.6 C 11.3 g/m*3 18.6 C 0 km/h
1614 21-06-2011 09:58:02 17.9 C 11.45 g/m*3 17.9 C 0 km/h
1615 21-06-2011 10:10:02 18 C 11.67 g/m*3 18 C 0 km/h
1616 21-06-2011 10:22:01 18.5 C 11.71 g/m*3 18.5 C 0 km/h
1617 21-06-2011 10:34:02 18.6 C 11.3 g/m*3 18.6 C 0 km/h
1618 21-06-2011 10:46:02 19 C 11.08 g/m*3 19 C 0 km/h
1619 21-06-2011 10:58:02 19 C 11.24 g/m*3 19 C 0 km/h
1620 21-06-2011 11:10:02 19.5 C 11.24 g/m*3 19.5 C 0 km/h
1621 21-06-2011 11:22:03 20 C 10.2 g/m*3 20 C 0 km/h
1622 21-06-2011 11:34:02 20.7 C 10.8 g/m*3 20.7 C 0 km/h
1623 21-06-2011 11:46:02 21 C 9.71 g/m*3 21 C 0 km/h
1624 21-06-2011 11:58:02 20.9 C 10.2 g/m*3 20.9 C 0 km/h
1625 21-06-2011 12:10:01 21.6 C 9.86 g/m*3 21.6 C 0 km/h
Sensor: Nr:Datum:Temp:Abs-Feuchte:Windchill:Wind:
Aussen-T/F 1626 21-06-2011 12:22:01 20 C 9.68 g/m*3 20 C 0 km/h
1627 21-06-2011 12:34:00 19.8 C 10.42 g/m*3 19.8 C 0 km/h
1628 21-06-2011 12:46:02 20.9 C 10.75 g/m*3 20.9 C 0 km/h
1629 21-06-2011 12:58:02 21.2 C 10.01 g/m*3 21.2 C 0 km/h
1630 21-06-2011 13:10:01 21.8 C 9.98 g/m*3 21.8 C 0 km/h
1631 21-06-2011 13:22:02 21.5 C 9.81 g/m*3 21.5 C 0 km/h
1632 21-06-2011 13:34:01 21.7 C 10.3 g/m*3 21.7 C 0 km/h
1633 21-06-2011 13:46:02 20.7 C 10.08 g/m*3 20.7 C 0 km/h
1634 21-06-2011 13:58:02 21.8 C 9.98 g/m*3 21.8 C 0 km/h
1635 21-06-2011 14:10:02 20.8 C 10.14 g/m*3 20.8 C 0 km/h
1636 21-06-2011 14:22:02 22.9 C 10.01 g/m*3 22.9 C 0 km/h
1637 21-06-2011 14:34:02 25.7 C 9.34 g/m*3 25.7 C 0 km/h
1638 21-06-2011 14:46:02 23.3 C 8.99 g/m*3 23.3 C 0 km/h
1639 21-06-2011 14:58:02 25 C 9.67 g/m*3 25 C 0 km/h
1640 21-06-2011 15:10:02 25.5 C 9.94 g/m*3 25.5 C 0 km/h
1641 21-06-2011 15:22:02 24.1 C 9.19 g/m*3 24.1 C 0 km/h
1642 21-06-2011 15:34:02 26.6 C 9.06 g/m*3 26.6 C 0 km/h
1643 21-06-2011 15:46:01 26.7 C 9.11 g/m*3 26.7 C 0 km/h
1644 21-06-2011 15:58:01 24.7 C 9.05 g/m*3 24.7 C 0 km/h
1645 21-06-2011 16:10:02 25.2 C 9.08 g/m*3 25.2 C 0 km/h
1646 21-06-2011 16:22:01 26.8 C 8.91 g/m*3 26.8 C 0 km/h
1647 21-06-2011 16:34:01 27 C 9.26 g/m*3 27 C 0 km/h
1648 21-06-2011 16:46:02 26.3 C 8.91 g/m*3 26.3 C 0 km/h
1649 21-06-2011 16:58:02 24 C 8.7 g/m*3 24 C 0 km/h
1650 21-06-2011 17:10:02 23.9 C 8.87 g/m*3 23.9 C 0 km/h
Sensor: Nr:Datum:Temp:Abs-Feuchte:Windchill:Wind:
Aussen-T/F 1651 21-06-2011 17:22:02 24.7 C 9.51 g/m*3 24.7 C 0 km/h
1652 21-06-2011 17:34:02 25.2 C 9.08 g/m*3 25.2 C 0 km/h
1653 21-06-2011 17:46:02 25.5 C 9 g/m*3 25.5 C 0 km/h
1654 21-06-2011 17:58:02 23.4 C 9.46 g/m*3 23.4 C 0 km/h
1655 21-06-2011 18:10:03 22.8 C 9.55 g/m*3 22.8 C 0 km/h
1656 21-06-2011 18:22:02 24.1 C 9.41 g/m*3 24.1 C 0 km/h
1657 21-06-2011 18:34:02 23.5 C 9.09 g/m*3 23.5 C 0 km/h
1658 21-06-2011 18:46:02 24.2 C 9.46 g/m*3 24.2 C 0 km/h
1659 21-06-2011 18:58:02 23.3 C 9.2 g/m*3 23.3 C 0 km/h
1660 21-06-2011 19:10:01 23.1 C 9.1 g/m*3 23.1 C 0 km/h
1661 21-06-2011 19:22:02 23.1 C 8.89 g/m*3 23.1 C 0 km/h
1662 21-06-2011 19:34:02 23.5 C 8.88 g/m*3 23.5 C 0 km/h
1663 21-06-2011 19:46:01 22.2 C 9.23 g/m*3 22.2 C 0 km/h
1664 21-06-2011 19:58:01 22 C 9.51 g/m*3 22 C 0 km/h
1665 21-06-2011 20:10:02 21.6 C 9.48 g/m*3 21.6 C 0 km/h
1666 21-06-2011 20:22:02 21.1 C 9.03 g/m*3 21.1 C 0 km/h
1667 21-06-2011 20:34:02 20.7 C 9.18 g/m*3 20.7 C 0 km/h
1668 21-06-2011 20:46:02 20.5 C 9.25 g/m*3 20.5 C 0 km/h
1669 21-06-2011 20:58:02 20.1 C 9.21 g/m*3 20.1 C 0 km/h
1670 21-06-2011 21:10:02 19.9 C 9.45 g/m*3 19.9 C 0 km/h
1671 21-06-2011 21:22:02 19.9 C 9.45 g/m*3 19.9 C 0 km/h
1672 21-06-2011 21:34:02 19.3 C 9.79 g/m*3 19.3 C 0 km/h
1673 21-06-2011 21:46:02 18.7 C 10.09 g/m*3 18.7 C 0 km/h
1674 21-06-2011 21:58:02 18.3 C 10.01 g/m*3 18.3 C 0 km/h
1675 21-06-2011 22:10:02 17.7 C 10.41 g/m*3 17.7 C 0 km/h
Sensor: Nr:Datum:Temp:Abs-Feuchte:Windchill:Wind:
Aussen-T/F 1676 21-06-2011 22:22:02 17.3 C 10.61 g/m*3 17.3 C 0 km/h
1677 21-06-2011 22:34:01 17.2 C 10.84 g/m*3 17.2 C 0 km/h
1678 21-06-2011 22:46:01 17.3 C 11.05 g/m*3 17.3 C 0 km/h
1679 21-06-2011 22:58:01 17.7 C 11.01 g/m*3 17.7 C 0 km/h
1680 21-06-2011 23:10:01 17.7 C 11.01 g/m*3 17.7 C 0 km/h
1681 21-06-2011 23:22:02 17.7 C 11.01 g/m*3 17.7 C 0 km/h
1682 21-06-2011 23:34:01 17.2 C 10.84 g/m*3 17.2 C 0 km/h
1683 21-06-2011 23:46:02 16.9 C 11.22 g/m*3 16.9 C 0 km/h
1684 21-06-2011 23:58:02 16.8 C 11.15 g/m*3 16.8 C 0 km/h
1685 22-06-2011 00:10:01 16.6 C 11.02 g/m*3 16.6 C 0 km/h
1686 22-06-2011 00:22:01 16 C 10.76 g/m*3 16 C 0 km/h
1687 22-06-2011 00:34:02 15.8 C 10.9 g/m*3 15.8 C 0 km/h
1688 22-06-2011 00:46:01 15.8 C 11.04 g/m*3 15.8 C 0 km/h
1689 22-06-2011 00:58:01 15.4 C 10.9 g/m*3 15.4 C 0 km/h
1690 22-06-2011 01:10:02 15.5 C 11.1 g/m*3 15.5 C 0 km/h
1691 22-06-2011 01:22:01 15.3 C 10.97 g/m*3 15.3 C 0 km/h
1692 22-06-2011 01:34:02 14.9 C 10.83 g/m*3 14.9 C 0 km/h
1693 22-06-2011 01:46:01 14.9 C 10.96 g/m*3 14.9 C 0 km/h
1694 22-06-2011 01:58:01 15.2 C 11.03 g/m*3 15.2 C 0 km/h
1695 22-06-2011 02:10:02 15.5 C 11.37 g/m*3 15.5 C 0 km/h
1696 22-06-2011 02:22:01 15.4 C 11.3 g/m*3 15.4 C 0 km/h
1697 22-06-2011 02:34:02 15.6 C 11.44 g/m*3 15.6 C 0 km/h
1698 22-06-2011 02:47:03 15.7 C 11.51 g/m*3 15.7 C 0 km/h
1699 22-06-2011 02:59:03 15.8 C 11.58 g/m*3 15.8 C 0 km/h
1700 22-06-2011 03:11:04 15.8 C 11.58 g/m*3 15.8 C 0 km/h
Sensor: Nr:Datum:Temp:Abs-Feuchte:Windchill:Wind:
Aussen-T/F 1701 22-06-2011 03:23:04 15.8 C 11.58 g/m*3 15.8 C 0 km/h
1702 22-06-2011 03:35:02 15.8 C 11.58 g/m*3 15.8 C 0 km/h
1703 22-06-2011 03:47:02 15.9 C 11.65 g/m*3 15.9 C 0 km/h
1704 22-06-2011 03:59:02 15.9 C 11.65 g/m*3 15.9 C 0 km/h
1705 22-06-2011 04:11:02 15.9 C 11.65 g/m*3 15.9 C 0 km/h
1706 22-06-2011 04:23:02 15.8 C 11.58 g/m*3 15.8 C 0 km/h
1707 22-06-2011 04:35:02 15.6 C 11.44 g/m*3 15.6 C 0 km/h
1708 22-06-2011 04:47:01 15.3 C 11.1 g/m*3 15.3 C 0 km/h
1709 22-06-2011 04:59:01 15.3 C 11.23 g/m*3 15.3 C 0 km/h
1710 22-06-2011 05:11:02 15.4 C 11.3 g/m*3 15.4 C 0 km/h
1711 22-06-2011 05:23:01 15.6 C 11.44 g/m*3 15.6 C 0 km/h
1712 22-06-2011 05:35:01 15.6 C 11.44 g/m*3 15.6 C 0 km/h
1713 22-06-2011 05:47:01 15.6 C 11.44 g/m*3 15.6 C 0 km/h
1714 22-06-2011 05:59:01 15.9 C 11.78 g/m*3 15.9 C 0 km/h
1715 22-06-2011 06:11:02 15.9 C 11.65 g/m*3 15.9 C 0 km/h
1716 22-06-2011 06:23:02 16.1 C 11.79 g/m*3 16.1 C 0 km/h
1717 22-06-2011 06:35:01 16.5 C 11.94 g/m*3 16.5 C 0 km/h
1718 22-06-2011 06:47:02 16.9 C 12.08 g/m*3 16.9 C 0 km/h
1719 22-06-2011 06:59:02 16.8 C 11.72 g/m*3 16.8 C 0 km/h
1720 22-06-2011 07:11:02 17.3 C 11.64 g/m*3 17.3 C 0 km/h
1721 22-06-2011 07:23:02 17.4 C 11.56 g/m*3 17.4 C 0 km/h
1722 22-06-2011 07:35:02 17.6 C 11.55 g/m*3 17.6 C 0 km/h
1723 22-06-2011 07:47:02 17.4 C 11.71 g/m*3 17.4 C 0 km/h
1724 22-06-2011 07:59:02 17.7 C 11.92 g/m*3 17.7 C 0 km/h
1725 22-06-2011 08:11:03 17.7 C 11.77 g/m*3 17.7 C 0 km/h
Sensor: Nr:Datum:Temp:Abs-Feuchte:Windchill:Wind:
Aussen-T/F 1726 22-06-2011 08:23:02 18 C 11.83 g/m*3 18 C 0 km/h
1727 22-06-2011 08:35:02 18.4 C 11.95 g/m*3 18.4 C 0 km/h
1728 22-06-2011 08:47:01 19.5 C 11.92 g/m*3 19.5 C 0 km/h
1729 22-06-2011 08:59:01 20 C 11.92 g/m*3 20 C 0 km/h
1730 22-06-2011 09:11:02 19.9 C 12.2 g/m*3 19.9 C 0 km/h
1731 22-06-2011 09:23:01 19.7 C 11.89 g/m*3 19.7 C 0 km/h
1732 22-06-2011 09:35:01 19.4 C 12.35 g/m*3 19.4 C 0 km/h
1733 22-06-2011 09:47:01 19.5 C 12.75 g/m*3 19.5 C 0 km/h
1734 22-06-2011 09:59:01 20.4 C 13.27 g/m*3 20.4 C 0 km/h
1735 22-06-2011 10:11:01 21.9 C 13.31 g/m*3 21.9 C 0 km/h
1736 22-06-2011 10:23:02 23.2 C 12.89 g/m*3 23.2 C 0 km/h
1737 22-06-2011 10:35:01 23.7 C 12.83 g/m*3 23.7 C 0 km/h
1738 22-06-2011 10:47:03 23.1 C 12.4 g/m*3 23.1 C 0 km/h
1739 22-06-2011 10:59:03 21.9 C 13.31 g/m*3 21.9 C 0 km/h
1740 22-06-2011 11:11:02 22.3 C 13.62 g/m*3 22.3 C 0 km/h
1741 22-06-2011 11:23:02 22.9 C 13.49 g/m*3 22.9 C 0 km/h
1742 22-06-2011 11:35:02 22.4 C 13.5 g/m*3 22.4 C 0 km/h
1743 22-06-2011 11:47:02 22.9 C 13.9 g/m*3 22.9 C 0 km/h
1744 22-06-2011 11:59:02 23.3 C 13.8 g/m*3 23.3 C 0 km/h
1745 22-06-2011 12:11:02 22.7 C 13.94 g/m*3 22.7 C 0 km/h
1746 22-06-2011 12:23:02 22.8 C 14.02 g/m*3 22.8 C 0 km/h
1747 22-06-2011 12:35:02 21.5 C 13.58 g/m*3 21.5 C 0 km/h
1748 22-06-2011 12:47:02 20.4 C 13.44 g/m*3 20.4 C 0 km/h
1749 22-06-2011 12:59:02 19.8 C 13.66 g/m*3 19.8 C 0 km/h
1750 22-06-2011 13:11:01 19.3 C 13.6 g/m*3 19.3 C 0 km/h
Sensor: Nr:Datum:Temp:Abs-Feuchte:Windchill:Wind:
Aussen-T/F 1751 22-06-2011 13:23:01 19.2 C 13.69 g/m*3 19.2 C 0 km/h
1752 22-06-2011 13:35:02 19 C 13.53 g/m*3 19 C 0 km/h
1753 22-06-2011 13:47:02 17.1 C 11.79 g/m*3 17.1 C 0 km/h
1754 22-06-2011 13:59:02 15.6 C 11.04 g/m*3 15.6 C 0 km/h
1755 22-06-2011 14:11:02 15.6 C 11.3 g/m*3 15.6 C 0 km/h
1756 22-06-2011 14:23:02 16.4 C 12 g/m*3 16.4 C 0 km/h
1757 22-06-2011 14:35:02 17.8 C 12.9 g/m*3 17.8 C 0 km/h
1758 22-06-2011 14:47:01 18.3 C 11.88 g/m*3 18.3 C 0 km/h
1759 22-06-2011 14:59:01 17.7 C 11.77 g/m*3 17.7 C 0 km/h
1760 22-06-2011 15:11:02 17.4 C 11.86 g/m*3 17.4 C 0 km/h
1761 22-06-2011 15:23:01 17.7 C 12.22 g/m*3 17.7 C 0 km/h
1762 22-06-2011 15:35:02 18.4 C 12.43 g/m*3 18.4 C 0 km/h
1763 22-06-2011 15:47:02 18.8 C 12.08 g/m*3 18.8 C 0 km/h
1764 22-06-2011 15:59:02 19.1 C 11.31 g/m*3 19.1 C 0 km/h
1765 22-06-2011 16:11:02 19.5 C 12.42 g/m*3 19.5 C 0 km/h
1766 22-06-2011 16:23:02 21.2 C 12.23 g/m*3 21.2 C 0 km/h
1767 22-06-2011 16:35:02 20.8 C 11.77 g/m*3 20.8 C 0 km/h
1768 22-06-2011 16:47:02 22.3 C 12.24 g/m*3 22.3 C 0 km/h
1769 22-06-2011 16:59:02 24.1 C 10.5 g/m*3 24.1 C 0 km/h
1770 22-06-2011 17:11:02 20.3 C 10.9 g/m*3 20.3 C 0 km/h
1771 22-06-2011 17:23:02 20.5 C 10.32 g/m*3 20.5 C 0 km/h
1772 22-06-2011 17:35:02 23.1 C 10.54 g/m*3 23.1 C 0 km/h
1773 22-06-2011 17:47:01 22.8 C 8.74 g/m*3 22.8 C 0 km/h
1774 22-06-2011 17:59:01 20.4 C 8.85 g/m*3 20.4 C 0 km/h
1775 22-06-2011 18:11:01 20.7 C 9.18 g/m*3 20.7 C 0 km/h
Sensor: Nr:Datum:Temp:Abs-Feuchte:Windchill:Wind:
Aussen-T/F 1776 22-06-2011 18:23:01 22.7 C 8.28 g/m*3 22.7 C 0 km/h
1777 22-06-2011 18:35:01 22.5 C 8.59 g/m*3 22.5 C 0 km/h
1778 22-06-2011 18:47:01 20.8 C 7.79 g/m*3 20.8 C 0 km/h
1779 22-06-2011 18:59:01 21.4 C 7.5 g/m*3 21.4 C 0 km/h
1780 22-06-2011 19:11:01 20 C 7.78 g/m*3 20 C 0 km/h
1781 22-06-2011 19:23:02 20.7 C 7.38 g/m*3 20.7 C 0 km/h
1782 22-06-2011 19:35:01 21 C 6.78 g/m*3 21 C 0 km/h
1783 22-06-2011 19:47:03 19.7 C 7.3 g/m*3 19.7 C 0 km/h
1784 22-06-2011 19:59:03 19.3 C 6.97 g/m*3 19.3 C 0 km/h
1785 22-06-2011 20:11:02 18.2 C 7.46 g/m*3 18.2 C 0 km/h
1786 22-06-2011 20:23:03 18 C 7.22 g/m*3 18 C 0 km/h
1787 22-06-2011 20:35:02 17.7 C 7.54 g/m*3 17.7 C 0 km/h
1788 22-06-2011 20:47:02 17.4 C 7.71 g/m*3 17.4 C 0 km/h
1789 22-06-2011 20:59:02 16.9 C 7.91 g/m*3 16.9 C 0 km/h
1790 22-06-2011 21:17:02 16.9 C 8.34 g/m*3 16.9 C 0 km/h
1791 22-06-2011 21:29:02 17 C 7.67 g/m*3 17 C 0 km/h
1792 22-06-2011 21:41:02 16.5 C 8 g/m*3 16.5 C 0 km/h
1793 22-06-2011 21:53:02 15.5 C 8.2 g/m*3 15.5 C 0 km/h
1794 22-06-2011 22:05:02 14.7 C 8.69 g/m*3 14.7 C 0 km/h
1795 22-06-2011 22:17:02 14.2 C 8.67 g/m*3 14.2 C 0 km/h
1796 22-06-2011 22:29:02 14.1 C 8.74 g/m*3 14.1 C 0 km/h
1797 22-06-2011 22:41:03 13.5 C 8.89 g/m*3 13.5 C 0 km/h
1798 22-06-2011 22:53:03 13.1 C 8.9 g/m*3 13.1 C 0 km/h
1799 22-06-2011 23:05:03 13 C 9.07 g/m*3 13 C 0 km/h
1800 22-06-2011 23:17:03 12.8 C 9.18 g/m*3 12.8 C 0 km/h
Sensor: Nr:Datum:Temp:Abs-Feuchte:Windchill:Wind:
Aussen-T/F 1801 22-06-2011 23:29:03 13 C 9.19 g/m*3 13 C 0 km/h
1802 22-06-2011 23:41:03 13 C 9.3 g/m*3 13 C 0 km/h
1803 22-06-2011 23:53:03 13.1 C 9.24 g/m*3 13.1 C 0 km/h
1804 23-06-2011 00:05:03 13.1 C 9.24 g/m*3 13.1 C 0 km/h
1805 23-06-2011 00:17:03 13 C 9.19 g/m*3 13 C 0 km/h
1806 23-06-2011 00:29:03 12.8 C 9.07 g/m*3 12.8 C 0 km/h
1807 23-06-2011 00:41:03 12.4 C 8.96 g/m*3 12.4 C 0 km/h
1808 23-06-2011 00:53:03 12.1 C 8.9 g/m*3 12.1 C 0 km/h
1809 23-06-2011 01:05:03 11.8 C 8.84 g/m*3 11.8 C 0 km/h
1810 23-06-2011 01:17:03 11.6 C 8.73 g/m*3 11.6 C 0 km/h
1811 23-06-2011 01:29:03 11.3 C 8.57 g/m*3 11.3 C 0 km/h
1812 23-06-2011 01:41:03 11.2 C 8.51 g/m*3 11.2 C 0 km/h
1813 23-06-2011 01:53:03 11.5 C 8.88 g/m*3 11.5 C 0 km/h
1814 23-06-2011 02:05:03 11.6 C 8.94 g/m*3 11.6 C 0 km/h
1815 23-06-2011 02:17:03 11.2 C 8.72 g/m*3 11.2 C 0 km/h
1816 23-06-2011 02:29:03 11.3 C 8.77 g/m*3 11.3 C 0 km/h
1817 23-06-2011 02:41:03 11.3 C 8.87 g/m*3 11.3 C 0 km/h
1818 23-06-2011 02:53:04 11 C 8.71 g/m*3 11 C 0 km/h
1819 23-06-2011 03:05:04 10.8 C 8.6 g/m*3 10.8 C 0 km/h
1820 23-06-2011 03:17:04 10.4 C 8.38 g/m*3 10.4 C 0 km/h
1821 23-06-2011 03:29:04 10.3 C 8.33 g/m*3 10.3 C 0 km/h
1822 23-06-2011 03:41:04 10.6 C 8.59 g/m*3 10.6 C 0 km/h
1823 23-06-2011 03:53:04 10.5 C 8.53 g/m*3 10.5 C 0 km/h
1824 23-06-2011 04:05:04 10.4 C 8.48 g/m*3 10.4 C 0 km/h
1825 23-06-2011 04:17:04 10.4 C 8.48 g/m*3 10.4 C 0 km/h
Sensor: Nr:Datum:Temp:Abs-Feuchte:Windchill:Wind:
Aussen-T/F 1826 23-06-2011 04:29:04 10.4 C 8.48 g/m*3 10.4 C 0 km/h
1827 23-06-2011 04:41:04 10.3 C 8.52 g/m*3 10.3 C 0 km/h
1828 23-06-2011 04:53:04 10.5 C 8.63 g/m*3 10.5 C 0 km/h
1829 23-06-2011 05:05:04 10.5 C 8.63 g/m*3 10.5 C 0 km/h
1830 23-06-2011 05:17:04 10.7 C 8.74 g/m*3 10.7 C 0 km/h
1831 23-06-2011 05:29:04 11 C 8.91 g/m*3 11 C 0 km/h
1832 23-06-2011 05:41:04 11.2 C 9.02 g/m*3 11.2 C 0 km/h
1833 23-06-2011 05:53:04 11.1 C 8.96 g/m*3 11.1 C 0 km/h
1834 23-06-2011 06:05:04 11.2 C 9.02 g/m*3 11.2 C 0 km/h
1835 23-06-2011 06:17:04 11.3 C 9.08 g/m*3 11.3 C 0 km/h
1836 23-06-2011 06:29:04 11.4 C 9.14 g/m*3 11.4 C 0 km/h
1837 23-06-2011 06:41:04 11.7 C 9.31 g/m*3 11.7 C 0 km/h
1838 23-06-2011 06:53:05 11.9 C 9.43 g/m*3 11.9 C 0 km/h
1839 23-06-2011 07:05:05 12.2 C 9.5 g/m*3 12.2 C 0 km/h
1840 23-06-2011 07:17:05 12.4 C 9.51 g/m*3 12.4 C 0 km/h
1841 23-06-2011 07:29:05 13.1 C 9.59 g/m*3 13.1 C 0 km/h
1842 23-06-2011 07:41:05 13 C 9.3 g/m*3 13 C 0 km/h
1843 23-06-2011 07:53:05 14 C 9.41 g/m*3 14 C 0 km/h
1844 23-06-2011 08:05:05 14.7 C 9.19 g/m*3 14.7 C 0 km/h
1845 23-06-2011 08:17:05 15.4 C 8.67 g/m*3 15.4 C 0 km/h
1846 23-06-2011 08:29:05 15.6 C 8.64 g/m*3 15.6 C 0 km/h
1847 23-06-2011 08:41:05 16.1 C 8.22 g/m*3 16.1 C 0 km/h
1848 23-06-2011 08:53:05 16.3 C 8.32 g/m*3 16.3 C 0 km/h
1849 23-06-2011 09:05:05 16.6 C 8.19 g/m*3 16.6 C 0 km/h
1850 23-06-2011 09:17:05 16.9 C 8.34 g/m*3 16.9 C 0 km/h
Sensor: Nr:Datum:Temp:Abs-Feuchte:Windchill:Wind:
Aussen-T/F 1851 23-06-2011 09:29:05 17.3 C 8.1 g/m*3 17.3 C 0 km/h
1852 23-06-2011 09:41:05 17.5 C 8.05 g/m*3 17.5 C 0 km/h
1853 23-06-2011 09:53:05 17.7 C 7.69 g/m*3 17.7 C 0 km/h
1854 23-06-2011 10:05:05 18 C 7.68 g/m*3 18 C 0 km/h
1855 23-06-2011 10:17:05 18.2 C 7.46 g/m*3 18.2 C 0 km/h
1856 23-06-2011 10:29:05 18.8 C 7.57 g/m*3 18.8 C 0 km/h
1857 23-06-2011 10:41:05 19.1 C 7.7 g/m*3 19.1 C 0 km/h
1858 23-06-2011 10:53:05 19 C 7.33 g/m*3 19 C 0 km/h
1859 23-06-2011 11:05:06 20 C 7.43 g/m*3 20 C 0 km/h
1860 23-06-2011 11:17:06 18.6 C 7.48 g/m*3 18.6 C 0 km/h
1861 23-06-2011 11:29:06 19 C 7.33 g/m*3 19 C 0 km/h
1862 23-06-2011 11:41:06 19.5 C 7.55 g/m*3 19.5 C 0 km/h
1863 23-06-2011 11:53:06 19 C 7.5 g/m*3 19 C 0 km/h
1864 23-06-2011 12:05:06 18.9 C 7.45 g/m*3 18.9 C 0 km/h
1865 23-06-2011 12:17:06 18.6 C 7.96 g/m*3 18.6 C 0 km/h
1866 23-06-2011 12:29:06 19.2 C 7.59 g/m*3 19.2 C 0 km/h
1867 23-06-2011 12:41:06 19.4 C 7.84 g/m*3 19.4 C 0 km/h
1868 23-06-2011 12:53:06 19.7 C 7.98 g/m*3 19.7 C 0 km/h
1869 23-06-2011 13:05:06 19.1 C 7.87 g/m*3 19.1 C 0 km/h
1870 23-06-2011 13:17:06 16.9 C 9.35 g/m*3 16.9 C 0 km/h
1871 23-06-2011 13:29:06 18.6 C 9.23 g/m*3 18.6 C 0 km/h
1872 23-06-2011 13:41:06 19.7 C 7.98 g/m*3 19.7 C 0 km/h
1873 23-06-2011 13:53:06 20.8 C 6.88 g/m*3 20.8 C 0 km/h
1874 23-06-2011 14:05:06 21.5 C 6.98 g/m*3 21.5 C 0 km/h
1875 23-06-2011 14:17:06 20.6 C 6.98 g/m*3 20.6 C 0 km/h
Sensor: Nr:Datum:Temp:Abs-Feuchte:Windchill:Wind:
Aussen-T/F 1876 23-06-2011 14:29:06 21.4 C 6.94 g/m*3 21.4 C 0 km/h
1877 23-06-2011 14:41:06 20 C 6.91 g/m*3 20 C 0 km/h
1878 23-06-2011 14:53:06 20.7 C 7.38 g/m*3 20.7 C 0 km/h
1879 23-06-2011 15:05:07 21.7 C 7.25 g/m*3 21.7 C 0 km/h
1880 23-06-2011 15:17:07 20.2 C 6.99 g/m*3 20.2 C 0 km/h
1881 23-06-2011 15:29:07 19.3 C 6.97 g/m*3 19.3 C 0 km/h
1882 23-06-2011 15:41:07 17.7 C 6.64 g/m*3 17.7 C 0 km/h
1883 23-06-2011 15:53:07 17.1 C 7.28 g/m*3 17.1 C 0 km/h
1884 23-06-2011 16:05:07 19.7 C 7.47 g/m*3 19.7 C 0 km/h
1885 23-06-2011 16:17:07 21.5 C 7.17 g/m*3 21.5 C 0 km/h
1886 23-06-2011 16:29:07 22.3 C 6.71 g/m*3 22.3 C 0 km/h
1887 23-06-2011 16:41:07 20.2 C 6.64 g/m*3 20.2 C 0 km/h
1888 23-06-2011 16:53:07 19.7 C 6.45 g/m*3 19.7 C 0 km/h
1889 23-06-2011 17:05:07 22 C 6.02 g/m*3 22 C 0 km/h
1890 23-06-2011 17:17:07 21.9 C 6.37 g/m*3 21.9 C 0 km/h
1891 23-06-2011 17:29:07 21.7 C 5.91 g/m*3 21.7 C 0 km/h
1892 23-06-2011 17:41:07 22.2 C 5.3 g/m*3 22.2 C 0 km/h
1893 23-06-2011 17:53:07 24.2 C 5.5 g/m*3 24.2 C 0 km/h
1894 23-06-2011 18:05:07 25.1 C 4.86 g/m*3 25.1 C 0 km/h
1895 23-06-2011 18:17:07 21.8 C 5.56 g/m*3 21.8 C 0 km/h
1896 23-06-2011 18:29:07 22.5 C 5.59 g/m*3 22.5 C 0 km/h
1897 23-06-2011 18:41:07 21.2 C 5.93 g/m*3 21.2 C 0 km/h
1898 23-06-2011 18:53:07 24.1 C 5.47 g/m*3 24.1 C 0 km/h
1899 23-06-2011 19:05:08 23.2 C 4.78 g/m*3 23.2 C 0 km/h
1900 23-06-2011 19:17:08 21.1 C 5.34 g/m*3 21.1 C 0 km/h
Sensor: Nr:Datum:Temp:Abs-Feuchte:Windchill:Wind:
Aussen-T/F 1901 23-06-2011 19:29:08 23.6 C 4.68 g/m*3 23.6 C 0 km/h
1902 23-06-2011 19:41:08 22.2 C 4.91 g/m*3 22.2 C 0 km/h
1903 23-06-2011 19:53:08 20.6 C 5.19 g/m*3 20.6 C 0 km/h
1904 23-06-2011 20:05:08 19.4 C 5.34 g/m*3 19.4 C 0 km/h
1905 23-06-2011 20:17:08 19 C 5.54 g/m*3 19 C 0 km/h
1906 23-06-2011 20:29:08 17.8 C 6.37 g/m*3 17.8 C 0 km/h
1907 23-06-2011 20:41:08 16.9 C 6.62 g/m*3 16.9 C 0 km/h
1908 23-06-2011 20:53:08 16.6 C 6.64 g/m*3 16.6 C 0 km/h
1909 23-06-2011 21:05:08 16 C 6.54 g/m*3 16 C 0 km/h
1910 23-06-2011 21:17:08 15.8 C 6.87 g/m*3 15.8 C 0 km/h
1911 23-06-2011 21:29:08 15.3 C 7.31 g/m*3 15.3 C 0 km/h
1912 23-06-2011 21:41:08 15 C 7.05 g/m*3 15 C 0 km/h
1913 23-06-2011 21:53:08 14.8 C 7.35 g/m*3 14.8 C 0 km/h
1914 23-06-2011 22:05:08 14.4 C 7.54 g/m*3 14.4 C 0 km/h
1915 23-06-2011 22:17:08 14.4 C 7.54 g/m*3 14.4 C 0 km/h
1916 23-06-2011 22:29:08 14.2 C 7.57 g/m*3 14.2 C 0 km/h
1917 23-06-2011 22:41:08 14.1 C 7.89 g/m*3 14.1 C 0 km/h
1918 23-06-2011 22:53:08 13.6 C 7.89 g/m*3 13.6 C 0 km/h
1919 23-06-2011 23:05:08 13.6 C 8 g/m*3 13.6 C 0 km/h
1920 23-06-2011 23:17:09 13.8 C 7.98 g/m*3 13.8 C 0 km/h
1921 23-06-2011 23:29:09 14.7 C 7.05 g/m*3 14.7 C 0 km/h
1922 23-06-2011 23:41:09 14.5 C 6.96 g/m*3 14.5 C 0 km/h
1923 23-06-2011 23:53:09 14.2 C 7.33 g/m*3 14.2 C 0 km/h
1924 24-06-2011 00:05:09 13.9 C 7.43 g/m*3 13.9 C 0 km/h
1925 24-06-2011 00:17:09 13.5 C 7.49 g/m*3 13.5 C 0 km/h
Sensor: Nr:Datum:Temp:Abs-Feuchte:Windchill:Wind:
Aussen-T/F 1926 24-06-2011 00:29:09 13.3 C 7.74 g/m*3 13.3 C 0 km/h
1927 24-06-2011 00:41:09 13 C 7.71 g/m*3 13 C 0 km/h
1928 24-06-2011 00:53:09 13 C 7.83 g/m*3 13 C 0 km/h
1929 24-06-2011 01:05:09 12.6 C 7.74 g/m*3 12.6 C 0 km/h
1930 24-06-2011 01:17:09 12.4 C 7.87 g/m*3 12.4 C 0 km/h
1931 24-06-2011 01:29:09 12.2 C 7.66 g/m*3 12.2 C 0 km/h
1932 24-06-2011 01:41:09 12 C 7.67 g/m*3 12 C 0 km/h
1933 24-06-2011 01:53:09 11.7 C 7.64 g/m*3 11.7 C 0 km/h
1934 24-06-2011 02:05:09 11.5 C 7.64 g/m*3 11.5 C 0 km/h
1935 24-06-2011 02:17:09 11.2 C 7.6 g/m*3 11.2 C 0 km/h
1936 24-06-2011 02:29:09 11.2 C 7.6 g/m*3 11.2 C 0 km/h
1937 24-06-2011 02:41:09 11.4 C 7.6 g/m*3 11.4 C 0 km/h
1938 24-06-2011 02:53:09 10.9 C 7.56 g/m*3 10.9 C 0 km/h
1939 24-06-2011 03:05:09 10.5 C 7.47 g/m*3 10.5 C 0 km/h
1940 24-06-2011 03:17:10 10.4 C 7.61 g/m*3 10.4 C 0 km/h
1941 24-06-2011 03:29:10 10 C 7.42 g/m*3 10 C 0 km/h
1942 24-06-2011 03:41:10 9.2 C 7.23 g/m*3 9.2 C 0 km/h
1943 24-06-2011 03:53:10 8.8 C 7.22 g/m*3 8.8 C 0 km/h
1944 24-06-2011 04:05:10 8.9 C 7.45 g/m*3 8.9 C 0 km/h
1945 24-06-2011 04:17:10 9.6 C 7.79 g/m*3 9.6 C 0 km/h
1946 24-06-2011 04:29:10 10.4 C 7.81 g/m*3 10.4 C 0 km/h
1947 24-06-2011 04:41:10 10.6 C 7.61 g/m*3 10.6 C 0 km/h
1948 24-06-2011 04:53:10 11 C 7.31 g/m*3 11 C 0 km/h
1949 24-06-2011 05:05:10 11.1 C 7.05 g/m*3 11.1 C 0 km/h
1950 24-06-2011 05:17:10 11.4 C 6.88 g/m*3 11.4 C 0 km/h
Sensor: Nr:Datum:Temp:Abs-Feuchte:Windchill:Wind:
Aussen-T/F 1951 24-06-2011 05:29:10 10.8 C 7.12 g/m*3 10.8 C 0 km/h
1952 24-06-2011 05:41:10 10.8 C 7.22 g/m*3 10.8 C 0 km/h
1953 24-06-2011 05:53:10 10.8 C 7.22 g/m*3 10.8 C 0 km/h
1954 24-06-2011 06:05:10 11 C 6.91 g/m*3 11 C 0 km/h
1955 24-06-2011 06:17:10 11.2 C 6.49 g/m*3 11.2 C 0 km/h
1956 24-06-2011 06:29:10 11.2 C 6.49 g/m*3 11.2 C 0 km/h
1957 24-06-2011 06:41:10 11.5 C 6.4 g/m*3 11.5 C 0 km/h
1958 24-06-2011 06:53:10 11.5 C 6.4 g/m*3 11.5 C 0 km/h
1959 24-06-2011 07:05:10 11.7 C 6.48 g/m*3 11.7 C 0 km/h
1960 24-06-2011 07:17:11 12 C 6.61 g/m*3 12 C 0 km/h
1961 24-06-2011 07:29:11 12 C 6.61 g/m*3 12 C 0 km/h
1962 24-06-2011 07:41:11 12 C 6.5 g/m*3 12 C 0 km/h
1963 24-06-2011 07:53:11 12 C 6.5 g/m*3 12 C 0 km/h
1964 24-06-2011 08:05:11 12 C 6.5 g/m*3 12 C 0 km/h
1965 24-06-2011 08:17:11 12.5 C 6.6 g/m*3 12.5 C 0 km/h
1966 24-06-2011 08:29:11 12.5 C 6.6 g/m*3 12.5 C 0 km/h
1967 24-06-2011 08:41:11 12.2 C 6.58 g/m*3 12.2 C 0 km/h
1968 24-06-2011 08:53:11 12.6 C 6.75 g/m*3 12.6 C 0 km/h
1969 24-06-2011 09:05:11 12.6 C 6.75 g/m*3 12.6 C 0 km/h
1970 24-06-2011 09:17:11 12.4 C 6.66 g/m*3 12.4 C 0 km/h
1971 24-06-2011 09:29:11 12.5 C 6.71 g/m*3 12.5 C 0 km/h
1972 24-06-2011 09:41:11 13.1 C 6.73 g/m*3 13.1 C 0 km/h
1973 24-06-2011 09:53:11 13.7 C 6.99 g/m*3 13.7 C 0 km/h
1974 24-06-2011 10:05:11 13.9 C 6.95 g/m*3 13.9 C 0 km/h
1975 24-06-2011 10:17:11 13.9 C 6.83 g/m*3 13.9 C 0 km/h
Sensor: Nr:Datum:Temp:Abs-Feuchte:Windchill:Wind:
Aussen-T/F 1976 24-06-2011 10:29:11 14.1 C 6.67 g/m*3 14.1 C 0 km/h
1977 24-06-2011 10:41:11 14.1 C 6.67 g/m*3 14.1 C 0 km/h
1978 24-06-2011 10:53:11 15.5 C 6.87 g/m*3 15.5 C 0 km/h
1979 24-06-2011 11:05:11 15.2 C 6.75 g/m*3 15.2 C 0 km/h
1980 24-06-2011 11:17:11 16.6 C 7.06 g/m*3 16.6 C 0 km/h
1981 24-06-2011 11:29:12 16.4 C 6.56 g/m*3 16.4 C 0 km/h
1982 24-06-2011 11:41:12 16.5 C 7.02 g/m*3 16.5 C 0 km/h
1983 24-06-2011 11:53:12 17 C 6.66 g/m*3 17 C 0 km/h
1984 24-06-2011 12:05:12 16.3 C 6.8 g/m*3 16.3 C 0 km/h
1985 24-06-2011 12:17:12 17.3 C 6.78 g/m*3 17.3 C 0 km/h
1986 24-06-2011 12:29:12 16.6 C 6.64 g/m*3 16.6 C 0 km/h
1987 24-06-2011 12:41:12 16.8 C 6.43 g/m*3 16.8 C 0 km/h
1988 24-06-2011 12:53:12 16.5 C 5.9 g/m*3 16.5 C 0 km/h
1989 24-06-2011 13:05:12 17 C 5.79 g/m*3 17 C 0 km/h
1990 24-06-2011 13:17:12 17.7 C 6.19 g/m*3 17.7 C 0 km/h
1991 24-06-2011 13:29:12 17.1 C 6.26 g/m*3 17.1 C 0 km/h
1992 24-06-2011 13:41:12 19.5 C 6.21 g/m*3 19.5 C 0 km/h
1993 24-06-2011 13:53:12 20 C 5.88 g/m*3 20 C 0 km/h
1994 24-06-2011 14:05:12 19 C 6.03 g/m*3 19 C 0 km/h
1995 24-06-2011 14:17:12 21.4 C 6.56 g/m*3 21.4 C 0 km/h
1996 24-06-2011 14:29:12 24.6 C 5.63 g/m*3 24.6 C 0 km/h
1997 24-06-2011 14:41:12 23.4 C 5.26 g/m*3 23.4 C 0 km/h
1998 24-06-2011 14:53:12 18.3 C 5.94 g/m*3 18.3 C 0 km/h
1999 24-06-2011 15:05:12 19.6 C 5.57 g/m*3 19.6 C 0 km/h
2000 24-06-2011 15:17:12 17.4 C 5.78 g/m*3 17.4 C 0 km/h
Sensor: Nr:Datum:Temp:Abs-Feuchte:Windchill:Wind:
Aussen-T/F 2001 24-06-2011 15:29:13 18 C 5.38 g/m*3 18 C 0 km/h
2002 24-06-2011 15:41:13 19.9 C 5.84 g/m*3 19.9 C 0 km/h
2003 24-06-2011 15:53:13 17.8 C 6.22 g/m*3 17.8 C 0 km/h
2004 24-06-2011 16:05:13 16.5 C 6.18 g/m*3 16.5 C 0 km/h
2005 24-06-2011 16:17:13 15.4 C 6.57 g/m*3 15.4 C 0 km/h
2006 24-06-2011 16:29:13 20.5 C 9.07 g/m*3 20.5 C 0 km/h
2007 24-06-2011 16:41:13 22.6 C 6.23 g/m*3 22.6 C 0 km/h
2008 24-06-2011 16:53:13 23.1 C 5.58 g/m*3 23.1 C 0 km/h
2009 24-06-2011 17:05:13 17.7 C 5.43 g/m*3 17.7 C 0 km/h
2010 24-06-2011 17:17:13 18.2 C 5.6 g/m*3 18.2 C 0 km/h
2011 24-06-2011 17:29:13 17.2 C 5.86 g/m*3 17.2 C 0 km/h
2012 24-06-2011 17:41:13 17.3 C 6.04 g/m*3 17.3 C 0 km/h
2013 24-06-2011 17:53:13 18 C 6.3 g/m*3 18 C 0 km/h
2014 24-06-2011 18:05:13 18.6 C 5.89 g/m*3 18.6 C 0 km/h
2015 24-06-2011 18:17:13 17.1 C 5.68 g/m*3 17.1 C 0 km/h
2016 24-06-2011 18:29:13 16.6 C 5.65 g/m*3 16.6 C 0 km/h
2017 24-06-2011 18:41:13 16.1 C 5.62 g/m*3 16.1 C 0 km/h
2018 24-06-2011 18:53:13 15.9 C 5.82 g/m*3 15.9 C 0 km/h
2019 24-06-2011 19:05:13 15.4 C 6.83 g/m*3 15.4 C 0 km/h
2020 24-06-2011 19:17:13 15.4 C 7.23 g/m*3 15.4 C 0 km/h
2021 24-06-2011 19:29:14 17.2 C 7.18 g/m*3 17.2 C 0 km/h
2022 24-06-2011 19:41:14 19.4 C 7.01 g/m*3 19.4 C 0 km/h
2023 24-06-2011 19:53:14 17 C 6.95 g/m*3 17 C 0 km/h
2024 24-06-2011 20:05:14 15.9 C 7.18 g/m*3 15.9 C 0 km/h
2025 24-06-2011 20:17:14 15.4 C 7.62 g/m*3 15.4 C 0 km/h
Sensor: Nr:Datum:Temp:Abs-Feuchte:Windchill:Wind:
Aussen-T/F 2026 24-06-2011 20:29:14 15 C 7.82 g/m*3 15 C 0 km/h
2027 24-06-2011 20:41:14 14.8 C 7.98 g/m*3 14.8 C 0 km/h
2028 24-06-2011 20:53:14 15.2 C 7.66 g/m*3 15.2 C 0 km/h
2029 24-06-2011 21:05:14 14.7 C 7.93 g/m*3 14.7 C 0 km/h
2030 24-06-2011 21:17:14 13.5 C 8.07 g/m*3 13.5 C 0 km/h
2031 24-06-2011 21:29:14 12.7 C 8.24 g/m*3 12.7 C 0 km/h
2032 24-06-2011 21:41:14 12.3 C 8.14 g/m*3 12.3 C 0 km/h
2033 24-06-2011 21:53:14 12.2 C 7.88 g/m*3 12.2 C 0 km/h
2034 24-06-2011 22:05:14 11.7 C 7.84 g/m*3 11.7 C 0 km/h
2035 24-06-2011 22:17:14 11.2 C 7.7 g/m*3 11.2 C 0 km/h
2036 24-06-2011 22:29:14 11 C 7.71 g/m*3 11 C 0 km/h
2037 24-06-2011 22:41:14 11.1 C 7.86 g/m*3 11.1 C 0 km/h
2038 24-06-2011 22:53:14 10.8 C 7.81 g/m*3 10.8 C 0 km/h
2039 24-06-2011 23:05:14 10.3 C 7.66 g/m*3 10.3 C 0 km/h
2040 24-06-2011 23:17:14 10.7 C 8.05 g/m*3 10.7 C 0 km/h
2041 24-06-2011 23:29:15 11 C 8.21 g/m*3 11 C 0 km/h
2042 24-06-2011 23:41:15 10.5 C 7.95 g/m*3 10.5 C 0 km/h
2043 24-06-2011 23:53:15 10.4 C 7.9 g/m*3 10.4 C 0 km/h
2044 25-06-2011 00:05:15 11 C 8.31 g/m*3 11 C 0 km/h
2045 25-06-2011 00:17:15 11.1 C 8.36 g/m*3 11.1 C 0 km/h
2046 25-06-2011 00:29:15 11.1 C 8.36 g/m*3 11.1 C 0 km/h
2047 25-06-2011 00:41:15 11.2 C 8.31 g/m*3 11.2 C 0 km/h
2048 25-06-2011 00:53:15 11.3 C 8.36 g/m*3 11.3 C 0 km/h
2049 25-06-2011 01:05:15 11.2 C 8.31 g/m*3 11.2 C 0 km/h
2050 25-06-2011 01:17:15 11 C 8.21 g/m*3 11 C 0 km/h
Sensor: Nr:Datum:Temp:Abs-Feuchte:Windchill:Wind:
Aussen-T/F 2051 25-06-2011 01:29:15 10.9 C 8.26 g/m*3 10.9 C 0 km/h
2052 25-06-2011 01:41:15 11 C 8.31 g/m*3 11 C 0 km/h
2053 25-06-2011 01:53:15 11 C 8.41 g/m*3 11 C 0 km/h
2054 25-06-2011 02:05:15 11 C 8.41 g/m*3 11 C 0 km/h
2055 25-06-2011 02:17:15 11 C 8.41 g/m*3 11 C 0 km/h
2056 25-06-2011 02:29:15 10.9 C 8.36 g/m*3 10.9 C 0 km/h
2057 25-06-2011 02:41:15 10.9 C 8.36 g/m*3 10.9 C 0 km/h
2058 25-06-2011 02:53:15 10.9 C 8.36 g/m*3 10.9 C 0 km/h
2059 25-06-2011 03:05:15 11.2 C 8.51 g/m*3 11.2 C 0 km/h
2060 25-06-2011 03:17:15 11.1 C 8.46 g/m*3 11.1 C 0 km/h
2061 25-06-2011 03:29:16 11.1 C 8.46 g/m*3 11.1 C 0 km/h
2062 25-06-2011 03:41:16 11.2 C 8.51 g/m*3 11.2 C 0 km/h
2063 25-06-2011 03:53:16 11.1 C 8.46 g/m*3 11.1 C 0 km/h
2064 25-06-2011 04:05:16 11.1 C 8.36 g/m*3 11.1 C 0 km/h
2065 25-06-2011 04:17:16 11 C 8.41 g/m*3 11 C 0 km/h
2066 25-06-2011 04:29:16 10.9 C 8.36 g/m*3 10.9 C 0 km/h
2067 25-06-2011 04:41:16 11 C 8.41 g/m*3 11 C 0 km/h
2068 25-06-2011 04:53:16 10.7 C 8.35 g/m*3 10.7 C 0 km/h
2069 25-06-2011 05:05:16 10.4 C 8.19 g/m*3 10.4 C 0 km/h
2070 25-06-2011 05:17:16 10.5 C 8.24 g/m*3 10.5 C 0 km/h
2071 25-06-2011 05:29:16 10.4 C 8.29 g/m*3 10.4 C 0 km/h
2072 25-06-2011 05:41:16 10.3 C 8.24 g/m*3 10.3 C 0 km/h
2073 25-06-2011 05:53:16 10.4 C 8.29 g/m*3 10.4 C 0 km/h
2074 25-06-2011 06:05:16 10.4 C 8.29 g/m*3 10.4 C 0 km/h
2075 25-06-2011 06:17:16 11 C 8.61 g/m*3 11 C 0 km/h
Sensor: Nr:Datum:Temp:Abs-Feuchte:Windchill:Wind:
Aussen-T/F 2076 25-06-2011 06:29:16 11.3 C 8.67 g/m*3 11.3 C 0 km/h
2077 25-06-2011 06:41:16 11.7 C 8.68 g/m*3 11.7 C 0 km/h
2078 25-06-2011 06:53:16 12 C 8.53 g/m*3 12 C 0 km/h
2079 25-06-2011 07:05:16 12.3 C 8.47 g/m*3 12.3 C 0 km/h
2080 25-06-2011 07:17:16 12.4 C 8.41 g/m*3 12.4 C 0 km/h
2081 25-06-2011 07:29:17 12.6 C 8.52 g/m*3 12.6 C 0 km/h
2082 25-06-2011 07:41:17 12.9 C 8.57 g/m*3 12.9 C 0 km/h
2083 25-06-2011 07:53:17 13.1 C 8.33 g/m*3 13.1 C 0 km/h
2084 25-06-2011 08:05:17 13.4 C 8.37 g/m*3 13.4 C 0 km/h
2085 25-06-2011 08:17:17 13.8 C 8.46 g/m*3 13.8 C 0 km/h
2086 25-06-2011 08:29:17 14.5 C 8.33 g/m*3 14.5 C 0 km/h
2087 25-06-2011 08:41:17 14.4 C 8.03 g/m*3 14.4 C 0 km/h
2088 25-06-2011 08:53:17 14.3 C 7.99 g/m*3 14.3 C 0 km/h
2089 25-06-2011 09:05:17 14.3 C 7.86 g/m*3 14.3 C 0 km/h
2090 25-06-2011 09:17:17 14.3 C 7.86 g/m*3 14.3 C 0 km/h
2091 25-06-2011 09:29:17 13.8 C 7.98 g/m*3 13.8 C 0 km/h
2092 25-06-2011 09:41:17 13.9 C 8.27 g/m*3 13.9 C 0 km/h
2093 25-06-2011 09:53:17 13.6 C 8.59 g/m*3 13.6 C 0 km/h
2094 25-06-2011 10:05:17 13.5 C 8.77 g/m*3 13.5 C 0 km/h
2095 25-06-2011 10:17:17 13.4 C 8.83 g/m*3 13.4 C 0 km/h
2096 25-06-2011 10:29:17 13.1 C 8.56 g/m*3 13.1 C 0 km/h
2097 25-06-2011 10:41:17 12.6 C 7.97 g/m*3 12.6 C 0 km/h
2098 25-06-2011 10:53:17 12.9 C 8.23 g/m*3 12.9 C 0 km/h
2099 25-06-2011 11:05:17 12.8 C 8.18 g/m*3 12.8 C 0 km/h
2100 25-06-2011 11:17:17 12.8 C 8.29 g/m*3 12.8 C 0 km/h
Sensor: Nr:Datum:Temp:Abs-Feuchte:Windchill:Wind:
Aussen-T/F 2101 25-06-2011 11:29:18 12.8 C 8.51 g/m*3 12.8 C 0 km/h
2102 25-06-2011 11:41:18 12.6 C 8.19 g/m*3 12.6 C 0 km/h
2103 25-06-2011 11:53:18 13 C 8.39 g/m*3 13 C 0 km/h
2104 25-06-2011 12:05:18 13.4 C 8.6 g/m*3 13.4 C 0 km/h
2105 25-06-2011 12:17:18 14.4 C 8.65 g/m*3 14.4 C 0 km/h
2106 25-06-2011 12:29:18 15.5 C 8.72 g/m*3 15.5 C 0 km/h
2107 25-06-2011 12:41:18 15.3 C 8.1 g/m*3 15.3 C 0 km/h
2108 25-06-2011 12:53:18 15.1 C 8.39 g/m*3 15.1 C 0 km/h
2109 25-06-2011 13:05:18 15.5 C 8.59 g/m*3 15.5 C 0 km/h
2110 25-06-2011 13:17:18 15 C 8.46 g/m*3 15 C 0 km/h
2111 25-06-2011 13:29:18 14.6 C 8.26 g/m*3 14.6 C 0 km/h
2112 25-06-2011 13:41:18 15.3 C 8.36 g/m*3 15.3 C 0 km/h
2113 25-06-2011 13:53:18 15.7 C 8.43 g/m*3 15.7 C 0 km/h
2114 25-06-2011 14:05:18 14.6 C 8.63 g/m*3 14.6 C 0 km/h
2115 25-06-2011 14:17:18 14.9 C 8.92 g/m*3 14.9 C 0 km/h
2116 25-06-2011 14:29:18 14.5 C 8.58 g/m*3 14.5 C 0 km/h
2117 25-06-2011 14:41:18 14.2 C 8.55 g/m*3 14.2 C 0 km/h
2118 25-06-2011 14:53:18 14.1 C 8.74 g/m*3 14.1 C 0 km/h
2119 25-06-2011 15:05:18 14 C 8.68 g/m*3 14 C 0 km/h
2120 25-06-2011 15:17:18 14.3 C 9.09 g/m*3 14.3 C 0 km/h
2121 25-06-2011 15:29:19 14.2 C 9.16 g/m*3 14.2 C 0 km/h
2122 25-06-2011 15:41:19 14.4 C 9.39 g/m*3 14.4 C 0 km/h
2123 25-06-2011 15:53:19 14.3 C 9.58 g/m*3 14.3 C 0 km/h
2124 25-06-2011 16:05:19 14.4 C 9.77 g/m*3 14.4 C 0 km/h
2125 25-06-2011 16:17:19 14.2 C 9.77 g/m*3 14.2 C 0 km/h
Sensor: Nr:Datum:Temp:Abs-Feuchte:Windchill:Wind:
Aussen-T/F 2126 25-06-2011 16:29:19 14.5 C 10.07 g/m*3 14.5 C 0 km/h
2127 25-06-2011 16:41:19 14.8 C 10.13 g/m*3 14.8 C 0 km/h
2128 25-06-2011 16:53:19 14.8 C 10.01 g/m*3 14.8 C 0 km/h
2129 25-06-2011 17:05:19 14.8 C 10.01 g/m*3 14.8 C 0 km/h
2130 25-06-2011 17:17:19 14.8 C 10.01 g/m*3 14.8 C 0 km/h
2131 25-06-2011 17:29:19 15.4 C 10.38 g/m*3 15.4 C 0 km/h
2132 25-06-2011 17:41:19 15.5 C 10.18 g/m*3 15.5 C 0 km/h
2133 25-06-2011 17:53:19 15.7 C 10.3 g/m*3 15.7 C 0 km/h
2134 25-06-2011 18:05:19 15.6 C 10.24 g/m*3 15.6 C 0 km/h
2135 25-06-2011 18:17:19 15.4 C 10.12 g/m*3 15.4 C 0 km/h
2136 25-06-2011 18:29:19 15.2 C 10.12 g/m*3 15.2 C 0 km/h
2137 25-06-2011 18:41:19 15.1 C 10.06 g/m*3 15.1 C 0 km/h
2138 25-06-2011 18:53:19 15 C 10.13 g/m*3 15 C 0 km/h
2139 25-06-2011 19:05:19 15 C 10.26 g/m*3 15 C 0 km/h
2140 25-06-2011 19:17:19 15 C 10.26 g/m*3 15 C 0 km/h
2141 25-06-2011 19:29:20 15 C 10.26 g/m*3 15 C 0 km/h
2142 25-06-2011 19:41:20 15 C 10.26 g/m*3 15 C 0 km/h
2143 25-06-2011 19:53:20 15 C 10.26 g/m*3 15 C 0 km/h
2144 25-06-2011 20:05:20 15 C 10.26 g/m*3 15 C 0 km/h
2145 25-06-2011 20:17:20 15 C 10.26 g/m*3 15 C 0 km/h
2146 25-06-2011 20:29:20 15 C 10.26 g/m*3 15 C 0 km/h
2147 25-06-2011 20:41:20 15 C 10.26 g/m*3 15 C 0 km/h
2148 25-06-2011 20:53:20 15 C 10.26 g/m*3 15 C 0 km/h
2149 25-06-2011 21:05:20 15 C 10.26 g/m*3 15 C 0 km/h
2150 25-06-2011 21:17:20 15 C 10.26 g/m*3 15 C 0 km/h
Sensor: Nr:Datum:Temp:Abs-Feuchte:Windchill:Wind:
Aussen-T/F 2151 25-06-2011 21:29:20 15 C 10.26 g/m*3 15 C 0 km/h
2152 25-06-2011 21:41:20 15 C 10.26 g/m*3 15 C 0 km/h
2153 25-06-2011 21:53:20 15 C 10.26 g/m*3 15 C 0 km/h
2154 25-06-2011 22:05:20 15 C 10.26 g/m*3 15 C 0 km/h
2155 25-06-2011 22:17:20 15 C 10.26 g/m*3 15 C 0 km/h
2156 25-06-2011 22:29:20 15 C 10.26 g/m*3 15 C 0 km/h
2157 25-06-2011 22:41:20 15 C 10.26 g/m*3 15 C 0 km/h
2158 25-06-2011 22:53:20 15 C 10.26 g/m*3 15 C 0 km/h
2159 25-06-2011 23:05:20 15 C 10.26 g/m*3 15 C 0 km/h
2160 25-06-2011 23:17:20 15 C 10.26 g/m*3 15 C 0 km/h
2161 25-06-2011 23:29:21 15 C 10.26 g/m*3 15 C 0 km/h
2162 25-06-2011 23:41:21 15 C 10.26 g/m*3 15 C 0 km/h
2163 25-06-2011 23:53:21 15 C 10.26 g/m*3 15 C 0 km/h
2164 26-06-2011 00:05:21 15 C 10.26 g/m*3 15 C 0 km/h
2165 26-06-2011 00:17:21 15 C 10.26 g/m*3 15 C 0 km/h
2166 26-06-2011 00:29:21 15 C 10.26 g/m*3 15 C 0 km/h
2167 26-06-2011 00:41:21 15 C 10.26 g/m*3 15 C 0 km/h
2168 26-06-2011 00:53:21 15 C 10.26 g/m*3 15 C 0 km/h
2169 26-06-2011 01:05:21 15 C 10.26 g/m*3 15 C 0 km/h
2170 26-06-2011 01:17:21 15 C 10.26 g/m*3 15 C 0 km/h
2171 26-06-2011 01:29:21 15 C 10.26 g/m*3 15 C 0 km/h
2172 26-06-2011 01:41:21 15 C 10.26 g/m*3 15 C 0 km/h
2173 26-06-2011 01:53:21 15 C 10.26 g/m*3 15 C 0 km/h
2174 26-06-2011 02:05:21 15 C 10.26 g/m*3 15 C 0 km/h
2175 26-06-2011 02:17:21 15 C 10.26 g/m*3 15 C 0 km/h
Sensor: Nr:Datum:Temp:Abs-Feuchte:Windchill:Wind:
Aussen-T/F 2176 26-06-2011 02:29:21 15 C 10.26 g/m*3 15 C 0 km/h
2177 26-06-2011 02:41:21 15 C 10.26 g/m*3 15 C 0 km/h
2178 26-06-2011 02:53:21 15 C 10.26 g/m*3 15 C 0 km/h
2179 26-06-2011 03:05:21 15 C 10.26 g/m*3 15 C 0 km/h
2180 26-06-2011 03:17:21 15 C 10.26 g/m*3 15 C 0 km/h
2181 26-06-2011 03:29:22 15 C 10.26 g/m*3 15 C 0 km/h
2182 26-06-2011 03:41:22 15 C 10.26 g/m*3 15 C 0 km/h
2183 26-06-2011 03:53:22 15 C 10.26 g/m*3 15 C 0 km/h
2184 26-06-2011 04:05:22 15 C 10.26 g/m*3 15 C 0 km/h
2185 26-06-2011 04:17:22 15 C 10.26 g/m*3 15 C 0 km/h
2186 26-06-2011 04:29:22 15 C 10.26 g/m*3 15 C 0 km/h
2187 26-06-2011 04:41:22 15 C 10.26 g/m*3 15 C 0 km/h
2188 26-06-2011 04:53:22 15 C 10.26 g/m*3 15 C 0 km/h
2189 26-06-2011 05:05:22 15 C 10.26 g/m*3 15 C 0 km/h
2190 26-06-2011 05:17:22 15 C 10.26 g/m*3 15 C 0 km/h
2191 26-06-2011 05:29:22 15 C 10.26 g/m*3 15 C 0 km/h
2192 26-06-2011 05:41:22 15 C 10.26 g/m*3 15 C 0 km/h
2193 26-06-2011 05:53:22 15 C 10.26 g/m*3 15 C 0 km/h
2194 26-06-2011 06:05:22 15 C 10.26 g/m*3 15 C 0 km/h
2195 26-06-2011 06:17:22 15 C 10.26 g/m*3 15 C 0 km/h
2196 26-06-2011 06:29:22 15 C 10.26 g/m*3 15 C 0 km/h
2197 26-06-2011 06:41:22 15 C 10.26 g/m*3 15 C 0 km/h
2198 26-06-2011 06:53:22 15 C 10.26 g/m*3 15 C 0 km/h
2199 26-06-2011 07:05:22 15 C 10.26 g/m*3 15 C 0 km/h
2200 26-06-2011 07:17:22 15 C 10.26 g/m*3 15 C 0 km/h
Sensor: Nr:Datum:Temp:Abs-Feuchte:Windchill:Wind:
Aussen-T/F 2201 26-06-2011 07:29:22 15 C 10.26 g/m*3 15 C 0 km/h
2202 26-06-2011 07:41:23 15 C 10.26 g/m*3 15 C 0 km/h
2203 26-06-2011 07:53:23 15 C 10.26 g/m*3 15 C 0 km/h
2204 26-06-2011 08:05:23 15 C 10.26 g/m*3 15 C 0 km/h
2205 26-06-2011 08:17:23 15 C 10.26 g/m*3 15 C 0 km/h
2206 26-06-2011 08:29:23 15 C 10.26 g/m*3 15 C 0 km/h
2207 26-06-2011 08:41:23 15 C 10.26 g/m*3 15 C 0 km/h
2208 26-06-2011 08:53:23 15 C 10.26 g/m*3 15 C 0 km/h
2209 26-06-2011 09:05:23 15 C 10.26 g/m*3 15 C 0 km/h
2210 26-06-2011 09:17:23 15 C 10.26 g/m*3 15 C 0 km/h
2211 26-06-2011 09:29:23 15 C 10.26 g/m*3 15 C 0 km/h
2212 26-06-2011 09:41:23 15 C 10.26 g/m*3 15 C 0 km/h
2213 26-06-2011 09:53:23 15 C 10.26 g/m*3 15 C 0 km/h
2214 26-06-2011 10:05:23 15 C 10.26 g/m*3 15 C 0 km/h
2215 26-06-2011 10:17:23 15 C 10.26 g/m*3 15 C 0 km/h
2216 26-06-2011 10:29:23 15 C 10.26 g/m*3 15 C 0 km/h
2217 26-06-2011 10:41:23 15 C 10.26 g/m*3 15 C 0 km/h
2218 26-06-2011 10:53:23 15 C 10.26 g/m*3 15 C 0 km/h
2219 26-06-2011 11:05:23 15 C 10.26 g/m*3 15 C 0 km/h
2220 26-06-2011 11:17:23 15 C 10.26 g/m*3 15 C 0 km/h
2221 26-06-2011 11:29:24 15 C 10.26 g/m*3 15 C 0 km/h
2222 26-06-2011 11:41:24 15 C 10.26 g/m*3 15 C 0 km/h
2223 26-06-2011 11:53:24 15 C 10.26 g/m*3 15 C 0 km/h
2224 26-06-2011 12:05:24 15 C 10.26 g/m*3 15 C 0 km/h
2225 26-06-2011 12:17:24 15 C 10.26 g/m*3 15 C 0 km/h
Sensor: Nr:Datum:Temp:Abs-Feuchte:Windchill:Wind:
Aussen-T/F 2226 26-06-2011 12:29:24 15 C 10.26 g/m*3 15 C 0 km/h
2227 26-06-2011 12:41:24 15 C 10.26 g/m*3 15 C 0 km/h
2228 26-06-2011 12:53:24 15 C 10.26 g/m*3 15 C 0 km/h
2229 26-06-2011 13:05:24 15 C 10.26 g/m*3 15 C 0 km/h
2230 26-06-2011 13:17:24 15 C 10.26 g/m*3 15 C 0 km/h
2231 26-06-2011 13:29:24 15 C 10.26 g/m*3 15 C 0 km/h
2232 26-06-2011 13:41:24 15 C 10.26 g/m*3 15 C 0 km/h
2233 26-06-2011 13:53:24 15 C 10.26 g/m*3 15 C 0 km/h
2234 26-06-2011 14:05:24 15 C 10.26 g/m*3 15 C 0 km/h
2235 26-06-2011 14:17:24 15 C 10.26 g/m*3 15 C 0 km/h
2236 26-06-2011 14:29:24 15 C 10.26 g/m*3 15 C 0 km/h
2237 26-06-2011 14:41:24 15 C 10.26 g/m*3 15 C 0 km/h
2238 26-06-2011 14:53:24 15 C 10.26 g/m*3 15 C 0 km/h
2239 26-06-2011 15:05:24 15 C 10.26 g/m*3 15 C 0 km/h
2240 26-06-2011 15:17:24 15 C 10.26 g/m*3 15 C 0 km/h
2241 26-06-2011 15:29:25 15 C 10.26 g/m*3 15 C 0 km/h
2242 26-06-2011 15:41:25 15 C 10.26 g/m*3 15 C 0 km/h
2243 26-06-2011 15:53:25 15 C 10.26 g/m*3 15 C 0 km/h
2244 26-06-2011 16:05:25 15 C 10.26 g/m*3 15 C 0 km/h
2245 26-06-2011 16:17:25 15 C 10.26 g/m*3 15 C 0 km/h
2246 26-06-2011 16:29:25 15 C 10.26 g/m*3 15 C 0 km/h
2247 26-06-2011 16:41:25 15 C 10.26 g/m*3 15 C 0 km/h
2248 26-06-2011 16:53:25 15 C 10.26 g/m*3 15 C 0 km/h
2249 26-06-2011 17:05:25 15 C 10.26 g/m*3 15 C 0 km/h
2250 26-06-2011 17:17:25 15 C 10.26 g/m*3 15 C 0 km/h
Sensor: Nr:Datum:Temp:Abs-Feuchte:Windchill:Wind:
Aussen-T/F 2251 26-06-2011 17:29:25 15 C 10.26 g/m*3 15 C 0 km/h
2252 26-06-2011 17:41:25 15 C 10.26 g/m*3 15 C 0 km/h
2253 26-06-2011 17:53:25 15 C 10.26 g/m*3 15 C 0 km/h
2254 26-06-2011 18:05:25 15 C 10.26 g/m*3 15 C 0 km/h
2255 26-06-2011 18:17:25 15 C 10.26 g/m*3 15 C 0 km/h
2256 26-06-2011 18:29:25 15 C 10.26 g/m*3 15 C 0 km/h
2257 26-06-2011 18:41:25 15 C 10.26 g/m*3 15 C 0 km/h
2258 26-06-2011 18:53:25 15 C 10.26 g/m*3 15 C 0 km/h
2259 26-06-2011 19:05:25 15 C 10.26 g/m*3 15 C 0 km/h
2260 26-06-2011 19:17:25 15 C 10.26 g/m*3 15 C 0 km/h
2261 26-06-2011 19:29:26 15 C 10.26 g/m*3 15 C 0 km/h
2262 26-06-2011 19:41:26 15 C 10.26 g/m*3 15 C 0 km/h
2263 26-06-2011 19:53:26 15 C 10.26 g/m*3 15 C 0 km/h
2264 26-06-2011 20:05:26 15 C 10.26 g/m*3 15 C 0 km/h
2265 26-06-2011 20:17:26 15 C 10.26 g/m*3 15 C 0 km/h
2266 26-06-2011 20:29:26 15 C 10.26 g/m*3 15 C 0 km/h
2267 26-06-2011 20:41:26 15 C 10.26 g/m*3 15 C 0 km/h
2268 26-06-2011 20:53:26 15 C 10.26 g/m*3 15 C 0 km/h
2269 26-06-2011 21:05:26 15 C 10.26 g/m*3 15 C 0 km/h
2270 26-06-2011 21:17:26 15 C 10.26 g/m*3 15 C 0 km/h
2271 26-06-2011 21:29:26 15 C 10.26 g/m*3 15 C 0 km/h
2272 26-06-2011 21:41:26 15 C 10.26 g/m*3 15 C 0 km/h
2273 26-06-2011 21:53:26 15 C 10.26 g/m*3 15 C 0 km/h
2274 26-06-2011 22:05:26 15 C 10.26 g/m*3 15 C 0 km/h
2275 26-06-2011 22:17:26 15 C 10.26 g/m*3 15 C 0 km/h
Sensor: Nr:Datum:Temp:Abs-Feuchte:Windchill:Wind:
Aussen-T/F 2276 26-06-2011 22:29:26 15 C 10.26 g/m*3 15 C 0 km/h
2277 26-06-2011 22:41:26 15 C 10.26 g/m*3 15 C 0 km/h
2278 26-06-2011 22:53:26 15 C 10.26 g/m*3 15 C 0 km/h
2279 26-06-2011 23:05:26 15 C 10.26 g/m*3 15 C 0 km/h
2280 26-06-2011 23:17:26 15 C 10.26 g/m*3 15 C 0 km/h
2281 26-06-2011 23:29:26 15 C 10.26 g/m*3 15 C 0 km/h
2282 26-06-2011 23:41:27 15 C 10.26 g/m*3 15 C 0 km/h
2283 26-06-2011 23:53:27 15 C 10.26 g/m*3 15 C 0 km/h
2284 27-06-2011 00:05:27 15 C 10.26 g/m*3 15 C 0 km/h
2285 27-06-2011 00:17:27 15 C 10.26 g/m*3 15 C 0 km/h
2286 27-06-2011 00:29:27 15 C 10.26 g/m*3 15 C 0 km/h
2287 27-06-2011 00:41:27 15 C 10.26 g/m*3 15 C 0 km/h
2288 27-06-2011 00:53:27 15 C 10.26 g/m*3 15 C 0 km/h
2289 27-06-2011 01:05:27 15 C 10.26 g/m*3 15 C 0 km/h
2290 27-06-2011 01:17:27 15 C 10.26 g/m*3 15 C 0 km/h
2291 27-06-2011 01:29:27 15 C 10.26 g/m*3 15 C 0 km/h
2292 27-06-2011 01:41:27 15 C 10.26 g/m*3 15 C 0 km/h
2293 27-06-2011 01:53:27 15 C 10.26 g/m*3 15 C 0 km/h
2294 27-06-2011 02:05:27 15 C 10.26 g/m*3 15 C 0 km/h
2295 27-06-2011 02:17:27 15 C 10.26 g/m*3 15 C 0 km/h
2296 27-06-2011 02:29:27 15 C 10.26 g/m*3 15 C 0 km/h
2297 27-06-2011 02:41:27 15 C 10.26 g/m*3 15 C 0 km/h
2298 27-06-2011 02:53:27 15 C 10.26 g/m*3 15 C 0 km/h
2299 27-06-2011 03:05:27 15 C 10.26 g/m*3 15 C 0 km/h
2300 27-06-2011 03:17:27 15 C 10.26 g/m*3 15 C 0 km/h
Sensor: Nr:Datum:Temp:Abs-Feuchte:Windchill:Wind:
Aussen-T/F 2301 27-06-2011 03:29:27 15 C 10.26 g/m*3 15 C 0 km/h
2302 27-06-2011 03:41:28 15 C 10.26 g/m*3 15 C 0 km/h
2303 27-06-2011 03:53:28 15 C 10.26 g/m*3 15 C 0 km/h
2304 27-06-2011 04:05:28 15 C 10.26 g/m*3 15 C 0 km/h
2305 27-06-2011 04:17:28 15 C 10.26 g/m*3 15 C 0 km/h
2306 27-06-2011 04:29:28 15 C 10.26 g/m*3 15 C 0 km/h
2307 27-06-2011 04:41:28 15 C 10.26 g/m*3 15 C 0 km/h
2308 27-06-2011 04:53:28 15 C 10.26 g/m*3 15 C 0 km/h
2309 27-06-2011 05:05:28 15 C 10.26 g/m*3 15 C 0 km/h
2310 27-06-2011 05:17:28 15 C 10.26 g/m*3 15 C 0 km/h
2311 27-06-2011 05:29:28 15 C 10.26 g/m*3 15 C 0 km/h
2312 27-06-2011 05:41:28 15 C 10.26 g/m*3 15 C 0 km/h
2313 27-06-2011 05:53:28 15 C 10.26 g/m*3 15 C 0 km/h
2314 27-06-2011 06:05:28 15 C 10.26 g/m*3 15 C 0 km/h
2315 27-06-2011 06:17:28 15 C 10.26 g/m*3 15 C 0 km/h
2316 27-06-2011 06:29:28 15 C 10.26 g/m*3 15 C 0 km/h
2317 27-06-2011 06:41:28 15 C 10.26 g/m*3 15 C 0 km/h
2318 27-06-2011 06:53:28 15 C 10.26 g/m*3 15 C 0 km/h
2319 27-06-2011 07:05:28 15 C 10.26 g/m*3 15 C 0 km/h
2320 27-06-2011 07:17:28 15 C 10.26 g/m*3 15 C 0 km/h
2321 27-06-2011 07:29:28 15 C 10.26 g/m*3 15 C 0 km/h
2322 27-06-2011 07:41:29 15 C 10.26 g/m*3 15 C 0 km/h
2323 27-06-2011 07:53:29 15 C 10.26 g/m*3 15 C 0 km/h
2324 27-06-2011 08:05:29 15 C 10.26 g/m*3 15 C 0 km/h
2325 27-06-2011 08:17:29 15 C 10.26 g/m*3 15 C 0 km/h
Sensor: Nr:Datum:Temp:Abs-Feuchte:Windchill:Wind:
Aussen-T/F 2326 27-06-2011 08:29:29 15 C 10.26 g/m*3 15 C 0 km/h
2327 27-06-2011 08:41:29 15 C 10.26 g/m*3 15 C 0 km/h
2328 27-06-2011 08:53:29 15 C 10.26 g/m*3 15 C 0 km/h
2329 27-06-2011 09:05:29 15 C 10.26 g/m*3 15 C 0 km/h
2330 27-06-2011 09:17:29 15 C 10.26 g/m*3 15 C 0 km/h
2331 27-06-2011 09:29:29 15 C 10.26 g/m*3 15 C 0 km/h
2332 27-06-2011 09:41:29 15 C 10.26 g/m*3 15 C 0 km/h
2333 27-06-2011 09:53:29 15 C 10.26 g/m*3 15 C 0 km/h
2334 27-06-2011 10:05:29 15 C 10.26 g/m*3 15 C 0 km/h
2335 27-06-2011 10:17:29 15 C 10.26 g/m*3 15 C 0 km/h
2336 27-06-2011 10:29:29 15 C 10.26 g/m*3 15 C 0 km/h
2337 27-06-2011 10:41:29 15 C 10.26 g/m*3 15 C 0 km/h
2338 27-06-2011 10:53:29 15 C 10.26 g/m*3 15 C 0 km/h
2339 27-06-2011 11:05:29 15 C 10.26 g/m*3 15 C 0 km/h
2340 27-06-2011 11:17:29 15 C 10.26 g/m*3 15 C 0 km/h
2341 27-06-2011 11:29:29 15 C 10.26 g/m*3 15 C 0 km/h
2342 27-06-2011 11:41:30 15 C 10.26 g/m*3 15 C 0 km/h
2343 27-06-2011 11:53:30 15 C 10.26 g/m*3 15 C 0 km/h
2344 27-06-2011 12:05:30 15 C 10.26 g/m*3 15 C 0 km/h
2345 27-06-2011 12:17:30 15 C 10.26 g/m*3 15 C 0 km/h
2346 27-06-2011 12:29:30 15 C 10.26 g/m*3 15 C 0 km/h
2347 27-06-2011 12:41:30 15 C 10.26 g/m*3 15 C 0 km/h
2348 27-06-2011 12:53:30 15 C 10.26 g/m*3 15 C 0 km/h
2349 27-06-2011 13:05:30 15 C 10.26 g/m*3 15 C 0 km/h
2350 27-06-2011 13:17:30 15 C 10.26 g/m*3 15 C 0 km/h
Sensor: Nr:Datum:Temp:Abs-Feuchte:Windchill:Wind:
Aussen-T/F 2351 27-06-2011 13:29:30 15 C 10.26 g/m*3 15 C 0 km/h
2352 27-06-2011 13:41:30 15 C 10.26 g/m*3 15 C 0 km/h
2353 27-06-2011 13:53:30 15 C 10.26 g/m*3 15 C 0 km/h
2354 27-06-2011 14:05:30 15 C 10.26 g/m*3 15 C 0 km/h
2355 27-06-2011 14:17:30 15 C 10.26 g/m*3 15 C 0 km/h
2356 27-06-2011 14:29:30 15 C 10.26 g/m*3 15 C 0 km/h
2357 27-06-2011 14:41:30 15 C 10.26 g/m*3 15 C 0 km/h
2358 27-06-2011 14:53:30 15 C 10.26 g/m*3 15 C 0 km/h
2359 27-06-2011 15:05:30 15 C 10.26 g/m*3 15 C 0 km/h
2360 27-06-2011 15:17:30 15 C 10.26 g/m*3 15 C 0 km/h
2361 27-06-2011 15:29:30 15 C 10.26 g/m*3 15 C 0 km/h
2362 27-06-2011 15:41:31 15 C 10.26 g/m*3 15 C 0 km/h
2363 27-06-2011 15:53:31 15 C 10.26 g/m*3 15 C 0 km/h
2364 27-06-2011 16:05:31 15 C 10.26 g/m*3 15 C 0 km/h
2365 27-06-2011 16:17:31 15 C 10.26 g/m*3 15 C 0 km/h
2366 27-06-2011 16:29:31 15 C 10.26 g/m*3 15 C 0 km/h
2367 27-06-2011 16:41:31 15 C 10.26 g/m*3 15 C 0 km/h
2368 27-06-2011 16:53:31 15 C 10.26 g/m*3 15 C 0 km/h
2369 27-06-2011 17:05:31 15 C 10.26 g/m*3 15 C 0 km/h
2370 27-06-2011 17:17:31 15 C 10.26 g/m*3 15 C 0 km/h
2371 27-06-2011 17:29:31 15 C 10.26 g/m*3 15 C 0 km/h
2372 27-06-2011 17:41:31 15 C 10.26 g/m*3 15 C 0 km/h
2373 27-06-2011 17:53:31 15 C 10.26 g/m*3 15 C 0 km/h
2374 27-06-2011 18:05:31 15 C 10.26 g/m*3 15 C 0 km/h
2375 27-06-2011 18:17:31 17 C 3.33 g/m*3 17 C 0 km/h
Sensor: Nr:Datum:Temp:Abs-Feuchte:Windchill:Wind:
Aussen-T/F 2376 27-06-2011 18:29:31 31.3 C 11.06 g/m*3 31.3 C 0 km/h
2377 27-06-2011 18:41:31 31.6 C 11.24 g/m*3 31.6 C 0 km/h
2378 27-06-2011 18:53:31 32.5 C 8.67 g/m*3 32.5 C 0 km/h
2379 27-06-2011 19:05:31 32.4 C 10.35 g/m*3 32.4 C 0 km/h
2380 27-06-2011 19:17:31 32.3 C 9.95 g/m*3 32.3 C 0 km/h
2381 27-06-2011 19:29:31 33 C 9.97 g/m*3 33 C 0 km/h
2382 27-06-2011 19:41:32 32.5 C 10.05 g/m*3 32.5 C 0 km/h
2383 27-06-2011 19:53:32 30.4 C 11.77 g/m*3 30.4 C 0 km/h
2384 27-06-2011 20:05:32 29.3 C 12.55 g/m*3 29.3 C 0 km/h
2385 27-06-2011 20:17:32 28.2 C 12.1 g/m*3 28.2 C 0 km/h
2386 27-06-2011 20:29:32 27.3 C 12.56 g/m*3 27.3 C 0 km/h
2387 27-06-2011 20:41:32 26.8 C 12.47 g/m*3 26.8 C 0 km/h
2388 27-06-2011 20:53:32 25.9 C 12.35 g/m*3 25.9 C 0 km/h
2389 27-06-2011 21:05:32 25.4 C 12.01 g/m*3 25.4 C 0 km/h
2390 27-06-2011 21:17:32 24.8 C 12.29 g/m*3 24.8 C 0 km/h
2391 27-06-2011 21:29:32 24.3 C 12.17 g/m*3 24.3 C 0 km/h
2392 27-06-2011 21:41:32 23.9 C 12.55 g/m*3 23.9 C 0 km/h
2393 27-06-2011 21:53:32 23.5 C 12.48 g/m*3 23.5 C 0 km/h
2394 27-06-2011 22:05:32 23.1 C 12.61 g/m*3 23.1 C 0 km/h
2395 27-06-2011 22:17:32 22.9 C 12.88 g/m*3 22.9 C 0 km/h
2396 27-06-2011 22:29:32 22.6 C 12.86 g/m*3 22.6 C 0 km/h
2397 27-06-2011 22:41:32 22.5 C 12.78 g/m*3 22.5 C 0 km/h
2398 27-06-2011 22:53:32 22.1 C 12.49 g/m*3 22.1 C 0 km/h
2399 27-06-2011 23:05:32 21.9 C 12.54 g/m*3 21.9 C 0 km/h
2400 27-06-2011 23:17:32 21.8 C 12.47 g/m*3 21.8 C 0 km/h
Sensor: Nr:Datum:Temp:Abs-Feuchte:Windchill:Wind:
Aussen-T/F 2401 27-06-2011 23:29:32 21.6 C 12.33 g/m*3 21.6 C 0 km/h
2402 27-06-2011 23:41:33 21.5 C 12.07 g/m*3 21.5 C 0 km/h
2403 27-06-2011 23:53:33 21.4 C 12 g/m*3 21.4 C 0 km/h
2404 28-06-2011 00:05:33 21.3 C 11.93 g/m*3 21.3 C 0 km/h
2405 28-06-2011 00:17:33 21 C 11.72 g/m*3 21 C 0 km/h
2406 28-06-2011 00:29:33 20.7 C 11.7 g/m*3 20.7 C 0 km/h
2407 28-06-2011 00:41:33 20.6 C 11.99 g/m*3 20.6 C 0 km/h
2408 28-06-2011 00:53:33 20.4 C 11.85 g/m*3 20.4 C 0 km/h
2409 28-06-2011 01:05:33 20.5 C 11.92 g/m*3 20.5 C 0 km/h
2410 28-06-2011 01:17:33 20.3 C 11.61 g/m*3 20.3 C 0 km/h
2411 28-06-2011 01:29:33 20.1 C 11.47 g/m*3 20.1 C 0 km/h
2412 28-06-2011 01:41:33 19.6 C 11.82 g/m*3 19.6 C 0 km/h
2413 28-06-2011 01:53:33 19.4 C 11.85 g/m*3 19.4 C 0 km/h
2414 28-06-2011 02:05:33 19.5 C 11.92 g/m*3 19.5 C 0 km/h
2415 28-06-2011 02:17:33 18.8 C 11.76 g/m*3 18.8 C 0 km/h
2416 28-06-2011 02:29:33 18.6 C 11.78 g/m*3 18.6 C 0 km/h
2417 28-06-2011 02:41:33 18.5 C 11.87 g/m*3 18.5 C 0 km/h
2418 28-06-2011 02:53:33 18.2 C 11.5 g/m*3 18.2 C 0 km/h
2419 28-06-2011 03:05:33 18.1 C 11.43 g/m*3 18.1 C 0 km/h
2420 28-06-2011 03:17:33 17.8 C 11.54 g/m*3 17.8 C 0 km/h
2421 28-06-2011 03:29:33 17.9 C 11.6 g/m*3 17.9 C 0 km/h
2422 28-06-2011 03:41:33 17.7 C 11.62 g/m*3 17.7 C 0 km/h
2423 28-06-2011 03:53:34 17.6 C 11.55 g/m*3 17.6 C 0 km/h
2424 28-06-2011 04:05:34 17.2 C 11.28 g/m*3 17.2 C 0 km/h
2425 28-06-2011 04:17:34 17.1 C 11.35 g/m*3 17.1 C 0 km/h
Sensor: Nr:Datum:Temp:Abs-Feuchte:Windchill:Wind:
Aussen-T/F 2426 28-06-2011 04:29:34 16.9 C 11.36 g/m*3 16.9 C 0 km/h
2427 28-06-2011 04:41:34 16.8 C 11.58 g/m*3 16.8 C 0 km/h
2428 28-06-2011 04:53:34 16.7 C 11.51 g/m*3 16.7 C 0 km/h
2429 28-06-2011 05:05:34 16.4 C 11.31 g/m*3 16.4 C 0 km/h
2430 28-06-2011 05:17:34 16.3 C 11.24 g/m*3 16.3 C 0 km/h
2431 28-06-2011 05:29:34 16.2 C 11.31 g/m*3 16.2 C 0 km/h
2432 28-06-2011 05:41:34 16.2 C 11.31 g/m*3 16.2 C 0 km/h
2433 28-06-2011 05:53:34 16.2 C 11.31 g/m*3 16.2 C 0 km/h
2434 28-06-2011 06:05:34 16.3 C 11.52 g/m*3 16.3 C 0 km/h
2435 28-06-2011 06:17:34 16.6 C 11.72 g/m*3 16.6 C 0 km/h
2436 28-06-2011 06:29:34 17.5 C 12.23 g/m*3 17.5 C 0 km/h
2437 28-06-2011 06:41:34 17.5 C 12.08 g/m*3 17.5 C 0 km/h
2438 28-06-2011 06:53:34 17.5 C 12.08 g/m*3 17.5 C 0 km/h
2439 28-06-2011 07:05:34 17.7 C 12.22 g/m*3 17.7 C 0 km/h
2440 28-06-2011 07:17:34 17.8 C 12.29 g/m*3 17.8 C 0 km/h
2441 28-06-2011 07:29:34 17.9 C 12.37 g/m*3 17.9 C 0 km/h
2442 28-06-2011 07:41:34 18.2 C 12.43 g/m*3 18.2 C 0 km/h
2443 28-06-2011 07:53:34 18.5 C 12.5 g/m*3 18.5 C 0 km/h
2444 28-06-2011 08:05:35 18.8 C 12.72 g/m*3 18.8 C 0 km/h
2445 28-06-2011 08:17:35 19.5 C 12.75 g/m*3 19.5 C 0 km/h
2446 28-06-2011 08:29:35 20.1 C 12.52 g/m*3 20.1 C 0 km/h
2447 28-06-2011 08:41:35 20.5 C 12.46 g/m*3 20.5 C 0 km/h
2448 28-06-2011 08:53:35 20.9 C 12.57 g/m*3 20.9 C 0 km/h
2449 28-06-2011 09:05:35 21.3 C 12.49 g/m*3 21.3 C 0 km/h
2450 28-06-2011 09:17:35 22 C 12.23 g/m*3 22 C 0 km/h
Sensor: Nr:Datum:Temp:Abs-Feuchte:Windchill:Wind:
Aussen-T/F 2451 28-06-2011 09:29:35 22.3 C 12.24 g/m*3 22.3 C 0 km/h
2452 28-06-2011 09:41:35 22.8 C 12.8 g/m*3 22.8 C 0 km/h
2453 28-06-2011 09:53:35 23.3 C 12.75 g/m*3 23.3 C 0 km/h
2454 28-06-2011 10:05:35 24 C 12.62 g/m*3 24 C 0 km/h
2455 28-06-2011 10:17:35 24.7 C 12.9 g/m*3 24.7 C 0 km/h
2456 28-06-2011 10:29:35 25.4 C 12.24 g/m*3 25.4 C 0 km/h
2457 28-06-2011 10:41:35 26.1 C 12.98 g/m*3 26.1 C 0 km/h
2458 28-06-2011 10:53:35 27.4 C 11.84 g/m*3 27.4 C 0 km/h
2459 28-06-2011 11:05:35 29.3 C 11.68 g/m*3 29.3 C 0 km/h
2460 28-06-2011 11:17:35 30 C 10.61 g/m*3 30 C 0 km/h
2461 28-06-2011 11:29:35 29 C 11.78 g/m*3 29 C 0 km/h
2462 28-06-2011 11:41:35 29.2 C 10.74 g/m*3 29.2 C 0 km/h
2463 28-06-2011 11:53:35 28.9 C 10.28 g/m*3 28.9 C 0 km/h
2464 28-06-2011 12:05:36 29.3 C 10.22 g/m*3 29.3 C 0 km/h
2465 28-06-2011 12:17:36 29.3 C 10.22 g/m*3 29.3 C 0 km/h
2466 28-06-2011 12:29:36 30 C 10.01 g/m*3 30 C 0 km/h
2467 28-06-2011 12:41:36 30.2 C 10.42 g/m*3 30.2 C 0 km/h
2468 28-06-2011 12:53:36 30.6 C 10.34 g/m*3 30.6 C 0 km/h
2469 28-06-2011 13:05:36 30.8 C 10.13 g/m*3 30.8 C 0 km/h
2470 28-06-2011 13:17:36 31 C 9.6 g/m*3 31 C 0 km/h
2471 28-06-2011 13:29:36 32.1 C 8.82 g/m*3 32.1 C 0 km/h
2472 28-06-2011 13:41:36 34.4 C 7.66 g/m*3 34.4 C 0 km/h
2473 28-06-2011 13:53:36 34.9 C 7.87 g/m*3 34.9 C 0 km/h
2474 28-06-2011 14:05:36 34.8 C 7.82 g/m*3 34.8 C 0 km/h
2475 28-06-2011 14:17:36 34.4 C 7.66 g/m*3 34.4 C 0 km/h
Sensor: Nr:Datum:Temp:Abs-Feuchte:Windchill:Wind:
Aussen-T/F 2476 28-06-2011 14:29:36 34.4 C 7.66 g/m*3 34.4 C 0 km/h
2477 28-06-2011 14:41:36 34.5 C 7.7 g/m*3 34.5 C 0 km/h
2478 28-06-2011 14:53:36 34.8 C 7.82 g/m*3 34.8 C 0 km/h
2479 28-06-2011 15:05:36 35.2 C 7.99 g/m*3 35.2 C 0 km/h
2480 28-06-2011 15:17:36 34.3 C 7.62 g/m*3 34.3 C 0 km/h
2481 28-06-2011 15:29:36 35.1 C 7.95 g/m*3 35.1 C 0 km/h
2482 28-06-2011 15:41:36 33.8 C 7.43 g/m*3 33.8 C 0 km/h
2483 28-06-2011 15:53:36 35.1 C 7.95 g/m*3 35.1 C 0 km/h
2484 28-06-2011 16:05:36 35.5 C 8.11 g/m*3 35.5 C 0 km/h
2485 28-06-2011 16:17:37 35 C 7.91 g/m*3 35 C 0 km/h
2486 28-06-2011 16:29:37 35.2 C 7.99 g/m*3 35.2 C 0 km/h
2487 28-06-2011 16:41:37 35.5 C 8.11 g/m*3 35.5 C 0 km/h
2488 28-06-2011 16:53:37 35.3 C 8.03 g/m*3 35.3 C 0 km/h
2489 28-06-2011 17:05:37 35.3 C 8.03 g/m*3 35.3 C 0 km/h
2490 28-06-2011 17:17:37 35.7 C 8.2 g/m*3 35.7 C 0 km/h
2491 28-06-2011 17:29:37 34.8 C 7.82 g/m*3 34.8 C 0 km/h
2492 28-06-2011 17:41:37 34.4 C 7.66 g/m*3 34.4 C 0 km/h
2493 28-06-2011 17:53:37 34.6 C 7.74 g/m*3 34.6 C 0 km/h
2494 28-06-2011 18:05:37 34.1 C 7.54 g/m*3 34.1 C 0 km/h
2495 28-06-2011 18:17:37 33.9 C 7.46 g/m*3 33.9 C 0 km/h
2496 28-06-2011 18:29:37 33.7 C 7.39 g/m*3 33.7 C 0 km/h
2497 28-06-2011 18:41:37 34.6 C 7.74 g/m*3 34.6 C 0 km/h
2498 28-06-2011 18:53:37 34.3 C 7.62 g/m*3 34.3 C 0 km/h
2499 28-06-2011 19:05:37 33.8 C 7.43 g/m*3 33.8 C 0 km/h
2500 28-06-2011 19:17:37 34.1 C 7.54 g/m*3 34.1 C 0 km/h
Sensor: Nr:Datum:Temp:Abs-Feuchte:Windchill:Wind:
Aussen-T/F 2501 28-06-2011 19:29:37 33.3 C 7.23 g/m*3 33.3 C 0 km/h
2502 28-06-2011 19:41:37 33.4 C 7.27 g/m*3 33.4 C 0 km/h
2503 28-06-2011 19:53:37 31.3 C 9.11 g/m*3 31.3 C 0 km/h
2504 28-06-2011 20:05:37 29.9 C 9.95 g/m*3 29.9 C 0 km/h
2505 28-06-2011 20:17:38 28.6 C 9.84 g/m*3 28.6 C 0 km/h
2506 28-06-2011 20:29:38 27 C 9.01 g/m*3 27 C 0 km/h
2507 28-06-2011 20:41:38 26 C 8.76 g/m*3 26 C 0 km/h
2508 28-06-2011 20:53:38 25.7 C 8.38 g/m*3 25.7 C 0 km/h
2509 28-06-2011 21:05:38 25.4 C 8.48 g/m*3 25.4 C 0 km/h
2510 28-06-2011 21:17:38 25.2 C 8.15 g/m*3 25.2 C 0 km/h
2511 28-06-2011 21:29:38 24.8 C 8.65 g/m*3 24.8 C 0 km/h
2512 28-06-2011 21:41:38 24.5 C 8.5 g/m*3 24.5 C 0 km/h
2513 28-06-2011 21:53:38 23.7 C 9.63 g/m*3 23.7 C 0 km/h
2514 28-06-2011 22:05:02 23.1 C 9.3 g/m*3 23.1 C 0 km/h
2515 28-06-2011 22:17:02 22.6 C 9.64 g/m*3 22.6 C 0 km/h
2516 28-06-2011 22:29:02 22.3 C 9.87 g/m*3 22.3 C 0 km/h
2517 28-06-2011 22:41:02 22 C 9.9 g/m*3 22 C 0 km/h
2518 28-06-2011 22:53:02 21.6 C 9.67 g/m*3 21.6 C 0 km/h
2519 28-06-2011 23:05:01 21.5 C 9.81 g/m*3 21.5 C 0 km/h
2520 28-06-2011 23:17:02 21.3 C 9.69 g/m*3 21.3 C 0 km/h
2521 28-06-2011 23:29:02 21.5 C 9.81 g/m*3 21.5 C 0 km/h
2522 28-06-2011 23:41:01 21.3 C 9.69 g/m*3 21.3 C 0 km/h
2523 28-06-2011 23:53:03 21.4 C 9.94 g/m*3 21.4 C 0 km/h
2524 29-06-2011 00:05:02 21.5 C 9.81 g/m*3 21.5 C 0 km/h
2525 29-06-2011 00:17:03 21.1 C 9.95 g/m*3 21.1 C 0 km/h
Sensor: Nr:Datum:Temp:Abs-Feuchte:Windchill:Wind:
Aussen-T/F 2526 29-06-2011 00:29:03 20.8 C 10.5 g/m*3 20.8 C 0 km/h
2527 29-06-2011 00:41:02 21.1 C 10.32 g/m*3 21.1 C 0 km/h
2528 29-06-2011 00:53:02 21 C 10.26 g/m*3 21 C 0 km/h
2529 29-06-2011 01:05:02 20.8 C 10.32 g/m*3 20.8 C 0 km/h
2530 29-06-2011 01:17:02 20.8 C 10.68 g/m*3 20.8 C 0 km/h
2531 29-06-2011 01:29:03 20.7 C 10.8 g/m*3 20.7 C 0 km/h
2532 29-06-2011 01:41:02 20.3 C 10.55 g/m*3 20.3 C 0 km/h
2533 29-06-2011 01:53:02 20.6 C 10.74 g/m*3 20.6 C 0 km/h
2534 29-06-2011 02:05:02 21.8 C 11.32 g/m*3 21.8 C 0 km/h
2535 29-06-2011 02:17:02 22.3 C 11.26 g/m*3 22.3 C 0 km/h
2536 29-06-2011 02:29:02 22.9 C 11.85 g/m*3 22.9 C 0 km/h
2537 29-06-2011 02:41:03 22.7 C 11.92 g/m*3 22.7 C 0 km/h
2538 29-06-2011 02:54:04 23.1 C 11.99 g/m*3 23.1 C 0 km/h
2539 29-06-2011 03:06:04 22.5 C 12.18 g/m*3 22.5 C 0 km/h
2540 29-06-2011 03:18:04 22.2 C 12.17 g/m*3 22.2 C 0 km/h
2541 29-06-2011 03:30:04 23 C 12.33 g/m*3 23 C 0 km/h
2542 29-06-2011 03:42:02 23.2 C 12.06 g/m*3 23.2 C 0 km/h
2543 29-06-2011 03:54:02 23.1 C 11.99 g/m*3 23.1 C 0 km/h
2544 29-06-2011 04:06:02 22.5 C 11.98 g/m*3 22.5 C 0 km/h
2545 29-06-2011 04:18:02 21.6 C 11.95 g/m*3 21.6 C 0 km/h
2546 29-06-2011 04:30:03 21.2 C 12.23 g/m*3 21.2 C 0 km/h
2547 29-06-2011 04:42:01 21 C 12.27 g/m*3 21 C 0 km/h
2548 29-06-2011 04:54:02 21 C 12.46 g/m*3 21 C 0 km/h
2549 29-06-2011 05:06:01 21.3 C 12.3 g/m*3 21.3 C 0 km/h
2550 29-06-2011 05:18:01 21.4 C 12.37 g/m*3 21.4 C 0 km/h
Sensor: Nr:Datum:Temp:Abs-Feuchte:Windchill:Wind:
Aussen-T/F 2551 29-06-2011 05:30:01 21.9 C 11.96 g/m*3 21.9 C 0 km/h
2552 29-06-2011 05:42:02 22.2 C 11.78 g/m*3 22.2 C 0 km/h
2553 29-06-2011 05:54:02 22.2 C 11.78 g/m*3 22.2 C 0 km/h
2554 29-06-2011 06:06:02 21.7 C 11.83 g/m*3 21.7 C 0 km/h
2555 29-06-2011 06:18:01 21.6 C 11.95 g/m*3 21.6 C 0 km/h
2556 29-06-2011 06:30:01 21.4 C 12 g/m*3 21.4 C 0 km/h
2557 29-06-2011 06:42:02 21.4 C 12.19 g/m*3 21.4 C 0 km/h
2558 29-06-2011 06:54:02 20.9 C 12.2 g/m*3 20.9 C 0 km/h
2559 29-06-2011 07:06:02 21.3 C 12.86 g/m*3 21.3 C 0 km/h
2560 29-06-2011 07:18:01 21.1 C 12.71 g/m*3 21.1 C 0 km/h
2561 29-06-2011 07:30:01 21.8 C 12.66 g/m*3 21.8 C 0 km/h
2562 29-06-2011 07:42:01 22.4 C 12.31 g/m*3 22.4 C 0 km/h
2563 29-06-2011 07:54:01 22.6 C 12.25 g/m*3 22.6 C 0 km/h
2564 29-06-2011 08:06:02 22.9 C 12.26 g/m*3 22.9 C 0 km/h
2565 29-06-2011 08:18:01 23.4 C 12.2 g/m*3 23.4 C 0 km/h
2566 29-06-2011 08:30:01 23.7 C 12.19 g/m*3 23.7 C 0 km/h
2567 29-06-2011 08:42:01 23.6 C 12.55 g/m*3 23.6 C 0 km/h
2568 29-06-2011 08:54:01 23.8 C 12.26 g/m*3 23.8 C 0 km/h
2569 29-06-2011 09:06:01 23.9 C 12.33 g/m*3 23.9 C 0 km/h
2570 29-06-2011 09:18:01 24.2 C 12.1 g/m*3 24.2 C 0 km/h
2571 29-06-2011 09:30:01 24.4 C 12.24 g/m*3 24.4 C 0 km/h
2572 29-06-2011 09:42:01 24.1 C 11.82 g/m*3 24.1 C 0 km/h
2573 29-06-2011 09:54:02 24.3 C 12.17 g/m*3 24.3 C 0 km/h
2574 29-06-2011 10:06:02 25.1 C 12.04 g/m*3 25.1 C 0 km/h
2575 29-06-2011 10:18:02 24.9 C 12.13 g/m*3 24.9 C 0 km/h
Sensor: Nr:Datum:Temp:Abs-Feuchte:Windchill:Wind:
Aussen-T/F 2576 29-06-2011 10:30:02 23.7 C 12.19 g/m*3 23.7 C 0 km/h
2577 29-06-2011 10:42:02 23.3 C 12.55 g/m*3 23.3 C 0 km/h
2578 29-06-2011 10:54:02 24.1 C 12.47 g/m*3 24.1 C 0 km/h
2579 29-06-2011 11:06:03 23.8 C 12.48 g/m*3 23.8 C 0 km/h
2580 29-06-2011 11:18:02 22.7 C 13.13 g/m*3 22.7 C 0 km/h
2581 29-06-2011 11:30:02 24.1 C 12.91 g/m*3 24.1 C 0 km/h
2582 29-06-2011 11:42:02 24.6 C 11.93 g/m*3 24.6 C 0 km/h
2583 29-06-2011 11:54:01 24.7 C 11.32 g/m*3 24.7 C 0 km/h
2584 29-06-2011 12:06:02 24.7 C 12 g/m*3 24.7 C 0 km/h
2585 29-06-2011 12:18:01 24.8 C 11.84 g/m*3 24.8 C 0 km/h
2586 29-06-2011 12:30:01 24.6 C 11.93 g/m*3 24.6 C 0 km/h
2587 29-06-2011 12:42:02 24.7 C 12 g/m*3 24.7 C 0 km/h
2588 29-06-2011 12:54:01 25.3 C 11.94 g/m*3 25.3 C 0 km/h
2589 29-06-2011 13:06:02 25.8 C 12.04 g/m*3 25.8 C 0 km/h
2590 29-06-2011 13:18:02 25.8 C 12.28 g/m*3 25.8 C 0 km/h
2591 29-06-2011 13:30:02 25.6 C 11.9 g/m*3 25.6 C 0 km/h
2592 29-06-2011 13:42:01 25.6 C 12.14 g/m*3 25.6 C 0 km/h
2593 29-06-2011 13:54:01 25.8 C 11.8 g/m*3 25.8 C 0 km/h
2594 29-06-2011 14:06:01 23.1 C 11.16 g/m*3 23.1 C 0 km/h
2595 29-06-2011 14:18:02 21.5 C 11.13 g/m*3 21.5 C 0 km/h
2596 29-06-2011 14:30:02 20.7 C 10.98 g/m*3 20.7 C 0 km/h
2597 29-06-2011 14:42:01 19.8 C 10.76 g/m*3 19.8 C 0 km/h
2598 29-06-2011 14:54:02 19.7 C 11.21 g/m*3 19.7 C 0 km/h
2599 29-06-2011 15:06:02 19.4 C 10.84 g/m*3 19.4 C 0 km/h
2600 29-06-2011 15:18:02 19.1 C 10.66 g/m*3 19.1 C 0 km/h
Sensor: Nr:Datum:Temp:Abs-Feuchte:Windchill:Wind:
Aussen-T/F 2601 29-06-2011 15:30:02 18.8 C 10.79 g/m*3 18.8 C 0 km/h
2602 29-06-2011 15:42:02 17.8 C 11.23 g/m*3 17.8 C 0 km/h
2603 29-06-2011 15:54:02 17.5 C 11.33 g/m*3 17.5 C 0 km/h
2604 29-06-2011 16:06:01 17.5 C 11.48 g/m*3 17.5 C 0 km/h
2605 29-06-2011 16:18:02 17.5 C 11.48 g/m*3 17.5 C 0 km/h
2606 29-06-2011 16:30:02 17.5 C 11.18 g/m*3 17.5 C 0 km/h
2607 29-06-2011 16:42:02 17.5 C 10.88 g/m*3 17.5 C 0 km/h
2608 29-06-2011 16:54:02 17.6 C 10.95 g/m*3 17.6 C 0 km/h
2609 29-06-2011 17:06:03 17.5 C 10.73 g/m*3 17.5 C 0 km/h
2610 29-06-2011 17:18:02 17.5 C 10.73 g/m*3 17.5 C 0 km/h
2611 29-06-2011 17:30:02 17.6 C 10.65 g/m*3 17.6 C 0 km/h
2612 29-06-2011 17:42:02 17.4 C 10.67 g/m*3 17.4 C 0 km/h
2613 29-06-2011 17:54:01 17.3 C 10.61 g/m*3 17.3 C 0 km/h
2614 29-06-2011 18:06:02 17.1 C 10.48 g/m*3 17.1 C 0 km/h
2615 29-06-2011 18:18:01 17.1 C 10.48 g/m*3 17.1 C 0 km/h
2616 29-06-2011 18:30:01 16.9 C 10.5 g/m*3 16.9 C 0 km/h
2617 29-06-2011 18:42:02 17 C 10.27 g/m*3 17 C 0 km/h
2618 29-06-2011 18:54:01 17 C 10.27 g/m*3 17 C 0 km/h
2619 29-06-2011 19:06:02 17 C 10.13 g/m*3 17 C 0 km/h
2620 29-06-2011 19:18:02 17 C 9.98 g/m*3 17 C 0 km/h
2621 29-06-2011 19:30:02 17.1 C 10.19 g/m*3 17.1 C 0 km/h
2622 29-06-2011 19:42:02 17 C 10.13 g/m*3 17 C 0 km/h
2623 29-06-2011 19:54:01 17 C 10.27 g/m*3 17 C 0 km/h
2624 29-06-2011 20:06:02 16.9 C 10.36 g/m*3 16.9 C 0 km/h
2625 29-06-2011 20:18:02 16.8 C 10.44 g/m*3 16.8 C 0 km/h
Sensor: Nr:Datum:Temp:Abs-Feuchte:Windchill:Wind:
Aussen-T/F 2626 29-06-2011 20:30:02 16.8 C 10.58 g/m*3 16.8 C 0 km/h
2627 29-06-2011 20:42:01 16.7 C 10.52 g/m*3 16.7 C 0 km/h
2628 29-06-2011 20:54:02 16.6 C 10.59 g/m*3 16.6 C 0 km/h
2629 29-06-2011 21:06:01 16.6 C 10.59 g/m*3 16.6 C 0 km/h
2630 29-06-2011 21:18:02 16.5 C 10.67 g/m*3 16.5 C 0 km/h
2631 29-06-2011 21:30:02 16.5 C 10.67 g/m*3 16.5 C 0 km/h
2632 29-06-2011 21:42:02 16.5 C 10.81 g/m*3 16.5 C 0 km/h
2633 29-06-2011 21:54:02 16.4 C 10.75 g/m*3 16.4 C 0 km/h
2634 29-06-2011 22:06:02 16.6 C 10.74 g/m*3 16.6 C 0 km/h
2635 29-06-2011 22:18:02 16.4 C 10.75 g/m*3 16.4 C 0 km/h
2636 29-06-2011 22:30:02 16.4 C 10.89 g/m*3 16.4 C 0 km/h
2637 29-06-2011 22:42:02 16.3 C 10.96 g/m*3 16.3 C 0 km/h
2638 29-06-2011 22:55:03 16.4 C 11.03 g/m*3 16.4 C 0 km/h
2639 29-06-2011 23:07:03 16.5 C 10.81 g/m*3 16.5 C 0 km/h
2640 29-06-2011 23:19:03 16.6 C 10.59 g/m*3 16.6 C 0 km/h
2641 29-06-2011 23:31:03 16.9 C 10.21 g/m*3 16.9 C 0 km/h
2642 29-06-2011 23:43:03 16.8 C 10.01 g/m*3 16.8 C 0 km/h
2643 29-06-2011 23:55:03 16.7 C 10.09 g/m*3 16.7 C 0 km/h
2644 30-06-2011 00:07:03 16.6 C 9.89 g/m*3 16.6 C 0 km/h
2645 30-06-2011 00:19:03 16.7 C 9.81 g/m*3 16.7 C 0 km/h
2646 30-06-2011 00:31:04 16.6 C 9.61 g/m*3 16.6 C 0 km/h
2647 30-06-2011 00:43:04 16.5 C 9.69 g/m*3 16.5 C 0 km/h
2648 30-06-2011 00:55:04 16.6 C 9.46 g/m*3 16.6 C 0 km/h
2649 30-06-2011 01:07:04 16.5 C 9.27 g/m*3 16.5 C 0 km/h
2650 30-06-2011 01:19:04 16.5 C 9.27 g/m*3 16.5 C 0 km/h
Sensor: Nr:Datum:Temp:Abs-Feuchte:Windchill:Wind:
Aussen-T/F 2651 30-06-2011 01:31:04 16.4 C 9.21 g/m*3 16.4 C 0 km/h
2652 30-06-2011 01:43:04 16.3 C 9.16 g/m*3 16.3 C 0 km/h
2653 30-06-2011 01:55:04 16.2 C 9.1 g/m*3 16.2 C 0 km/h
2654 30-06-2011 02:07:04 16.2 C 8.96 g/m*3 16.2 C 0 km/h
2655 30-06-2011 02:19:04 16 C 8.99 g/m*3 16 C 0 km/h
2656 30-06-2011 02:31:04 15.9 C 8.94 g/m*3 15.9 C 0 km/h
2657 30-06-2011 02:43:04 15.8 C 8.62 g/m*3 15.8 C 0 km/h
2658 30-06-2011 02:55:04 15.7 C 8.56 g/m*3 15.7 C 0 km/h
2659 30-06-2011 03:07:04 15.6 C 8.25 g/m*3 15.6 C 0 km/h
2660 30-06-2011 03:19:04 15.5 C 8.2 g/m*3 15.5 C 0 km/h
2661 30-06-2011 03:31:04 15.3 C 8.1 g/m*3 15.3 C 0 km/h
2662 30-06-2011 03:43:04 15.2 C 8.18 g/m*3 15.2 C 0 km/h
2663 30-06-2011 03:55:04 15 C 8.21 g/m*3 15 C 0 km/h
2664 30-06-2011 04:07:04 14.9 C 8.28 g/m*3 14.9 C 0 km/h
2665 30-06-2011 04:19:04 14.9 C 8.28 g/m*3 14.9 C 0 km/h
2666 30-06-2011 04:31:04 14.8 C 8.11 g/m*3 14.8 C 0 km/h
2667 30-06-2011 04:43:05 14.6 C 8.01 g/m*3 14.6 C 0 km/h
2668 30-06-2011 04:55:05 14.5 C 7.96 g/m*3 14.5 C 0 km/h
2669 30-06-2011 05:07:05 14.4 C 7.79 g/m*3 14.4 C 0 km/h
2670 30-06-2011 05:19:05 14 C 7.72 g/m*3 14 C 0 km/h
2671 30-06-2011 05:31:05 13.7 C 7.7 g/m*3 13.7 C 0 km/h
2672 30-06-2011 05:43:05 13.4 C 7.67 g/m*3 13.4 C 0 km/h
2673 30-06-2011 05:55:05 13.5 C 7.72 g/m*3 13.5 C 0 km/h
2674 30-06-2011 06:07:05 13 C 7.71 g/m*3 13 C 0 km/h
2675 30-06-2011 06:19:05 12.3 C 7.71 g/m*3 12.3 C 0 km/h
Sensor: Nr:Datum:Temp:Abs-Feuchte:Windchill:Wind:
Aussen-T/F 2676 30-06-2011 06:31:04 12.3 C 7.82 g/m*3 12.3 C 0 km/h
2677 30-06-2011 06:43:04 12.4 C 7.98 g/m*3 12.4 C 0 km/h
2678 30-06-2011 06:55:02 12.5 C 7.92 g/m*3 12.5 C 0 km/h
2679 30-06-2011 07:07:02 12.8 C 8.06 g/m*3 12.8 C 0 km/h
2680 30-06-2011 07:19:01 12.7 C 8.01 g/m*3 12.7 C 0 km/h
2681 30-06-2011 07:31:02 12.8 C 8.18 g/m*3 12.8 C 0 km/h
2682 30-06-2011 07:43:02 13.7 C 8.17 g/m*3 13.7 C 0 km/h
2683 30-06-2011 07:55:01 14.4 C 7.79 g/m*3 14.4 C 0 km/h
2684 30-06-2011 08:07:02 14.2 C 7.33 g/m*3 14.2 C 0 km/h
2685 30-06-2011 08:19:02 14.3 C 7.49 g/m*3 14.3 C 0 km/h
2686 30-06-2011 08:31:02 15 C 7.05 g/m*3 15 C 0 km/h
2687 30-06-2011 08:43:02 15.6 C 6.92 g/m*3 15.6 C 0 km/h
2688 30-06-2011 08:55:02 16.1 C 6.72 g/m*3 16.1 C 0 km/h
2689 30-06-2011 09:07:02 14.4 C 7.29 g/m*3 14.4 C 0 km/h
2690 30-06-2011 09:19:02 15.2 C 7.4 g/m*3 15.2 C 0 km/h
2691 30-06-2011 09:31:01 16.6 C 6.92 g/m*3 16.6 C 0 km/h
2692 30-06-2011 09:43:01 17 C 6.66 g/m*3 17 C 0 km/h
2693 30-06-2011 09:55:02 16 C 6.54 g/m*3 16 C 0 km/h
2694 30-06-2011 10:07:01 16.2 C 6.76 g/m*3 16.2 C 0 km/h
2695 30-06-2011 10:19:02 16.7 C 6.4 g/m*3 16.7 C 0 km/h
2696 30-06-2011 10:31:01 17.1 C 6.55 g/m*3 17.1 C 0 km/h
2697 30-06-2011 10:43:01 17.2 C 6.3 g/m*3 17.2 C 0 km/h
2698 30-06-2011 10:55:02 17.1 C 5.82 g/m*3 17.1 C 0 km/h
2699 30-06-2011 11:07:01 18.9 C 5.67 g/m*3 18.9 C 0 km/h
2700 30-06-2011 11:19:01 17.4 C 6.08 g/m*3 17.4 C 0 km/h
Sensor: Nr:Datum:Temp:Abs-Feuchte:Windchill:Wind:
Aussen-T/F 2701 30-06-2011 11:31:02 18.3 C 6.25 g/m*3 18.3 C 0 km/h
2702 30-06-2011 11:43:02 19.1 C 5.74 g/m*3 19.1 C 0 km/h
2703 30-06-2011 11:55:02 18 C 5.84 g/m*3 18 C 0 km/h
2704 30-06-2011 12:07:01 18.3 C 5.94 g/m*3 18.3 C 0 km/h
2705 30-06-2011 12:19:02 18.7 C 5.76 g/m*3 18.7 C 0 km/h
2706 30-06-2011 12:31:01 18.7 C 5.92 g/m*3 18.7 C 0 km/h
2707 30-06-2011 12:43:01 18.9 C 5.83 g/m*3 18.9 C 0 km/h
2708 30-06-2011 12:55:02 19.6 C 5.74 g/m*3 19.6 C 0 km/h
2709 30-06-2011 13:07:01 19.2 C 5.44 g/m*3 19.2 C 0 km/h
2710 30-06-2011 13:19:01 19.8 C 5.81 g/m*3 19.8 C 0 km/h
2711 30-06-2011 13:31:02 20.2 C 5.25 g/m*3 20.2 C 0 km/h
2712 30-06-2011 13:43:02 26.1 C 4.9 g/m*3 26.1 C 0 km/h
2713 30-06-2011 13:55:02 26.8 C 5.09 g/m*3 26.8 C 0 km/h
2714 30-06-2011 14:07:02 23.3 C 4.18 g/m*3 23.3 C 0 km/h
2715 30-06-2011 14:19:02 23 C 4.11 g/m*3 23 C 0 km/h
2716 30-06-2011 14:31:02 25.9 C 4.84 g/m*3 25.9 C 0 km/h
2717 30-06-2011 14:43:02 25.3 C 4.68 g/m*3 25.3 C 0 km/h
2718 30-06-2011 14:55:01 27.7 C 5.35 g/m*3 27.7 C 0 km/h
2719 30-06-2011 15:07:02 25.6 C 4.76 g/m*3 25.6 C 0 km/h
2720 30-06-2011 15:19:01 22.5 C 4.19 g/m*3 22.5 C 0 km/h
2721 30-06-2011 15:31:01 22.5 C 4.59 g/m*3 22.5 C 0 km/h
2722 30-06-2011 15:43:01 24.3 C 4.43 g/m*3 24.3 C 0 km/h
2723 30-06-2011 15:55:01 23.4 C 4.63 g/m*3 23.4 C 0 km/h
2724 30-06-2011 16:07:02 25.2 C 4.89 g/m*3 25.2 C 0 km/h
2725 30-06-2011 16:19:01 23 C 4.73 g/m*3 23 C 0 km/h
Sensor: Nr:Datum:Temp:Abs-Feuchte:Windchill:Wind:
Aussen-T/F 2726 30-06-2011 16:31:01 22.1 C 4.88 g/m*3 22.1 C 0 km/h
2727 30-06-2011 16:43:01 23.5 C 5.29 g/m*3 23.5 C 0 km/h
2728 30-06-2011 16:55:01 22.1 C 5.27 g/m*3 22.1 C 0 km/h
2729 30-06-2011 17:07:02 22.2 C 5.5 g/m*3 22.2 C 0 km/h
2730 30-06-2011 17:19:02 21.8 C 5.37 g/m*3 21.8 C 0 km/h
2731 30-06-2011 17:31:01 25.1 C 4.63 g/m*3 25.1 C 0 km/h
2732 30-06-2011 17:43:01 23.5 C 4.65 g/m*3 23.5 C 0 km/h
2733 30-06-2011 17:55:01 21.9 C 5.4 g/m*3 21.9 C 0 km/h
2734 30-06-2011 18:07:01 21.6 C 5.31 g/m*3 21.6 C 0 km/h
2735 30-06-2011 18:19:02 21.3 C 5.41 g/m*3 21.3 C 0 km/h
2736 30-06-2011 18:31:01 20.1 C 5.21 g/m*3 20.1 C 0 km/h
2737 30-06-2011 18:43:01 21.1 C 5.34 g/m*3 21.1 C 0 km/h
2738 30-06-2011 18:55:02 21.9 C 5.21 g/m*3 21.9 C 0 km/h
2739 30-06-2011 19:07:01 24.2 C 4.4 g/m*3 24.2 C 0 km/h
2740 30-06-2011 19:19:01 24.8 C 4.55 g/m*3 24.8 C 0 km/h
2741 30-06-2011 19:31:01 23.1 C 4.13 g/m*3 23.1 C 0 km/h
2742 30-06-2011 19:43:01 22.3 C 4.94 g/m*3 22.3 C 0 km/h
2743 30-06-2011 19:55:02 20 C 5.18 g/m*3 20 C 0 km/h
2744 30-06-2011 20:07:02 19.7 C 5.6 g/m*3 19.7 C 0 km/h
2745 30-06-2011 20:19:02 19 C 5.7 g/m*3 19 C 0 km/h
2746 30-06-2011 20:31:02 18.6 C 6.05 g/m*3 18.6 C 0 km/h
2747 30-06-2011 20:43:02 17.9 C 5.95 g/m*3 17.9 C 0 km/h
2748 30-06-2011 20:55:02 17 C 6.51 g/m*3 17 C 0 km/h
2749 30-06-2011 21:07:02 17.2 C 6.15 g/m*3 17.2 C 0 km/h
2750 30-06-2011 21:19:01 17.2 C 6 g/m*3 17.2 C 0 km/h
Sensor: Nr:Datum:Temp:Abs-Feuchte:Windchill:Wind:
Aussen-T/F 2751 30-06-2011 21:31:02 16.8 C 6.43 g/m*3 16.8 C 0 km/h
2752 30-06-2011 21:43:02 15.9 C 6.5 g/m*3 15.9 C 0 km/h
2753 30-06-2011 21:55:02 15.6 C 6.78 g/m*3 15.6 C 0 km/h
2754 30-06-2011 22:07:02 16.1 C 6.58 g/m*3 16.1 C 0 km/h
2755 30-06-2011 22:19:01 16.6 C 6.5 g/m*3 16.6 C 0 km/h
2756 30-06-2011 22:31:02 16.6 C 6.64 g/m*3 16.6 C 0 km/h
2757 30-06-2011 22:43:02 16.5 C 6.88 g/m*3 16.5 C 0 km/h
2758 30-06-2011 22:55:02 16.3 C 6.94 g/m*3 16.3 C 0 km/h
2759 30-06-2011 23:07:02 15.3 C 6.92 g/m*3 15.3 C 0 km/h
2760 30-06-2011 23:19:02 15.1 C 6.84 g/m*3 15.1 C 0 km/h
2761 30-06-2011 23:32:03 14.2 C 7.45 g/m*3 14.2 C 0 km/h
2762 30-06-2011 23:44:03 13.3 C 8.09 g/m*3 13.3 C 0 km/h
2763 30-06-2011 23:56:03 12.8 C 8.62 g/m*3 12.8 C 0 km/h
2764 01-07-2011 00:08:03 12.7 C 8.91 g/m*3 12.7 C 0 km/h
2765 01-07-2011 00:20:03 12.4 C 8.96 g/m*3 12.4 C 0 km/h
2766 01-07-2011 00:32:03 12.1 C 8.9 g/m*3 12.1 C 0 km/h
2767 01-07-2011 00:44:03 12 C 8.85 g/m*3 12 C 0 km/h
2768 01-07-2011 00:56:03 11.8 C 8.84 g/m*3 11.8 C 0 km/h
2769 01-07-2011 01:08:03 11.8 C 8.84 g/m*3 11.8 C 0 km/h
2770 01-07-2011 01:20:03 11.9 C 9 g/m*3 11.9 C 0 km/h
2771 01-07-2011 01:32:03 11.6 C 8.83 g/m*3 11.6 C 0 km/h
2772 01-07-2011 01:44:03 11.5 C 8.88 g/m*3 11.5 C 0 km/h
2773 01-07-2011 01:56:03 11.4 C 8.83 g/m*3 11.4 C 0 km/h
2774 01-07-2011 02:08:03 11.2 C 8.72 g/m*3 11.2 C 0 km/h
2775 01-07-2011 02:20:03 11.2 C 8.82 g/m*3 11.2 C 0 km/h
Sensor: Nr:Datum:Temp:Abs-Feuchte:Windchill:Wind:
Aussen-T/F 2776 01-07-2011 02:32:03 11.6 C 9.15 g/m*3 11.6 C 0 km/h
2777 01-07-2011 02:44:03 11.6 C 9.15 g/m*3 11.6 C 0 km/h
2778 01-07-2011 02:56:03 11.5 C 9.09 g/m*3 11.5 C 0 km/h
2779 01-07-2011 03:08:03 11.6 C 9.15 g/m*3 11.6 C 0 km/h
2780 01-07-2011 03:20:03 11.7 C 9.2 g/m*3 11.7 C 0 km/h
2781 01-07-2011 03:32:04 11.8 C 9.26 g/m*3 11.8 C 0 km/h
2782 01-07-2011 03:44:04 11.9 C 9.32 g/m*3 11.9 C 0 km/h
2783 01-07-2011 03:56:04 11.9 C 9.32 g/m*3 11.9 C 0 km/h
2784 01-07-2011 04:08:04 11.9 C 9.32 g/m*3 11.9 C 0 km/h
2785 01-07-2011 04:20:04 11.4 C 9.03 g/m*3 11.4 C 0 km/h
2786 01-07-2011 04:32:04 11.2 C 8.92 g/m*3 11.2 C 0 km/h
2787 01-07-2011 04:44:04 10.8 C 8.7 g/m*3 10.8 C 0 km/h
2788 01-07-2011 04:56:04 11.2 C 8.92 g/m*3 11.2 C 0 km/h
2789 01-07-2011 05:08:04 11.1 C 8.86 g/m*3 11.1 C 0 km/h
2790 01-07-2011 05:20:04 10.5 C 8.53 g/m*3 10.5 C 0 km/h
2791 01-07-2011 05:32:04 9.7 C 8.2 g/m*3 9.7 C 0 km/h
2792 01-07-2011 05:44:04 10.3 C 8.43 g/m*3 10.3 C 0 km/h
2793 01-07-2011 05:56:04 10.4 C 8.48 g/m*3 10.4 C 0 km/h
2794 01-07-2011 06:08:04 10.6 C 8.69 g/m*3 10.6 C 0 km/h
2795 01-07-2011 06:20:04 11 C 8.81 g/m*3 11 C 0 km/h
2796 01-07-2011 06:32:04 11.1 C 8.86 g/m*3 11.1 C 0 km/h
2797 01-07-2011 06:44:04 10.8 C 8.7 g/m*3 10.8 C 0 km/h
2798 01-07-2011 06:56:04 10.7 C 8.55 g/m*3 10.7 C 0 km/h
2799 01-07-2011 07:08:04 10.8 C 8.6 g/m*3 10.8 C 0 km/h
2800 01-07-2011 07:20:04 11.2 C 8.72 g/m*3 11.2 C 0 km/h
Sensor: Nr:Datum:Temp:Abs-Feuchte:Windchill:Wind:
Aussen-T/F 2801 01-07-2011 07:32:05 11.6 C 8.83 g/m*3 11.6 C 0 km/h
2802 01-07-2011 07:44:05 12.2 C 8.63 g/m*3 12.2 C 0 km/h
2803 01-07-2011 07:56:05 12.8 C 8.62 g/m*3 12.8 C 0 km/h
2804 01-07-2011 08:08:05 13.4 C 8.02 g/m*3 13.4 C 0 km/h
2805 01-07-2011 08:20:05 12.8 C 7.84 g/m*3 12.8 C 0 km/h
2806 01-07-2011 08:32:02 12 C 8.21 g/m*3 12 C 0 km/h
2807 01-07-2011 08:44:02 11.3 C 8.06 g/m*3 11.3 C 0 km/h
2808 01-07-2011 08:56:02 10.7 C 7.86 g/m*3 10.7 C 0 km/h
2809 01-07-2011 09:08:01 10.7 C 8.25 g/m*3 10.7 C 0 km/h
2810 01-07-2011 09:20:02 11.3 C 8.57 g/m*3 11.3 C 0 km/h
2811 01-07-2011 09:32:01 11.3 C 8.57 g/m*3 11.3 C 0 km/h
2812 01-07-2011 09:44:01 12 C 8.63 g/m*3 12 C 0 km/h
2813 01-07-2011 09:56:02 12.2 C 8.52 g/m*3 12.2 C 0 km/h
2814 01-07-2011 10:08:02 13.2 C 8.38 g/m*3 13.2 C 0 km/h
2815 01-07-2011 10:20:02 14.4 C 8.28 g/m*3 14.4 C 0 km/h
2816 01-07-2011 10:32:02 14 C 7.96 g/m*3 14 C 0 km/h
2817 01-07-2011 10:44:02 14.1 C 8.25 g/m*3 14.1 C 0 km/h
2818 01-07-2011 10:56:02 14.8 C 7.6 g/m*3 14.8 C 0 km/h
2819 01-07-2011 11:08:02 16.5 C 7.3 g/m*3 16.5 C 0 km/h
2820 01-07-2011 11:20:02 15.6 C 6.78 g/m*3 15.6 C 0 km/h
2821 01-07-2011 11:32:02 16.6 C 7.35 g/m*3 16.6 C 0 km/h
2822 01-07-2011 11:44:02 14.5 C 6.84 g/m*3 14.5 C 0 km/h
2823 01-07-2011 11:56:02 14.8 C 7.09 g/m*3 14.8 C 0 km/h
2824 01-07-2011 12:08:01 15 C 7.18 g/m*3 15 C 0 km/h
2825 01-07-2011 12:20:01 16.2 C 6.76 g/m*3 16.2 C 0 km/h
Sensor: Nr:Datum:Temp:Abs-Feuchte:Windchill:Wind:
Aussen-T/F 2826 01-07-2011 12:32:02 16.6 C 6.5 g/m*3 16.6 C 0 km/h
2827 01-07-2011 12:44:02 17 C 6.51 g/m*3 17 C 0 km/h
2828 01-07-2011 12:56:02 17.3 C 6.19 g/m*3 17.3 C 0 km/h
2829 01-07-2011 13:08:02 17.3 C 6.78 g/m*3 17.3 C 0 km/h
2830 01-07-2011 13:20:02 14.9 C 7.14 g/m*3 14.9 C 0 km/h
2831 01-07-2011 13:32:02 16.4 C 7.12 g/m*3 16.4 C 0 km/h
2832 01-07-2011 13:44:02 20.8 C 6.34 g/m*3 20.8 C 0 km/h
2833 01-07-2011 13:56:02 23.2 C 6.24 g/m*3 23.2 C 0 km/h
2834 01-07-2011 14:08:02 22.4 C 5.36 g/m*3 22.4 C 0 km/h
2835 01-07-2011 14:20:02 20.1 C 5.21 g/m*3 20.1 C 0 km/h
2836 01-07-2011 14:32:02 17.7 C 6.19 g/m*3 17.7 C 0 km/h
2837 01-07-2011 14:44:02 20.4 C 6.37 g/m*3 20.4 C 0 km/h
2838 01-07-2011 14:56:01 18.5 C 6.01 g/m*3 18.5 C 0 km/h
2839 01-07-2011 15:08:01 22.6 C 6.63 g/m*3 22.6 C 0 km/h
2840 01-07-2011 15:20:02 23.5 C 5.92 g/m*3 23.5 C 0 km/h
2841 01-07-2011 15:32:01 23.8 C 5.16 g/m*3 23.8 C 0 km/h
2842 01-07-2011 15:44:01 26.9 C 5.37 g/m*3 26.9 C 0 km/h
2843 01-07-2011 15:56:01 25.8 C 5.54 g/m*3 25.8 C 0 km/h
2844 01-07-2011 16:08:01 22.8 C 5.08 g/m*3 22.8 C 0 km/h
2845 01-07-2011 16:20:02 26.2 C 4.92 g/m*3 26.2 C 0 km/h
2846 01-07-2011 16:32:01 23.1 C 4.34 g/m*3 23.1 C 0 km/h
2847 01-07-2011 16:44:01 23.9 C 5.41 g/m*3 23.9 C 0 km/h
2848 01-07-2011 16:56:01 18.8 C 6.28 g/m*3 18.8 C 0 km/h
2849 01-07-2011 17:08:01 22.7 C 6.26 g/m*3 22.7 C 0 km/h
2850 01-07-2011 17:20:02 20.2 C 6.29 g/m*3 20.2 C 0 km/h
Sensor: Nr:Datum:Temp:Abs-Feuchte:Windchill:Wind:
Aussen-T/F 2851 01-07-2011 17:32:01 18.7 C 6.4 g/m*3 18.7 C 0 km/h
2852 01-07-2011 17:44:01 23.1 C 6.2 g/m*3 23.1 C 0 km/h
2853 01-07-2011 17:56:02 23.6 C 5.96 g/m*3 23.6 C 0 km/h
2854 01-07-2011 18:08:01 24.2 C 5.72 g/m*3 24.2 C 0 km/h
2855 01-07-2011 18:20:01 24.3 C 5.97 g/m*3 24.3 C 0 km/h
2856 01-07-2011 18:32:01 23.9 C 4.98 g/m*3 23.9 C 0 km/h
2857 01-07-2011 18:44:01 21.8 C 5.37 g/m*3 21.8 C 0 km/h
2858 01-07-2011 18:56:02 19.7 C 5.26 g/m*3 19.7 C 0 km/h
2859 01-07-2011 19:08:02 19.1 C 5.9 g/m*3 19.1 C 0 km/h
2860 01-07-2011 19:20:02 18.6 C 6.05 g/m*3 18.6 C 0 km/h
2861 01-07-2011 19:32:02 17.5 C 5.37 g/m*3 17.5 C 0 km/h
2862 01-07-2011 19:44:02 16.9 C 5.75 g/m*3 16.9 C 0 km/h
2863 01-07-2011 19:56:02 16.5 C 5.62 g/m*3 16.5 C 0 km/h
2864 01-07-2011 20:08:01 16.4 C 5.86 g/m*3 16.4 C 0 km/h
2865 01-07-2011 20:20:02 16.2 C 6.21 g/m*3 16.2 C 0 km/h
2866 01-07-2011 20:32:02 15.8 C 6.6 g/m*3 15.8 C 0 km/h
2867 01-07-2011 20:44:02 15.5 C 6.61 g/m*3 15.5 C 0 km/h
2868 01-07-2011 20:56:02 15.6 C 6.65 g/m*3 15.6 C 0 km/h
2869 01-07-2011 21:08:03 15.2 C 6.75 g/m*3 15.2 C 0 km/h
2870 01-07-2011 21:20:02 14.6 C 6.88 g/m*3 14.6 C 0 km/h
2871 01-07-2011 21:32:02 14.1 C 7.04 g/m*3 14.1 C 0 km/h
2872 01-07-2011 21:44:02 14 C 7.24 g/m*3 14 C 0 km/h
2873 01-07-2011 21:56:01 14.1 C 6.8 g/m*3 14.1 C 0 km/h
2874 01-07-2011 22:09:02 13.7 C 6.87 g/m*3 13.7 C 0 km/h
2875 01-07-2011 22:21:02 13.1 C 6.96 g/m*3 13.1 C 0 km/h
Sensor: Nr:Datum:Temp:Abs-Feuchte:Windchill:Wind:
Aussen-T/F 2876 01-07-2011 22:33:02 12.4 C 7.21 g/m*3 12.4 C 0 km/h
2877 01-07-2011 22:45:03 11.6 C 7.28 g/m*3 11.6 C 0 km/h
2878 01-07-2011 22:57:03 11.2 C 7.4 g/m*3 11.2 C 0 km/h
2879 01-07-2011 23:09:03 11.2 C 7.5 g/m*3 11.2 C 0 km/h
2880 01-07-2011 23:21:03 10.9 C 7.56 g/m*3 10.9 C 0 km/h
2881 01-07-2011 23:33:03 10.9 C 7.66 g/m*3 10.9 C 0 km/h
2882 01-07-2011 23:45:03 11.3 C 7.85 g/m*3 11.3 C 0 km/h
2883 01-07-2011 23:57:03 11.3 C 7.75 g/m*3 11.3 C 0 km/h
2884 02-07-2011 00:09:03 11.1 C 7.66 g/m*3 11.1 C 0 km/h
2885 02-07-2011 00:21:03 10.7 C 7.66 g/m*3 10.7 C 0 km/h
2886 02-07-2011 00:33:03 10.2 C 7.42 g/m*3 10.2 C 0 km/h
2887 02-07-2011 00:45:03 10 C 7.52 g/m*3 10 C 0 km/h
2888 02-07-2011 00:57:03 9.9 C 7.66 g/m*3 9.9 C 0 km/h
2889 02-07-2011 01:09:03 9.9 C 7.75 g/m*3 9.9 C 0 km/h
2890 02-07-2011 01:21:03 9.6 C 7.6 g/m*3 9.6 C 0 km/h
2891 02-07-2011 01:33:03 9.8 C 7.79 g/m*3 9.8 C 0 km/h
2892 02-07-2011 01:45:03 9.7 C 7.74 g/m*3 9.7 C 0 km/h
2893 02-07-2011 01:57:03 9.6 C 7.69 g/m*3 9.6 C 0 km/h
2894 02-07-2011 02:09:03 9.4 C 7.6 g/m*3 9.4 C 0 km/h
2895 02-07-2011 02:21:03 9.3 C 7.64 g/m*3 9.3 C 0 km/h
2896 02-07-2011 02:33:04 9.2 C 7.59 g/m*3 9.2 C 0 km/h
2897 02-07-2011 02:45:04 8.9 C 7.53 g/m*3 8.9 C 0 km/h
2898 02-07-2011 02:57:04 8.4 C 7.38 g/m*3 8.4 C 0 km/h
2899 02-07-2011 03:09:04 8.4 C 7.38 g/m*3 8.4 C 0 km/h
2900 02-07-2011 03:21:04 8.7 C 7.61 g/m*3 8.7 C 0 km/h
Sensor: Nr:Datum:Temp:Abs-Feuchte:Windchill:Wind:
Aussen-T/F 2901 02-07-2011 03:33:04 8.2 C 7.29 g/m*3 8.2 C 0 km/h
2902 02-07-2011 03:45:04 8.7 C 7.61 g/m*3 8.7 C 0 km/h
2903 02-07-2011 03:57:04 8.8 C 7.66 g/m*3 8.8 C 0 km/h
2904 02-07-2011 04:09:04 9 C 7.76 g/m*3 9 C 0 km/h
2905 02-07-2011 04:21:04 9.5 C 8.01 g/m*3 9.5 C 0 km/h
2906 02-07-2011 04:33:04 9.6 C 7.97 g/m*3 9.6 C 0 km/h
2907 02-07-2011 04:45:04 9.6 C 7.97 g/m*3 9.6 C 0 km/h
2908 02-07-2011 04:57:04 9.2 C 7.59 g/m*3 9.2 C 0 km/h
2909 02-07-2011 05:09:04 8.4 C 7.3 g/m*3 8.4 C 0 km/h
2910 02-07-2011 05:21:04 8.5 C 7.43 g/m*3 8.5 C 0 km/h
2911 02-07-2011 05:33:04 8.4 C 7.47 g/m*3 8.4 C 0 km/h
2912 02-07-2011 05:45:04 8.4 C 7.47 g/m*3 8.4 C 0 km/h
2913 02-07-2011 05:57:04 8.4 C 7.47 g/m*3 8.4 C 0 km/h
2914 02-07-2011 06:09:04 8.3 C 7.42 g/m*3 8.3 C 0 km/h
2915 02-07-2011 06:21:04 8.7 C 7.7 g/m*3 8.7 C 0 km/h
2916 02-07-2011 06:33:04 9.2 C 7.86 g/m*3 9.2 C 0 km/h
2917 02-07-2011 06:45:05 9.5 C 8.01 g/m*3 9.5 C 0 km/h
2918 02-07-2011 06:57:05 9.8 C 8.07 g/m*3 9.8 C 0 km/h
2919 02-07-2011 07:09:05 10 C 7.99 g/m*3 10 C 0 km/h
2920 02-07-2011 07:21:05 10.2 C 7.9 g/m*3 10.2 C 0 km/h
2921 02-07-2011 07:33:05 10.6 C 8.1 g/m*3 10.6 C 0 km/h
2922 02-07-2011 07:45:05 11.4 C 8.31 g/m*3 11.4 C 0 km/h
2923 02-07-2011 07:57:05 11.3 C 7.85 g/m*3 11.3 C 0 km/h
2924 02-07-2011 08:09:05 12.3 C 8.14 g/m*3 12.3 C 0 km/h
2925 02-07-2011 08:21:05 13.2 C 8.04 g/m*3 13.2 C 0 km/h
Sensor: Nr:Datum:Temp:Abs-Feuchte:Windchill:Wind:
Aussen-T/F 2926 02-07-2011 08:33:05 13 C 7.83 g/m*3 13 C 0 km/h
2927 02-07-2011 08:45:05 13 C 7.48 g/m*3 13 C 0 km/h
2928 02-07-2011 08:57:05 14.2 C 7.33 g/m*3 14.2 C 0 km/h
2929 02-07-2011 09:09:05 14 C 7.12 g/m*3 14 C 0 km/h
2930 02-07-2011 09:21:05 14.8 C 7.09 g/m*3 14.8 C 0 km/h
2931 02-07-2011 09:33:02 14 C 7 g/m*3 14 C 0 km/h
2932 02-07-2011 09:45:02 14.4 C 7.05 g/m*3 14.4 C 0 km/h
2933 02-07-2011 09:57:02 15 C 6.67 g/m*3 15 C 0 km/h
2934 02-07-2011 10:09:02 16.2 C 6.62 g/m*3 16.2 C 0 km/h
2935 02-07-2011 10:21:02 15.8 C 6.33 g/m*3 15.8 C 0 km/h
2936 02-07-2011 10:33:02 17.3 C 6.33 g/m*3 17.3 C 0 km/h
2937 02-07-2011 10:45:01 16.5 C 6.6 g/m*3 16.5 C 0 km/h
2938 02-07-2011 10:57:01 16.1 C 6.03 g/m*3 16.1 C 0 km/h
2939 02-07-2011 11:09:01 15 C 6.03 g/m*3 15 C 0 km/h
2940 02-07-2011 11:21:01 14.2 C 6.47 g/m*3 14.2 C 0 km/h
2941 02-07-2011 11:33:02 15.1 C 6.71 g/m*3 15.1 C 0 km/h
2942 02-07-2011 11:45:02 15.6 C 6.52 g/m*3 15.6 C 0 km/h
2943 02-07-2011 11:57:03 16.9 C 6.18 g/m*3 16.9 C 0 km/h
2944 02-07-2011 12:09:01 15.7 C 6.42 g/m*3 15.7 C 0 km/h
2945 02-07-2011 12:21:02 15.5 C 6.21 g/m*3 15.5 C 0 km/h
2946 02-07-2011 12:33:02 15.7 C 6.15 g/m*3 15.7 C 0 km/h
2947 02-07-2011 12:45:01 16.5 C 6.04 g/m*3 16.5 C 0 km/h
2948 02-07-2011 12:57:01 18.5 C 6.01 g/m*3 18.5 C 0 km/h
2949 02-07-2011 13:09:02 17.9 C 5.65 g/m*3 17.9 C 0 km/h
2950 02-07-2011 13:21:01 17.8 C 5.92 g/m*3 17.8 C 0 km/h
Sensor: Nr:Datum:Temp:Abs-Feuchte:Windchill:Wind:
Aussen-T/F 2951 02-07-2011 13:33:02 18 C 5.68 g/m*3 18 C 0 km/h
2952 02-07-2011 13:45:02 17.5 C 5.67 g/m*3 17.5 C 0 km/h
2953 02-07-2011 13:57:02 17.4 C 5.34 g/m*3 17.4 C 0 km/h
2954 02-07-2011 14:09:02 19.6 C 5.91 g/m*3 19.6 C 0 km/h
2955 02-07-2011 14:21:01 20.4 C 5.48 g/m*3 20.4 C 0 km/h
2956 02-07-2011 14:33:02 19.7 C 5.94 g/m*3 19.7 C 0 km/h
2957 02-07-2011 14:45:01 21.7 C 5.91 g/m*3 21.7 C 0 km/h
2958 02-07-2011 14:57:01 22.9 C 5.52 g/m*3 22.9 C 0 km/h
2959 02-07-2011 15:09:02 20.9 C 5.46 g/m*3 20.9 C 0 km/h
2960 02-07-2011 15:21:01 20.1 C 5.91 g/m*3 20.1 C 0 km/h
2961 02-07-2011 15:33:02 21.1 C 5.71 g/m*3 21.1 C 0 km/h
2962 02-07-2011 15:45:01 22.9 C 5.31 g/m*3 22.9 C 0 km/h
2963 02-07-2011 15:57:01 21.4 C 4.69 g/m*3 21.4 C 0 km/h
2964 02-07-2011 16:09:02 18.5 C 5.54 g/m*3 18.5 C 0 km/h
2965 02-07-2011 16:21:02 19.7 C 5.26 g/m*3 19.7 C 0 km/h
2966 02-07-2011 16:33:02 19.6 C 5.06 g/m*3 19.6 C 0 km/h
2967 02-07-2011 16:45:02 20.3 C 4.92 g/m*3 20.3 C 0 km/h
2968 02-07-2011 16:57:02 19.2 C 5.61 g/m*3 19.2 C 0 km/h
2969 02-07-2011 17:09:01 19.6 C 4.9 g/m*3 19.6 C 0 km/h
2970 02-07-2011 17:21:02 19.6 C 4.9 g/m*3 19.6 C 0 km/h
2971 02-07-2011 17:33:01 18.5 C 5.54 g/m*3 18.5 C 0 km/h
2972 02-07-2011 17:45:02 18 C 5.84 g/m*3 18 C 0 km/h
2973 02-07-2011 17:57:02 18.2 C 5.75 g/m*3 18.2 C 0 km/h
2974 02-07-2011 18:09:01 18.9 C 5.51 g/m*3 18.9 C 0 km/h
2975 02-07-2011 18:21:01 20.1 C 5.91 g/m*3 20.1 C 0 km/h
Sensor: Nr:Datum:Temp:Abs-Feuchte:Windchill:Wind:
Aussen-T/F 2976 02-07-2011 18:33:01 21.1 C 5.53 g/m*3 21.1 C 0 km/h
2977 02-07-2011 18:45:02 21.4 C 5.25 g/m*3 21.4 C 0 km/h
2978 02-07-2011 18:57:02 20.2 C 5.42 g/m*3 20.2 C 0 km/h
2979 02-07-2011 19:09:02 19.2 C 5.28 g/m*3 19.2 C 0 km/h
2980 02-07-2011 19:21:02 18.7 C 5.6 g/m*3 18.7 C 0 km/h
2981 02-07-2011 19:33:02 18.2 C 5.75 g/m*3 18.2 C 0 km/h
2982 02-07-2011 19:45:02 17.5 C 5.81 g/m*3 17.5 C 0 km/h
2983 02-07-2011 19:57:02 17.2 C 5.86 g/m*3 17.2 C 0 km/h
2984 02-07-2011 20:09:01 17.2 C 5.86 g/m*3 17.2 C 0 km/h
2985 02-07-2011 20:21:02 17.3 C 5.89 g/m*3 17.3 C 0 km/h
2986 02-07-2011 20:33:02 17.1 C 5.97 g/m*3 17.1 C 0 km/h
2987 02-07-2011 20:45:02 16.9 C 5.9 g/m*3 16.9 C 0 km/h
2988 02-07-2011 20:57:02 16.7 C 5.97 g/m*3 16.7 C 0 km/h
2989 02-07-2011 21:09:01 16.4 C 6 g/m*3 16.4 C 0 km/h
2990 02-07-2011 21:21:01 16 C 6.27 g/m*3 16 C 0 km/h
2991 02-07-2011 21:33:01 15.9 C 6.23 g/m*3 15.9 C 0 km/h
2992 02-07-2011 21:45:02 15.6 C 6.38 g/m*3 15.6 C 0 km/h
2993 02-07-2011 21:57:02 15.4 C 6.44 g/m*3 15.4 C 0 km/h
2994 02-07-2011 22:09:02 15 C 6.41 g/m*3 15 C 0 km/h
2995 02-07-2011 22:21:02 14.9 C 6.63 g/m*3 14.9 C 0 km/h
2996 02-07-2011 22:33:02 14.7 C 6.55 g/m*3 14.7 C 0 km/h
2997 02-07-2011 22:46:03 14.8 C 6.59 g/m*3 14.8 C 0 km/h
2998 02-07-2011 22:58:03 15.1 C 6.45 g/m*3 15.1 C 0 km/h
2999 02-07-2011 23:10:03 15.1 C 6.45 g/m*3 15.1 C 0 km/h
3000 02-07-2011 23:22:03 15.1 C 6.45 g/m*3 15.1 C 0 km/h
Sensor: Nr:Datum:Temp:Abs-Feuchte:Windchill:Wind:
Aussen-T/F 3001 02-07-2011 23:34:03 15 C 6.41 g/m*3 15 C 0 km/h
3002 02-07-2011 23:46:03 14.8 C 6.46 g/m*3 14.8 C 0 km/h
3003 02-07-2011 23:58:03 14.7 C 6.42 g/m*3 14.7 C 0 km/h
3004 03-07-2011 00:10:03 14.6 C 6.51 g/m*3 14.6 C 0 km/h
3005 03-07-2011 00:22:03 14.4 C 6.68 g/m*3 14.4 C 0 km/h
3006 03-07-2011 00:34:03 14.4 C 6.68 g/m*3 14.4 C 0 km/h
3007 03-07-2011 00:46:03 14.4 C 6.68 g/m*3 14.4 C 0 km/h
3008 03-07-2011 00:58:03 14.4 C 6.68 g/m*3 14.4 C 0 km/h
3009 03-07-2011 01:10:03 14.3 C 6.76 g/m*3 14.3 C 0 km/h
3010 03-07-2011 01:22:03 14.4 C 6.92 g/m*3 14.4 C 0 km/h
3011 03-07-2011 01:34:03 14.1 C 6.8 g/m*3 14.1 C 0 km/h
3012 03-07-2011 01:46:03 14 C 6.88 g/m*3 14 C 0 km/h
3013 03-07-2011 01:58:03 14 C 7 g/m*3 14 C 0 km/h
3014 03-07-2011 02:10:03 13.9 C 7.07 g/m*3 13.9 C 0 km/h
3015 03-07-2011 02:22:04 13.9 C 7.19 g/m*3 13.9 C 0 km/h
3016 03-07-2011 02:34:04 13.7 C 7.1 g/m*3 13.7 C 0 km/h
3017 03-07-2011 02:46:04 13.5 C 6.9 g/m*3 13.5 C 0 km/h
3018 03-07-2011 02:58:04 13.6 C 6.94 g/m*3 13.6 C 0 km/h
3019 03-07-2011 03:10:04 13.6 C 6.94 g/m*3 13.6 C 0 km/h
3020 03-07-2011 03:22:04 13.4 C 6.86 g/m*3 13.4 C 0 km/h
3021 03-07-2011 03:34:04 13.4 C 6.86 g/m*3 13.4 C 0 km/h
3022 03-07-2011 03:46:04 13.3 C 6.93 g/m*3 13.3 C 0 km/h
3023 03-07-2011 03:58:04 13.1 C 6.73 g/m*3 13.1 C 0 km/h
3024 03-07-2011 04:10:04 13 C 6.8 g/m*3 13 C 0 km/h
3025 03-07-2011 04:22:04 13 C 6.8 g/m*3 13 C 0 km/h
Sensor: Nr:Datum:Temp:Abs-Feuchte:Windchill:Wind:
Aussen-T/F 3026 03-07-2011 04:34:04 13 C 6.8 g/m*3 13 C 0 km/h
3027 03-07-2011 04:46:04 13 C 6.8 g/m*3 13 C 0 km/h
3028 03-07-2011 04:58:04 13 C 6.8 g/m*3 13 C 0 km/h
3029 03-07-2011 05:10:04 12.9 C 6.76 g/m*3 12.9 C 0 km/h
3030 03-07-2011 05:22:04 12.9 C 6.76 g/m*3 12.9 C 0 km/h
3031 03-07-2011 05:34:04 12.9 C 6.76 g/m*3 12.9 C 0 km/h
3032 03-07-2011 05:46:04 12.9 C 6.76 g/m*3 12.9 C 0 km/h
3033 03-07-2011 05:58:04 12.9 C 6.76 g/m*3 12.9 C 0 km/h
3034 03-07-2011 06:10:04 12.9 C 6.76 g/m*3 12.9 C 0 km/h
3035 03-07-2011 06:22:04 12.9 C 6.76 g/m*3 12.9 C 0 km/h
3036 03-07-2011 06:34:05 12.9 C 6.76 g/m*3 12.9 C 0 km/h
3037 03-07-2011 06:46:05 12.9 C 6.76 g/m*3 12.9 C 0 km/h
3038 03-07-2011 06:58:05 12.8 C 7.06 g/m*3 12.8 C 0 km/h
3039 03-07-2011 07:10:05 12.7 C 7.12 g/m*3 12.7 C 0 km/h
3040 03-07-2011 07:22:05 12.6 C 7.08 g/m*3 12.6 C 0 km/h
3041 03-07-2011 07:34:05 12.6 C 7.08 g/m*3 12.6 C 0 km/h
3042 03-07-2011 07:46:05 12.6 C 7.08 g/m*3 12.6 C 0 km/h
3043 03-07-2011 07:58:05 12.6 C 7.08 g/m*3 12.6 C 0 km/h
3044 03-07-2011 08:10:05 12.6 C 7.08 g/m*3 12.6 C 0 km/h
3045 03-07-2011 08:22:05 12.6 C 7.08 g/m*3 12.6 C 0 km/h
3046 03-07-2011 08:34:05 12.6 C 7.08 g/m*3 12.6 C 0 km/h
3047 03-07-2011 08:46:05 12.6 C 7.08 g/m*3 12.6 C 0 km/h
3048 03-07-2011 08:58:05 12.6 C 7.08 g/m*3 12.6 C 0 km/h
3049 03-07-2011 09:10:05 12.6 C 7.08 g/m*3 12.6 C 0 km/h
3050 03-07-2011 09:22:05 12.6 C 7.08 g/m*3 12.6 C 0 km/h
Sensor: Nr:Datum:Temp:Abs-Feuchte:Windchill:Wind:
Aussen-T/F 3051 03-07-2011 09:34:05 12.6 C 7.08 g/m*3 12.6 C 0 km/h
3052 03-07-2011 09:46:01 12.6 C 7.08 g/m*3 12.6 C 0 km/h
3053 03-07-2011 09:58:01 12.6 C 7.08 g/m*3 12.6 C 0 km/h
3054 03-07-2011 10:10:02 12.6 C 7.08 g/m*3 12.6 C 0 km/h
3055 03-07-2011 10:22:02 12.6 C 7.08 g/m*3 12.6 C 0 km/h
3056 03-07-2011 14:34:02 18.9 C 5.83 g/m*3 18.9 C 0 km/h
3057 03-07-2011 14:46:01 20 C 6.05 g/m*3 20 C 0 km/h
3058 03-07-2011 14:58:01 21.6 C 5.88 g/m*3 21.6 C 0 km/h
3059 03-07-2011 15:10:02 21.6 C 6.07 g/m*3 21.6 C 0 km/h
3060 03-07-2011 15:22:01 22 C 5.82 g/m*3 22 C 0 km/h
3061 03-07-2011 15:34:02 20.8 C 5.98 g/m*3 20.8 C 0 km/h
3062 03-07-2011 15:46:01 24.5 C 5.82 g/m*3 24.5 C 0 km/h
3063 03-07-2011 15:58:01 23.9 C 5.41 g/m*3 23.9 C 0 km/h
3064 03-07-2011 16:10:02 24.7 C 5.66 g/m*3 24.7 C 0 km/h
3065 03-07-2011 16:22:01 25 C 5.52 g/m*3 25 C 0 km/h
3066 03-07-2011 16:34:02 25.9 C 5.81 g/m*3 25.9 C 0 km/h
3067 03-07-2011 16:46:01 26 C 5.6 g/m*3 26 C 0 km/h
3068 03-07-2011 16:58:01 27.5 C 5.56 g/m*3 27.5 C 0 km/h
3069 03-07-2011 17:10:02 26.6 C 5.29 g/m*3 26.6 C 0 km/h
3070 03-07-2011 17:22:02 24.5 C 5.82 g/m*3 24.5 C 0 km/h
3071 03-07-2011 17:34:02 23.2 C 5.82 g/m*3 23.2 C 0 km/h
3072 03-07-2011 17:46:02 25 C 5.75 g/m*3 25 C 0 km/h
3073 03-07-2011 17:58:02 25.4 C 5.89 g/m*3 25.4 C 0 km/h
3074 03-07-2011 18:10:01 26 C 6.09 g/m*3 26 C 0 km/h
3075 03-07-2011 18:22:02 25.4 C 5.89 g/m*3 25.4 C 0 km/h
Sensor: Nr:Datum:Temp:Abs-Feuchte:Windchill:Wind:
Aussen-T/F 3076 03-07-2011 18:34:01 24.4 C 6.01 g/m*3 24.4 C 0 km/h
3077 03-07-2011 18:46:02 24.6 C 5.63 g/m*3 24.6 C 0 km/h
3078 03-07-2011 18:58:02 24.7 C 5.88 g/m*3 24.7 C 0 km/h
3079 03-07-2011 19:10:01 23.2 C 6.24 g/m*3 23.2 C 0 km/h
3080 03-07-2011 19:22:01 23.4 C 6.1 g/m*3 23.4 C 0 km/h
3081 03-07-2011 19:34:01 24.1 C 6.13 g/m*3 24.1 C 0 km/h
3082 03-07-2011 19:46:02 22.2 C 6.28 g/m*3 22.2 C 0 km/h
3083 03-07-2011 19:58:02 19.9 C 6.87 g/m*3 19.9 C 0 km/h
3084 03-07-2011 20:10:02 19 C 6.84 g/m*3 19 C 0 km/h
3085 03-07-2011 20:22:02 18.7 C 7.04 g/m*3 18.7 C 0 km/h
3086 03-07-2011 20:34:02 18.2 C 6.99 g/m*3 18.2 C 0 km/h
3087 03-07-2011 20:46:01 18 C 7.07 g/m*3 18 C 0 km/h
3088 03-07-2011 20:58:01 17.7 C 7.24 g/m*3 17.7 C 0 km/h
3089 03-07-2011 21:10:02 17.2 C 7.32 g/m*3 17.2 C 0 km/h
3090 03-07-2011 21:22:01 16.5 C 7.58 g/m*3 16.5 C 0 km/h
3091 03-07-2011 21:34:02 16.2 C 7.58 g/m*3 16.2 C 0 km/h
3092 03-07-2011 21:46:02 16.2 C 7.58 g/m*3 16.2 C 0 km/h
3093 03-07-2011 21:58:02 16.2 C 7.58 g/m*3 16.2 C 0 km/h
3094 03-07-2011 22:10:02 16.2 C 7.58 g/m*3 16.2 C 0 km/h
3095 03-07-2011 22:23:04 16.2 C 7.58 g/m*3 16.2 C 0 km/h
3096 03-07-2011 22:35:04 16.2 C 7.58 g/m*3 16.2 C 0 km/h
3097 03-07-2011 22:47:04 16.2 C 7.58 g/m*3 16.2 C 0 km/h
3098 03-07-2011 22:59:04 16.2 C 7.58 g/m*3 16.2 C 0 km/h
3099 03-07-2011 23:11:04 16.2 C 7.58 g/m*3 16.2 C 0 km/h
3100 03-07-2011 23:23:04 16.2 C 7.58 g/m*3 16.2 C 0 km/h
Sensor: Nr:Datum:Temp:Abs-Feuchte:Windchill:Wind:
Aussen-T/F 3101 03-07-2011 23:35:05 16.2 C 7.58 g/m*3 16.2 C 0 km/h
3102 03-07-2011 23:47:05 16.2 C 7.58 g/m*3 16.2 C 0 km/h
3103 03-07-2011 23:59:05 16.2 C 7.58 g/m*3 16.2 C 0 km/h
3104 04-07-2011 00:11:05 16.2 C 7.58 g/m*3 16.2 C 0 km/h
3105 04-07-2011 00:23:05 16.2 C 7.58 g/m*3 16.2 C 0 km/h
3106 04-07-2011 00:35:05 16.2 C 7.58 g/m*3 16.2 C 0 km/h
3107 04-07-2011 00:47:05 16.2 C 7.58 g/m*3 16.2 C 0 km/h
3108 04-07-2011 00:59:05 16.2 C 7.58 g/m*3 16.2 C 0 km/h
3109 04-07-2011 01:11:05 16.2 C 7.58 g/m*3 16.2 C 0 km/h
3110 04-07-2011 01:23:05 16.2 C 7.58 g/m*3 16.2 C 0 km/h
3111 04-07-2011 01:35:05 16.2 C 7.58 g/m*3 16.2 C 0 km/h
3112 04-07-2011 01:47:05 16.2 C 7.58 g/m*3 16.2 C 0 km/h
3113 04-07-2011 01:59:05 16.2 C 7.58 g/m*3 16.2 C 0 km/h
3114 04-07-2011 02:11:05 16.2 C 7.58 g/m*3 16.2 C 0 km/h
3115 04-07-2011 02:23:05 16.2 C 7.58 g/m*3 16.2 C 0 km/h
3116 04-07-2011 02:35:05 16.2 C 7.58 g/m*3 16.2 C 0 km/h
3117 04-07-2011 02:47:05 16.2 C 7.58 g/m*3 16.2 C 0 km/h
3118 04-07-2011 02:59:05 16.2 C 7.58 g/m*3 16.2 C 0 km/h
3119 04-07-2011 03:11:05 16.2 C 7.58 g/m*3 16.2 C 0 km/h
3120 04-07-2011 03:23:05 16.2 C 7.58 g/m*3 16.2 C 0 km/h
3121 04-07-2011 03:35:06 16.2 C 7.58 g/m*3 16.2 C 0 km/h
3122 04-07-2011 03:47:06 16.2 C 7.58 g/m*3 16.2 C 0 km/h
3123 04-07-2011 03:59:06 16.2 C 7.58 g/m*3 16.2 C 0 km/h
3124 04-07-2011 04:11:06 16.2 C 7.58 g/m*3 16.2 C 0 km/h
3125 04-07-2011 04:23:06 16.2 C 7.58 g/m*3 16.2 C 0 km/h
Sensor: Nr:Datum:Temp:Abs-Feuchte:Windchill:Wind:
Aussen-T/F 3126 04-07-2011 04:35:06 16.2 C 7.58 g/m*3 16.2 C 0 km/h
3127 04-07-2011 04:47:06 16.2 C 7.58 g/m*3 16.2 C 0 km/h
3128 04-07-2011 04:59:06 16.2 C 7.58 g/m*3 16.2 C 0 km/h
3129 04-07-2011 05:11:06 16.2 C 7.58 g/m*3 16.2 C 0 km/h
3130 04-07-2011 05:23:06 16.2 C 7.58 g/m*3 16.2 C 0 km/h
3131 04-07-2011 05:35:06 16.2 C 7.58 g/m*3 16.2 C 0 km/h
3132 04-07-2011 05:47:06 16.2 C 7.58 g/m*3 16.2 C 0 km/h
3133 04-07-2011 05:59:06 16.2 C 7.58 g/m*3 16.2 C 0 km/h
3134 04-07-2011 06:11:06 16.2 C 7.58 g/m*3 16.2 C 0 km/h
3135 04-07-2011 06:23:06 16.2 C 7.58 g/m*3 16.2 C 0 km/h
3136 04-07-2011 06:35:06 16.2 C 7.58 g/m*3 16.2 C 0 km/h
3137 04-07-2011 06:47:06 16.2 C 7.58 g/m*3 16.2 C 0 km/h
3138 04-07-2011 06:59:06 16.2 C 7.58 g/m*3 16.2 C 0 km/h
3139 04-07-2011 07:11:06 16.2 C 7.58 g/m*3 16.2 C 0 km/h
3140 04-07-2011 07:23:03 16.2 C 7.58 g/m*3 16.2 C 0 km/h
3141 04-07-2011 07:35:04 16.2 C 7.58 g/m*3 16.2 C 0 km/h
3142 04-07-2011 07:47:02 16.2 C 7.58 g/m*3 16.2 C 0 km/h
3143 04-07-2011 07:59:02 16.2 C 7.58 g/m*3 16.2 C 0 km/h
3144 05-07-2011 08:00:01 12.2 C 9.28 g/m*3 12.2 C 0 km/h
3145 05-07-2011 08:12:02 12.5 C 9.35 g/m*3 12.5 C 0 km/h
3146 05-07-2011 08:24:03 12.6 C 9.4 g/m*3 12.6 C 0 km/h
3147 05-07-2011 08:36:03 13.1 C 9.47 g/m*3 13.1 C 0 km/h
3148 05-07-2011 08:48:02 14 C 9.89 g/m*3 14 C 0 km/h
3149 05-07-2011 09:00:02 14.4 C 9.89 g/m*3 14.4 C 0 km/h
3150 05-07-2011 09:12:02 14.7 C 9.82 g/m*3 14.7 C 0 km/h
Sensor: Nr:Datum:Temp:Abs-Feuchte:Windchill:Wind:
Aussen-T/F 3151 05-07-2011 09:24:02 15 C 9.75 g/m*3 15 C 0 km/h
3152 05-07-2011 09:36:01 15.6 C 9.84 g/m*3 15.6 C 0 km/h
3153 05-07-2011 09:48:01 16.1 C 9.73 g/m*3 16.1 C 0 km/h
3154 05-07-2011 10:00:01 16.7 C 9.81 g/m*3 16.7 C 0 km/h
3155 05-07-2011 10:12:02 17.3 C 9.58 g/m*3 17.3 C 0 km/h
3156 05-07-2011 10:24:02 17.6 C 9.6 g/m*3 17.6 C 0 km/h
3157 05-07-2011 10:36:01 18.1 C 9.58 g/m*3 18.1 C 0 km/h
3158 05-07-2011 10:48:02 18.8 C 9.66 g/m*3 18.8 C 0 km/h
3159 05-07-2011 11:00:02 20.1 C 9.73 g/m*3 20.1 C 0 km/h
3160 05-07-2011 11:12:01 21.7 C 9.35 g/m*3 21.7 C 0 km/h
3161 05-07-2011 11:24:02 20.7 C 9.36 g/m*3 20.7 C 0 km/h
3162 05-07-2011 11:36:01 21.6 C 9.67 g/m*3 21.6 C 0 km/h
3163 05-07-2011 11:48:03 21.8 C 9.59 g/m*3 21.8 C 0 km/h
3164 05-07-2011 12:00:03 22.3 C 9.68 g/m*3 22.3 C 0 km/h
3165 05-07-2011 12:12:02 22.5 C 9.59 g/m*3 22.5 C 0 km/h
3166 05-07-2011 12:24:02 22.8 C 9.55 g/m*3 22.8 C 0 km/h
3167 05-07-2011 12:36:03 23.3 C 8.78 g/m*3 23.3 C 0 km/h
3168 05-07-2011 12:48:02 24 C 8.27 g/m*3 24 C 0 km/h
3169 05-07-2011 13:00:03 24.1 C 7.88 g/m*3 24.1 C 0 km/h
3170 05-07-2011 13:12:01 24.9 C 8.24 g/m*3 24.9 C 0 km/h
3171 05-07-2011 13:24:02 25.8 C 8.67 g/m*3 25.8 C 0 km/h
3172 05-07-2011 13:36:02 30.6 C 8.14 g/m*3 30.6 C 0 km/h
3173 05-07-2011 13:48:02 31.9 C 6.72 g/m*3 31.9 C 0 km/h
3174 05-07-2011 14:00:02 31.8 C 6.68 g/m*3 31.8 C 0 km/h
3175 05-07-2011 14:12:03 31.9 C 6.72 g/m*3 31.9 C 0 km/h
Sensor: Nr:Datum:Temp:Abs-Feuchte:Windchill:Wind:
Aussen-T/F 3176 05-07-2011 14:24:02 31.8 C 6.68 g/m*3 31.8 C 0 km/h
3177 05-07-2011 14:36:02 33.2 C 7.2 g/m*3 33.2 C 0 km/h
3178 05-07-2011 14:48:02 33 C 7.12 g/m*3 33 C 0 km/h
3179 05-07-2011 15:00:02 32.5 C 6.93 g/m*3 32.5 C 0 km/h
3180 05-07-2011 15:12:02 31.8 C 6.68 g/m*3 31.8 C 0 km/h
3181 05-07-2011 15:24:02 32.4 C 6.9 g/m*3 32.4 C 0 km/h
3182 05-07-2011 15:36:02 33.1 C 7.16 g/m*3 33.1 C 0 km/h
3183 05-07-2011 15:48:02 31.4 C 6.54 g/m*3 31.4 C 0 km/h
3184 05-07-2011 16:00:02 33 C 7.12 g/m*3 33 C 0 km/h
3185 05-07-2011 16:12:01 31.9 C 6.72 g/m*3 31.9 C 0 km/h
3186 05-07-2011 16:24:02 31.8 C 6.68 g/m*3 31.8 C 0 km/h
3187 05-07-2011 16:36:02 31.3 C 6.83 g/m*3 31.3 C 0 km/h
3188 05-07-2011 16:48:01 31.3 C 8.13 g/m*3 31.3 C 0 km/h
3189 05-07-2011 17:00:01 31.2 C 6.79 g/m*3 31.2 C 0 km/h
3190 05-07-2011 17:12:01 30.3 C 8.32 g/m*3 30.3 C 0 km/h
3191 05-07-2011 17:24:01 30.4 C 7.75 g/m*3 30.4 C 0 km/h
3192 05-07-2011 17:36:02 31.5 C 7.89 g/m*3 31.5 C 0 km/h
3193 05-07-2011 17:48:02 31.2 C 9.7 g/m*3 31.2 C 0 km/h
3194 05-07-2011 18:00:02 29.7 C 10.44 g/m*3 29.7 C 0 km/h
3195 05-07-2011 18:12:02 31.2 C 7.44 g/m*3 31.2 C 0 km/h
3196 05-07-2011 18:24:02 30.2 C 8.28 g/m*3 30.2 C 0 km/h
3197 05-07-2011 18:36:02 30.8 C 8.23 g/m*3 30.8 C 0 km/h
3198 05-07-2011 18:48:02 30.6 C 7.2 g/m*3 30.6 C 0 km/h
3199 05-07-2011 19:00:02 31 C 8 g/m*3 31 C 0 km/h
3200 05-07-2011 19:12:02 31.4 C 7.52 g/m*3 31.4 C 0 km/h
Sensor: Nr:Datum:Temp:Abs-Feuchte:Windchill:Wind:
Aussen-T/F 3201 05-07-2011 19:24:02 29 C 9.48 g/m*3 29 C 0 km/h
3202 05-07-2011 19:36:02 29.9 C 9.65 g/m*3 29.9 C 0 km/h
3203 05-07-2011 19:48:02 27.9 C 10.28 g/m*3 27.9 C 0 km/h
3204 05-07-2011 20:00:02 26 C 10.47 g/m*3 26 C 0 km/h
3205 05-07-2011 20:12:02 25.5 C 10.42 g/m*3 25.5 C 0 km/h
3206 05-07-2011 20:24:02 25 C 10.36 g/m*3 25 C 0 km/h
3207 05-07-2011 20:36:02 24.7 C 10.19 g/m*3 24.7 C 0 km/h
3208 05-07-2011 20:48:02 23.9 C 10.38 g/m*3 23.9 C 0 km/h
3209 05-07-2011 21:00:02 22.9 C 10.63 g/m*3 22.9 C 0 km/h
3210 05-07-2011 21:12:02 22 C 10.09 g/m*3 22 C 0 km/h
3211 05-07-2011 21:24:02 21.5 C 10.18 g/m*3 21.5 C 0 km/h
3212 05-07-2011 21:36:02 21 C 10.08 g/m*3 21 C 0 km/h
3213 05-07-2011 21:48:02 20.8 C 10.14 g/m*3 20.8 C 0 km/h
3214 05-07-2011 22:00:02 20.6 C 10.2 g/m*3 20.6 C 0 km/h
3215 05-07-2011 22:12:02 20.4 C 10.26 g/m*3 20.4 C 0 km/h
3216 05-07-2011 22:24:02 20.2 C 10.14 g/m*3 20.2 C 0 km/h
3217 05-07-2011 22:36:02 19.9 C 10.31 g/m*3 19.9 C 0 km/h
3218 05-07-2011 22:49:03 20 C 10.37 g/m*3 20 C 0 km/h
3219 05-07-2011 23:01:03 19.6 C 10.47 g/m*3 19.6 C 0 km/h
3220 05-07-2011 23:13:03 19.6 C 10.47 g/m*3 19.6 C 0 km/h
3221 05-07-2011 23:25:03 19.2 C 10.39 g/m*3 19.2 C 0 km/h
3222 05-07-2011 23:37:03 18.6 C 10.35 g/m*3 18.6 C 0 km/h
3223 05-07-2011 23:49:03 18.1 C 10.51 g/m*3 18.1 C 0 km/h
3224 06-07-2011 00:01:03 17.8 C 10.47 g/m*3 17.8 C 0 km/h
3225 06-07-2011 00:13:03 17.4 C 10.37 g/m*3 17.4 C 0 km/h
Sensor: Nr:Datum:Temp:Abs-Feuchte:Windchill:Wind:
Aussen-T/F 3226 06-07-2011 00:25:03 17.1 C 10.48 g/m*3 17.1 C 0 km/h
3227 06-07-2011 00:37:03 16.8 C 10.58 g/m*3 16.8 C 0 km/h
3228 06-07-2011 00:49:03 17 C 10.71 g/m*3 17 C 0 km/h
3229 06-07-2011 01:01:03 16.8 C 10.72 g/m*3 16.8 C 0 km/h
3230 06-07-2011 01:13:03 16.9 C 10.64 g/m*3 16.9 C 0 km/h
3231 06-07-2011 01:25:03 16.6 C 10.45 g/m*3 16.6 C 0 km/h
3232 06-07-2011 01:37:03 16.1 C 10.14 g/m*3 16.1 C 0 km/h
3233 06-07-2011 01:49:03 15.7 C 10.17 g/m*3 15.7 C 0 km/h
3234 06-07-2011 02:01:03 15.6 C